Provisional Data: Chemung River at West Elmira, NY


Please select a monitoring station.
Please select start date.
Please select start date.

Toggle Unit: C/F Toggle Unit: C/F
Sample Time Temperature (C) Temperature (F) Specific Conductivity (mS/cm) pH   Turbidity (NTU+) DO (mg/L)
4/13/2022 12:00:00 AM 11.04 51.872 0.27 8.53 13.42 11.75
4/13/2022 12:15:00 AM 11.05 51.89 0.272 8.53 13.84 11.7
4/13/2022 12:30:00 AM 11.05 51.89 0.274 8.52 13.45 11.65
4/13/2022 12:45:00 AM 11.07 51.926 0.277 8.52 14.29 11.6
4/13/2022 1:00:00 AM 11.07 51.926 0.279 8.51 14.31 11.55
4/13/2022 1:15:00 AM 11.08 51.944 0.281 8.5 14.01 11.5
4/13/2022 1:30:00 AM 11.08 51.944 0.283 8.49 13.54 11.45
4/13/2022 1:45:00 AM 11.08 51.944 0.285 8.48 9.9 11.41
4/13/2022 2:00:00 AM 11.07 51.926 0.286 8.47 13.71 11.36
4/13/2022 2:15:00 AM 11.07 51.926 0.288 8.47 14.57 11.32
4/13/2022 2:30:00 AM 11.06 51.908 0.289 8.46 13.81 11.27
4/13/2022 2:45:00 AM 11.05 51.89 0.29 8.44 13.4 11.23
4/13/2022 3:00:00 AM 11.03 51.854 0.291 8.43 14.22 11.18
4/13/2022 3:15:00 AM 11.02 51.836 0.291 8.41 14.46 11.14
4/13/2022 3:30:00 AM 11 51.8 0.292 8.4 13.5 11.1
4/13/2022 3:45:00 AM 10.99 51.782 0.292 8.38 13.51 11.06
4/13/2022 4:00:00 AM 10.97 51.746 0.292 8.36 14.96 11.02
4/13/2022 4:15:00 AM 10.95 51.71 0.292 8.34 14.49 10.97
4/13/2022 4:30:00 AM 10.94 51.692 0.293 8.32 13.7 10.93
4/13/2022 4:45:00 AM 10.91 51.638 0.293 8.3 8.76 10.9
4/13/2022 5:00:00 AM 10.9 51.62 0.293 8.28 13.7 10.85
4/13/2022 5:15:00 AM 10.88 51.584 0.293 8.26 13.87 10.82
4/13/2022 5:30:00 AM 10.86 51.548 0.293 8.24 14.3 10.79
4/13/2022 5:45:00 AM 10.84 51.512 0.293 8.22 13.53 10.75
4/13/2022 6:00:00 AM 10.82 51.476 0.294 8.2 13.76 10.72
4/13/2022 6:15:00 AM 10.8 51.44 0.294 8.18 10.63 10.68
4/13/2022 6:30:00 AM 10.77 51.386 0.294 8.16 10.43 10.65
4/13/2022 6:45:00 AM 10.76 51.368 0.294 8.14 14.06 10.63
4/13/2022 7:00:00 AM 10.74 51.332 0.294 8.12 14.88 10.6
4/13/2022 7:15:00 AM 10.72 51.296 0.293 8.11 13.98 10.58
4/13/2022 7:30:00 AM 10.7 51.26 0.293 8.09 14.36 10.57
4/13/2022 7:45:00 AM 10.69 51.242 0.292 8.09 14.99 10.57
4/13/2022 8:00:00 AM 10.68 51.224 0.291 8.08 14.39 10.58
4/13/2022 8:15:00 AM 10.68 51.224 0.29 8.08 14.2 10.62
4/13/2022 8:30:00 AM 10.69 51.242 0.289 8.09 13.86 10.68
4/13/2022 8:45:00 AM 10.7 51.26 0.289 8.11 7.37 10.75
4/13/2022 9:00:00 AM 10.71 51.278 0.288 8.11 10.16 10.83
4/13/2022 9:15:00 AM 10.72 51.296 0.288 8.15 13.95 10.9
4/13/2022 9:30:00 AM 10.75 51.35 0.288 8.17 14.15 10.99
4/13/2022 9:45:00 AM 10.81 51.458 0.288 8.19 9.94 11.06
4/13/2022 10:00:00 AM 10.88 51.584 0.288 8.22 14.37 11.18
4/13/2022 10:15:00 AM 10.97 51.746 0.288 8.26 14.43 11.3
4/13/2022 10:30:00 AM 11.02 51.836 0.289 8.29 13.72 11.41
4/13/2022 10:45:00 AM 11.09 51.962 0.289 8.32 14.26 11.5
4/13/2022 11:00:00 AM 11.12 52.016 0.29 8.35 13.71 11.56
4/13/2022 11:15:00 AM 11.16 52.088 0.29 8.37 14.13 11.63
4/13/2022 11:30:00 AM 11.17 52.106 0.291 8.38 14.05 11.69
4/13/2022 11:45:00 AM 11.2 52.16 0.291 8.4 13.97 11.75
4/13/2022 12:00:00 PM 11.27 52.286 0.291 8.41 8.47 11.82
4/13/2022 12:15:00 PM 11.36 52.448 0.292 8.43 9.05 11.88
4/13/2022 12:30:00 PM 11.47 52.646 0.292 8.46 10.43 11.98
4/13/2022 12:45:00 PM 11.58 52.844 0.292 8.48 14.37 12.08
4/13/2022 1:00:00 PM 11.66 52.988 0.292 8.51 13.3 12.17
4/13/2022 1:15:00 PM 11.74 53.132 0.291 8.53 12.73 12.23
4/13/2022 1:30:00 PM 11.77 53.186 0.291 8.55 13.67 12.3
4/13/2022 1:45:00 PM 11.76 53.168 0.29 8.56 13.83 12.33
4/13/2022 2:00:00 PM 11.73 53.114 0.289 8.57 14.5 12.35
4/13/2022 2:15:00 PM 11.69 53.042 0.288 8.57 13.7 12.35
4/13/2022 2:30:00 PM 11.66 52.988 0.287 8.56 13.61 12.23
4/13/2022 2:45:00 PM 11.64 52.952 0.285 8.56 13.65 12.33
4/13/2022 3:00:00 PM 11.63 52.934 0.284 8.57 14.33 12.33
4/13/2022 3:15:00 PM 11.61 52.898 0.283 8.57 13.71 12.35
4/13/2022 3:30:00 PM 11.59 52.862 0.281 8.58 13.96 12.4
4/13/2022 3:45:00 PM 11.56 52.808 0.28 8.59 8.87 12.43
4/13/2022 4:00:00 PM 11.55 52.79 0.278 8.61 13.81 12.49
4/13/2022 4:15:00 PM 11.53 52.754 0.278 8.62 14.59 12.5
4/13/2022 4:30:00 PM 11.52 52.736 0.277 8.63 14.64 12.52
4/13/2022 4:45:00 PM 11.49 52.682 0.276 8.63 14.41 12.55
4/13/2022 5:00:00 PM 11.5 52.7 0.275 8.64 14.5 12.57
4/13/2022 5:15:00 PM 11.51 52.718 0.275 8.64 13.86 12.58
4/13/2022 5:30:00 PM 11.51 52.718 0.274 8.66 14.45 12.59
4/13/2022 5:45:00 PM 11.51 52.718 0.274 8.67 14.05 12.61
4/13/2022 6:00:00 PM 11.5 52.7 0.273 8.67 13.59 12.61
4/13/2022 6:15:00 PM 11.49 52.682 0.273 8.68 14.36 12.59
4/13/2022 6:30:00 PM 11.48 52.664 0.273 8.68 7.95 12.55
4/13/2022 6:45:00 PM 11.47 52.646 0.272 8.67 13.2 12.49
4/13/2022 7:00:00 PM 11.46 52.628 0.272 8.67 14.04 12.44
4/13/2022 7:15:00 PM 11.45 52.61 0.272 8.65 13.58 12.38
4/13/2022 7:30:00 PM 11.45 52.61 0.272 8.65 13.78 12.3
4/13/2022 7:45:00 PM 11.44 52.592 0.272 8.64 14.29 12.22
4/13/2022 8:00:00 PM 11.43 52.574 0.271 8.63 7.25 12.16
4/13/2022 8:15:00 PM 11.43 52.574 0.271 8.62 14.47 12.1
4/13/2022 8:30:00 PM 11.42 52.556 0.271 8.61 13.6 12.04
4/13/2022 8:45:00 PM 11.42 52.556 0.271 8.6 14.72 11.98
4/13/2022 9:00:00 PM 11.42 52.556 0.271 8.59 8.55 11.92
4/13/2022 9:15:00 PM 11.43 52.574 0.271 8.58 8.33 11.87
4/13/2022 9:30:00 PM 11.43 52.574 0.27 8.56 29.1 11.82
4/13/2022 9:45:00 PM 11.44 52.592 0.27 8.55 14.42 11.76
4/13/2022 10:00:00 PM 11.45 52.61 0.27 8.54 14.33 11.72
4/13/2022 10:15:00 PM 11.46 52.628 0.27 8.54 9.46 11.65
4/13/2022 10:30:00 PM 11.47 52.646 0.27 8.52 6.8 11.62
4/13/2022 10:45:00 PM 11.48 52.664 0.27 8.51 9.74 11.57
4/13/2022 11:00:00 PM 11.48 52.664 0.27 8.5 9.33 11.52
4/13/2022 11:15:00 PM 11.48 52.664 0.27 8.48 15.58 11.47
4/13/2022 11:30:00 PM 11.48 52.664 0.27 8.46 9.82 11.42
4/13/2022 11:45:00 PM 11.47 52.646 0.271 8.44 10.94 11.38
4/14/2022 12:00:00 AM 11.47 52.646 0.271 8.42 10.74 11.32
4/14/2022 12:15:00 AM 11.45 52.61 0.271 8.4 14.8 11.27
4/14/2022 12:30:00 AM 11.44 52.592 0.272 8.38 14.76 11.22
4/14/2022 12:45:00 AM 11.42 52.556 0.272 8.36 9.59 11.18
4/14/2022 1:00:00 AM 11.4 52.52 0.271 8.34 9.59 11.13
4/14/2022 1:15:00 AM 11.39 52.502 0.271 8.32 8.75 11.09
4/14/2022 1:30:00 AM 11.37 52.466 0.271 8.29 8.86 11.05
4/14/2022 1:45:00 AM 11.36 52.448 0.271 8.27 10.7 11
4/14/2022 2:00:00 AM 11.35 52.43 0.271 8.25 10.17 10.96
4/14/2022 2:15:00 AM 11.34 52.412 0.272 8.23 9.9 10.92
4/14/2022 2:30:00 AM 11.34 52.412 0.272 8.21 11.85 10.87
4/14/2022 2:45:00 AM 11.33 52.394 0.273 8.18 13.13 10.83
4/14/2022 3:00:00 AM 11.32 52.376 0.274 8.14 10.92 10.79
4/14/2022 3:15:00 AM 11.32 52.376 0.276 8.14 8.38 10.75
4/14/2022 3:30:00 AM 11.31 52.358 0.277 8.11 9.57 10.71
4/14/2022 3:45:00 AM 11.3 52.34 0.278 8.08 10.54 10.68
4/14/2022 4:00:00 AM 11.29 52.322 0.28 8.07 102.54 10.64
4/14/2022 4:15:00 AM 11.28 52.304 0.282 8.04 6.8 10.6
4/14/2022 4:30:00 AM 11.26 52.268 0.283 8.03 9.33 10.57
4/14/2022 4:45:00 AM 11.25 52.25 0.284 8.01 9.71 10.53
4/14/2022 5:00:00 AM 11.24 52.232 0.285 8 10.08 10.5
4/14/2022 5:15:00 AM 11.22 52.196 0.287 7.98 8.47 10.47
4/14/2022 5:30:00 AM 11.21 52.178 0.288 7.96 8.44 10.44
4/14/2022 5:45:00 AM 11.2 52.16 0.289 7.94 9 10.41
4/14/2022 6:00:00 AM 11.18 52.124 0.289 7.93 14.27 10.38
4/14/2022 6:15:00 AM 11.17 52.106 0.29 7.92 7.55 10.34
4/14/2022 6:30:00 AM 11.16 52.088 0.291 7.91 9.34 10.32
4/14/2022 6:45:00 AM 11.14 52.052 0.291 7.89 8.46 10.3
4/14/2022 7:00:00 AM 11.14 52.052 0.292 7.88 9.6 10.28
4/14/2022 7:15:00 AM 11.14 52.052 0.292 7.88 9.48 10.28
4/14/2022 7:30:00 AM 11.14 52.052 0.293 7.87 11.55 10.28
4/14/2022 7:45:00 AM 11.15 52.07 0.293 7.88 8.98 10.3
4/14/2022 8:00:00 AM 11.18 52.124 0.294 7.88 8.37 10.35
4/14/2022 8:15:00 AM 11.21 52.178 0.294 7.89 14.8 10.42
4/14/2022 8:30:00 AM 11.27 52.286 0.294 7.91 14.1 10.5
4/14/2022 8:45:00 AM 11.32 52.376 0.294 7.93 14.39 10.56
4/14/2022 9:00:00 AM 11.38 52.484 0.295 7.96 9.25 10.67
4/14/2022 9:15:00 AM 11.45 52.61 0.295 7.98 14.28 10.74
4/14/2022 9:30:00 AM 11.54 52.772 0.295 8.01 12.64 10.83
4/14/2022 9:45:00 AM 11.66 52.988 0.295 8.06 15.03 10.97
4/14/2022 10:00:00 AM 11.75 53.15 0.295 8.1 13.62 11.11
4/14/2022 10:15:00 AM 11.85 53.33 0.295 8.15 13.54 11.23
4/14/2022 10:30:00 AM 11.9 53.42 0.295 8.18 13.44 11.31
4/14/2022 10:45:00 AM 11.99 53.582 0.295 8.22 13.15 11.39
4/14/2022 11:00:00 AM 12.07 53.726 0.295 8.25 13.7 11.47
4/14/2022 11:15:00 AM 12.11 53.798 0.295 8.28 14.31 11.51
4/14/2022 11:30:00 AM 12.13 53.834 0.295 8.3 12.42 11.57
4/14/2022 11:45:00 AM 12.14 53.852 0.295 8.32 13.59 11.58
4/14/2022 12:00:00 PM 12.12 53.816 0.295 8.31 13.34 11.55
4/14/2022 12:15:00 PM 12.11 53.798 0.295 8.31 13.51 11.53
4/14/2022 12:30:00 PM 12.09 53.762 0.295 8.31 13.64 11.55
4/14/2022 12:45:00 PM 12.09 53.762 0.296 8.32 14.3 11.55
4/14/2022 1:00:00 PM 12.09 53.762 0.295 8.3 31.21 11.49
4/14/2022 1:15:00 PM 12.1 53.78 0.295 8.31 34.76 11.51
4/14/2022 1:30:00 PM 12.09 53.762 0.295 8.34 25.56 11.58
4/14/2022 1:45:00 PM 12.1 53.78 0.294 8.36 10.46 11.64
4/14/2022 2:00:00 PM 12.1 53.78 0.294 8.39 7.05 11.74
4/14/2022 2:15:00 PM 12.1 53.78 0.293 8.42 14.13 11.83
4/14/2022 2:30:00 PM 12.08 53.744 0.293 8.44 12.05 11.87
4/14/2022 2:45:00 PM 12.06 53.708 0.292 8.46 7.81 11.92
4/14/2022 3:00:00 PM 12.05 53.69 0.29 8.48 8.42 11.97
4/14/2022 3:15:00 PM 12.04 53.672 0.288 8.49 9.45 12.01
4/14/2022 3:30:00 PM 12.05 53.69 0.287 8.51 8.59 12.08
4/14/2022 3:45:00 PM 12.05 53.69 0.285 8.54 7.3 12.16
4/14/2022 4:00:00 PM 12.05 53.69 0.283 8.57 7.61 12.24
4/14/2022 4:15:00 PM 12.05 53.69 0.281 8.58 8.05 12.29
4/14/2022 4:30:00 PM 12.02 53.636 0.279 8.61 9 12.37
4/14/2022 4:45:00 PM 12 53.6 0.277 8.63 14.02 12.38
4/14/2022 5:00:00 PM 11.95 53.51 0.275 8.64 7.8 12.42
4/14/2022 5:15:00 PM 11.92 53.456 0.273 8.65 13.76 12.42
4/14/2022 5:30:00 PM 11.9 53.42 0.272 8.65 14.26 12.42
4/14/2022 5:45:00 PM 11.89 53.402 0.271 8.66 14.38 12.41
4/14/2022 6:00:00 PM 11.86 53.348 0.27 8.66 13.68 12.45
4/14/2022 6:15:00 PM 11.85 53.33 0.268 8.67 7.59 12.47
4/14/2022 6:30:00 PM 11.81 53.258 0.268 8.68 9.75 12.46
4/14/2022 6:45:00 PM 11.76 53.168 0.267 8.69 14.86 12.44
4/14/2022 7:00:00 PM 11.7 53.06 0.267 8.68 13.74 12.39
4/14/2022 7:15:00 PM 11.65 52.97 0.267 8.67 7.78 12.31
4/14/2022 7:30:00 PM 11.6 52.88 0.267 8.66 7.47 12.27
4/14/2022 7:45:00 PM 11.56 52.808 0.267 8.65 14.09 12.2
4/14/2022 8:00:00 PM 11.53 52.754 0.266 8.64 14.33 12.15
4/14/2022 8:15:00 PM 11.49 52.682 0.266 8.63 14.59 12.09
4/14/2022 8:30:00 PM 11.45 52.61 0.266 8.62 13.59 12.04
4/14/2022 8:45:00 PM 11.41 52.538 0.266 8.62 7.01 11.96
4/14/2022 9:00:00 PM 11.37 52.466 0.266 8.59 9.26 11.91
4/14/2022 9:15:00 PM 11.33 52.394 0.266 8.6 8.14 11.88
4/14/2022 9:30:00 PM 11.29 52.322 0.267 8.59 10 11.81
4/14/2022 9:45:00 PM 11.26 52.268 0.267 8.58 13.73 11.76
4/14/2022 10:00:00 PM 11.23 52.214 0.267 8.57 14.6 11.73
4/14/2022 10:15:00 PM 11.2 52.16 0.268 8.56 13.94 11.66
4/14/2022 10:30:00 PM 11.17 52.106 0.268 8.55 14.12 11.63
4/14/2022 10:45:00 PM 11.13 52.034 0.268 8.54 14.18 11.59
4/14/2022 11:00:00 PM 11.09 51.962 0.268 8.54 13.66 11.56
4/14/2022 11:15:00 PM 11.06 51.908 0.268 8.53 13.92 11.53
4/14/2022 11:30:00 PM 11.01 51.818 0.268 8.52 14.78 11.49
4/14/2022 11:45:00 PM 10.97 51.746 0.269 8.51 13.99 11.46
4/15/2022 12:00:00 AM 10.93 51.674 0.27 8.5 13.33 11.41
4/15/2022 12:15:00 AM 10.88 51.584 0.271 8.49 7.94 11.36
4/15/2022 12:30:00 AM 10.83 51.494 0.272 8.47 14.33 11.33
4/15/2022 12:45:00 AM 10.79 51.422 0.274 8.46 14.35 11.29
4/15/2022 1:00:00 AM 10.75 51.35 0.276 8.44 13.34 11.26
4/15/2022 1:15:00 AM 10.7 51.26 0.277 8.43 13.53 11.23
4/15/2022 1:30:00 AM 10.66 51.188 0.279 8.41 9.31 11.2
4/15/2022 1:45:00 AM 10.62 51.116 0.281 8.39 14.24 11.15
4/15/2022 2:00:00 AM 10.57 51.026 0.283 8.37 14.38 11.12
4/15/2022 2:15:00 AM 10.53 50.954 0.285 8.36 13.27 11.1
4/15/2022 2:30:00 AM 10.49 50.882 0.287 8.34 13.98 11.07
4/15/2022 2:45:00 AM 10.45 50.81 0.289 8.33 13.41 11.04
4/15/2022 3:00:00 AM 10.4 50.72 0.291 8.31 14.13 11
4/15/2022 3:15:00 AM 10.36 50.648 0.293 8.3 14.26 10.98
4/15/2022 3:30:00 AM 10.32 50.576 0.294 8.28 12.24 10.95
4/15/2022 3:45:00 AM 10.28 50.504 0.295 8.27 13.93 10.93
4/15/2022 4:00:00 AM 10.23 50.414 0.296 8.25 13.75 10.9
4/15/2022 4:15:00 AM 10.18 50.324 0.297 8.23 13.71 10.88
4/15/2022 4:30:00 AM 10.14 50.252 0.298 8.21 13.12 10.86
4/15/2022 4:45:00 AM 10.08 50.144 0.298 8.18 13.57 10.8
4/15/2022 5:00:00 AM 10.04 50.072 0.299 8.17 13.29 10.8
4/15/2022 5:15:00 AM 9.99 49.982 0.299 8.15 12.93 10.79
4/15/2022 5:30:00 AM 9.94 49.892 0.3 8.13 14.66 10.75
4/15/2022 5:45:00 AM 9.9 49.82 0.3 8.11 14.05 10.74
4/15/2022 6:00:00 AM 9.85 49.73 0.3 8.09 13.51 10.71
4/15/2022 6:15:00 AM 9.81 49.658 0.3 8.07 13.47 10.69
4/15/2022 6:30:00 AM 9.76 49.568 0.3 8.05 12.9 10.65
4/15/2022 6:45:00 AM 9.71 49.478 0.3 8.03 7.56 10.64
4/15/2022 7:00:00 AM 9.68 49.424 0.3 8.02 6.93 10.64
4/15/2022 7:15:00 AM 9.64 49.352 0.3 8.01 9.78 10.62
4/15/2022 7:30:00 AM 9.61 49.298 0.3 8 14.64 10.65
4/15/2022 7:45:00 AM 9.59 49.262 0.3 8 14.66 10.69
4/15/2022 8:00:00 AM 9.58 49.244 0.3 8 14.37 10.77
4/15/2022 8:15:00 AM 9.58 49.244 0.3 8.02 14.4 10.81
4/15/2022 8:30:00 AM 9.59 49.262 0.3 8.03 13.4 10.89
4/15/2022 8:45:00 AM 9.6 49.28 0.3 8.05 13.32 11.03
4/15/2022 9:00:00 AM 9.61 49.298 0.3 8.07 12.54 11.11
4/15/2022 9:15:00 AM 9.64 49.352 0.3 8.1 7.11 11.24
4/15/2022 9:30:00 AM 9.69 49.442 0.3 8.13 13.36 11.37
4/15/2022 9:45:00 AM 9.75 49.55 0.3 8.16 12.95 11.5
4/15/2022 10:00:00 AM 9.83 49.694 0.3 8.21 13.33 11.64
4/15/2022 10:15:00 AM 9.93 49.874 0.3 8.25 13.16 11.77
4/15/2022 10:30:00 AM 10.03 50.054 0.3 8.29 13.94 11.87
4/15/2022 10:45:00 AM 10.12 50.216 0.3 8.32 13.14 11.96
4/15/2022 11:00:00 AM 10.21 50.378 0.3 8.36 12.07 12.08
4/15/2022 11:15:00 AM 10.31 50.558 0.3 8.38 11.47 12.18
4/15/2022 11:30:00 AM 10.41 50.738 0.3 8.42 13.67 12.26
4/15/2022 11:45:00 AM 10.54 50.972 0.3 8.45 12.23 12.37
4/15/2022 12:00:00 PM 10.64 51.152 0.299 8.48 13.6 12.47
4/15/2022 12:15:00 PM 10.73 51.314 0.299 8.51 14.3 12.54
4/15/2022 12:30:00 PM 10.79 51.422 0.299 8.54 13.02 12.61
4/15/2022 12:45:00 PM 10.88 51.584 0.299 8.57 12.24 12.7
4/15/2022 1:00:00 PM 10.96 51.728 0.299 8.59 13.01 12.78
4/15/2022 1:15:00 PM 11 51.8 0.299 8.62 12.67 12.84
4/15/2022 1:30:00 PM 11.02 51.836 0.299 8.64 13.44 12.9
4/15/2022 1:45:00 PM 10.99 51.782 0.298 8.66 13.72 12.96
4/15/2022 2:00:00 PM 10.98 51.764 0.298 8.69 12.87 13.03
4/15/2022 2:15:00 PM 11 51.8 0.298 8.69 13.4 13.04
4/15/2022 2:30:00 PM 11.04 51.872 0.298 8.72 13.49 13.1
4/15/2022 2:45:00 PM 11.12 52.016 0.298 8.73 13.29 13.18
4/15/2022 3:00:00 PM 11.2 52.16 0.298 8.76 13.01 13.26
4/15/2022 3:15:00 PM 11.25 52.25 0.298 8.78 12.67 13.33
4/15/2022 3:30:00 PM 11.24 52.232 0.297 8.8 12.38 13.37
4/15/2022 3:45:00 PM 11.21 52.178 0.297 8.82 12.45 13.38
4/15/2022 4:00:00 PM 11.22 52.196 0.296 8.83 13.28 13.46
4/15/2022 4:15:00 PM 11.24 52.232 0.295 8.85 13.54 13.49
4/15/2022 4:30:00 PM 11.22 52.196 0.293 8.87 13.48 13.52
4/15/2022 4:45:00 PM 11.19 52.142 0.292 8.88 12.77 13.52
4/15/2022 5:00:00 PM 11.15 52.07 0.291 8.89 14.42 13.54
4/15/2022 5:15:00 PM 11.14 52.052 0.289 8.9 14.34 13.52
4/15/2022 5:30:00 PM 11.11 51.998 0.288 8.9 13.14 13.47
4/15/2022 5:45:00 PM 11.1 51.98 0.287 8.9 12.35 13.47
4/15/2022 6:00:00 PM 11.05 51.89 0.285 8.91 13.03 13.47
4/15/2022 6:15:00 PM 11.01 51.818 0.284 8.93 12.55 13.49
4/15/2022 6:30:00 PM 10.99 51.782 0.283 8.93 12.15 13.45
4/15/2022 6:45:00 PM 10.97 51.746 0.282 8.92 13.2 13.42
4/15/2022 7:00:00 PM 10.95 51.71 0.281 8.93 13.19 13.38
4/15/2022 7:15:00 PM 10.94 51.692 0.28 8.94 13.76 13.34
4/15/2022 7:30:00 PM 10.92 51.656 0.28 8.92 13.19 13.28
4/15/2022 7:45:00 PM 10.9 51.62 0.279 8.92 14.07 13.22
4/15/2022 8:00:00 PM 10.88 51.584 0.279 8.92 13.41 13.15
4/15/2022 8:15:00 PM 10.86 51.548 0.278 8.91 13.53 13.06
4/15/2022 8:30:00 PM 10.83 51.494 0.278 8.9 13.27 12.97
4/15/2022 8:45:00 PM 10.8 51.44 0.278 8.88 13.03 12.87
4/15/2022 9:00:00 PM 10.76 51.368 0.277 8.87 13.62 12.79
4/15/2022 9:15:00 PM 10.73 51.314 0.277 8.86 12.9 12.7
4/15/2022 9:30:00 PM 10.7 51.26 0.277 8.84 7.6 12.6
4/15/2022 9:45:00 PM 10.67 51.206 0.277 8.83 13.21 12.54
4/15/2022 10:00:00 PM 10.65 51.17 0.277 8.82 13.45 12.47
4/15/2022 10:15:00 PM 10.63 51.134 0.277 8.81 13.97 12.41
4/15/2022 10:30:00 PM 10.61 51.098 0.277 8.8 13.33 12.34
4/15/2022 10:45:00 PM 10.6 51.08 0.278 8.79 13.82 12.29
4/15/2022 11:00:00 PM 10.59 51.062 0.278 8.79 12.85 12.23
4/15/2022 11:15:00 PM 10.58 51.044 0.278 8.77 12.97 12.17
4/15/2022 11:30:00 PM 10.56 51.008 0.278 8.76 13.07 12.1
4/15/2022 11:45:00 PM 10.55 50.99 0.278 8.75 12.89 12.03
4/16/2022 12:00:00 AM 10.54 50.972 0.278 8.74 13.94 11.97
4/16/2022 12:15:00 AM 10.53 50.954 0.278 8.71 14.51 11.9
4/16/2022 12:30:00 AM 10.52 50.936 0.278 8.7 12.78 11.83
4/16/2022 12:45:00 AM 10.51 50.918 0.278 8.68 12.55 11.77
4/16/2022 1:00:00 AM 10.49 50.882 0.278 8.66 12.69 11.69
4/16/2022 1:15:00 AM 10.48 50.864 0.279 8.64 13.02 11.64
4/16/2022 1:30:00 AM 10.47 50.846 0.279 8.61 12.93 11.57
4/16/2022 1:45:00 AM 10.46 50.828 0.279 8.59 12.91 11.51
4/16/2022 2:00:00 AM 10.45 50.81 0.279 8.57 13.36 11.45
4/16/2022 2:15:00 AM 10.45 50.81 0.279 8.55 13.26 11.39
4/16/2022 2:30:00 AM 10.44 50.792 0.279 8.52 13.81 11.33
4/16/2022 2:45:00 AM 10.44 50.792 0.279 8.5 12.32 11.27
4/16/2022 3:00:00 AM 10.43 50.774 0.279 8.47 13.81 11.23
4/16/2022 3:15:00 AM 10.42 50.756 0.279 8.44 14.08 11.17
4/16/2022 3:30:00 AM 10.41 50.738 0.28 8.4 13 11.12
4/16/2022 3:45:00 AM 10.41 50.738 0.28 8.37 14.08 11.06
4/16/2022 4:00:00 AM 10.39 50.702 0.28 8.35 14.19 11.02
4/16/2022 4:15:00 AM 10.38 50.684 0.28 8.31 13.8 10.97
4/16/2022 4:30:00 AM 10.37 50.666 0.28 8.28 14.3 10.93
4/16/2022 4:45:00 AM 10.35 50.63 0.281 8.26 13.15 10.88
4/16/2022 5:00:00 AM 10.33 50.594 0.28 8.23 13.03 10.85
4/16/2022 5:15:00 AM 10.32 50.576 0.28 8.2 13.56 10.8
4/16/2022 5:30:00 AM 10.3 50.54 0.281 8.17 13.27 10.77
4/16/2022 5:45:00 AM 10.28 50.504 0.281 8.14 12.97 10.73
4/16/2022 6:00:00 AM 10.27 50.486 0.281 8.11 12.49 10.69
4/16/2022 6:15:00 AM 10.25 50.45 0.281 8.09 12.9 10.66
4/16/2022 6:30:00 AM 10.24 50.432 0.281 8.06 15.11 10.61
4/16/2022 6:45:00 AM 10.22 50.396 0.281 8.04 9.43 10.57
4/16/2022 7:00:00 AM 10.21 50.378 0.281 8.02 12.99 10.55
4/16/2022 7:15:00 AM 10.2 50.36 0.281 8 12.51 10.53
4/16/2022 7:30:00 AM 10.2 50.36 0.281 7.98 13.49 10.51
4/16/2022 7:45:00 AM 10.19 50.342 0.281 7.97 13.4 10.49
4/16/2022 8:00:00 AM 10.19 50.342 0.281 7.95 13.59 10.49
4/16/2022 8:15:00 AM 10.18 50.324 0.281 7.94 12.4 10.48
4/16/2022 8:30:00 AM 10.17 50.306 0.281 7.93 13.31 10.49
4/16/2022 8:45:00 AM 10.17 50.306 0.281 7.92 14.72 10.49
4/16/2022 9:00:00 AM 10.16 50.288 0.281 7.93 14.2 10.5
4/16/2022 9:15:00 AM 10.16 50.288 0.281 7.93 8.07 10.54
4/16/2022 9:30:00 AM 10.16 50.288 0.281 7.93 12.41 10.58
4/16/2022 9:45:00 AM 10.17 50.306 0.28 7.94 12.6 10.65
4/16/2022 10:00:00 AM 10.17 50.306 0.28 7.96 12.41 10.72
4/16/2022 10:15:00 AM 10.18 50.324 0.28 7.98 12.74 10.8
4/16/2022 10:30:00 AM 10.19 50.342 0.28 7.98 12.12 10.86
4/16/2022 10:45:00 AM 10.18 50.324 0.28 8 12.61 10.89
4/16/2022 11:00:00 AM 10.17 50.306 0.28 8 12.62 10.95
4/16/2022 11:15:00 AM 10.17 50.306 0.28 8.02 12 11
4/16/2022 11:30:00 AM 10.16 50.288 0.28 8.02 12.35 11.04
4/16/2022 11:45:00 AM 10.14 50.252 0.279 8.04 12.73 11.08
4/16/2022 12:00:00 PM 10.13 50.234 0.279 8.03 12.51 11.09
4/16/2022 12:15:00 PM 10.1 50.18 0.278 8.05 13.04 11.12
4/16/2022 12:30:00 PM 10.07 50.126 0.277 8.05 14.03 11.13
4/16/2022 12:45:00 PM 10.05 50.09 0.277 8.06 8.63 11.15
4/16/2022 1:00:00 PM 10.03 50.054 0.277 8.06 16.25 11.18
4/16/2022 1:15:00 PM 10.02 50.036 0.277 8.07 11.34 11.21
4/16/2022 1:30:00 PM 10 50 0.277 8.08 11.66 11.27
4/16/2022 1:45:00 PM 9.98 49.964 0.277 8.11 14.76 11.33
4/16/2022 2:00:00 PM 9.96 49.928 0.277 8.13 12.92 11.38
4/16/2022 2:15:00 PM 9.93 49.874 0.277 8.13 10.34 11.4
4/16/2022 2:30:00 PM 9.89 49.802 0.276 8.14 16.07 11.43
4/16/2022 2:45:00 PM 9.87 49.766 0.276 8.16 11.79 11.49
4/16/2022 3:00:00 PM 9.86 49.748 0.276 8.18 13.58 11.55
4/16/2022 3:15:00 PM 9.88 49.784 0.276 8.21 11.2 11.63
4/16/2022 3:30:00 PM 9.86 49.748 0.276 8.24 13.21 11.75
4/16/2022 3:45:00 PM 9.84 49.712 0.276 8.29 9.98 11.86
4/16/2022 4:00:00 PM 9.81 49.658 0.276 8.32 10.74 11.94
4/16/2022 4:15:00 PM 9.8 49.64 0.276 8.34 8.96 11.98
4/16/2022 4:30:00 PM 9.79 49.622 0.276 8.34 14.42 11.99
4/16/2022 4:45:00 PM 9.79 49.622 0.276 8.36 13.97 12.03
4/16/2022 5:00:00 PM 9.79 49.622 0.275 8.39 14.03 12.1
4/16/2022 5:15:00 PM 9.77 49.586 0.275 8.42 8.47 12.18
4/16/2022 5:30:00 PM 9.77 49.586 0.275 8.45 46.83 12.27
4/16/2022 5:45:00 PM 9.75 49.55 0.275 8.46 13.3 12.28
4/16/2022 6:00:00 PM 9.74 49.532 0.275 8.46 13.47 12.28
4/16/2022 6:15:00 PM 9.73 49.514 0.275 8.48 14.59 12.33
4/16/2022 6:30:00 PM 9.72 49.496 0.274 8.51 15.48 12.42
4/16/2022 6:45:00 PM 9.7 49.46 0.275 8.53 13.09 12.46
4/16/2022 7:00:00 PM 9.68 49.424 0.275 8.54 13.52 12.49
4/16/2022 7:15:00 PM 9.66 49.388 0.275 8.54 13.81 12.48
4/16/2022 7:30:00 PM 9.63 49.334 0.275 8.53 12.59 12.43
4/16/2022 7:45:00 PM 9.61 49.298 0.275 8.52 9.47 12.37
4/16/2022 8:00:00 PM 9.57 49.226 0.275 8.5 7.73 12.31
4/16/2022 8:15:00 PM 9.55 49.19 0.275 8.47 13.17 12.22
4/16/2022 8:30:00 PM 9.51 49.118 0.276 8.45 14.28 12.17
4/16/2022 8:45:00 PM 9.48 49.064 0.276 8.42 12.97 12.1
4/16/2022 9:00:00 PM 9.43 48.974 0.276 8.39 12.66 12.02
4/16/2022 9:15:00 PM 9.39 48.902 0.276 8.36 13.26 11.94
4/16/2022 9:30:00 PM 9.34 48.812 0.277 8.33 12.98 11.88
4/16/2022 9:45:00 PM 9.3 48.74 0.277 8.3 13.68 11.83
4/16/2022 10:00:00 PM 9.26 48.668 0.277 8.28 12.55 11.77
4/16/2022 10:15:00 PM 9.23 48.614 0.277 8.25 13.31 11.72
4/16/2022 10:30:00 PM 9.2 48.56 0.278 8.23 14.24 11.68
4/16/2022 10:45:00 PM 9.17 48.506 0.278 8.21 6.46 11.64
4/16/2022 11:00:00 PM 9.13 48.434 0.278 8.19 14.3 11.6
4/16/2022 11:15:00 PM 9.08 48.344 0.279 8.18 13.21 11.57
4/16/2022 11:30:00 PM 9.04 48.272 0.279 8.17 12.24 11.5
4/16/2022 11:45:00 PM 9.01 48.218 0.279 8.15 12.17 11.5
4/17/2022 12:00:00 AM 8.96 48.128 0.279 8.13 13.12 11.48
4/17/2022 12:15:00 AM 8.92 48.056 0.279 8.12 13.59 11.46
4/17/2022 12:30:00 AM 8.88 47.984 0.279 8.11 14.11 11.44
4/17/2022 12:45:00 AM 8.85 47.93 0.279 8.1 13.89 11.42
4/17/2022 1:00:00 AM 8.82 47.876 0.279 8.08 6.94 11.37
4/17/2022 1:15:00 AM 8.8 47.84 0.279 8.07 13.96 11.38
4/17/2022 1:30:00 AM 8.77 47.786 0.279 8.06 10.24 11.37
4/17/2022 1:45:00 AM 8.76 47.768 0.279 8.06 12.94 11.35
4/17/2022 2:00:00 AM 8.74 47.732 0.279 8.05 13.93 11.34
4/17/2022 2:15:00 AM 8.73 47.714 0.278 8.05 13.87 11.32
4/17/2022 2:30:00 AM 8.72 47.696 0.278 8.04 9.39 11.31
4/17/2022 2:45:00 AM 8.7 47.66 0.278 8.03 14.17 11.3
4/17/2022 3:00:00 AM 8.68 47.624 0.278 8.03 14.31 11.26
4/17/2022 3:15:00 AM 8.66 47.588 0.278 8.02 6.54 11.26
4/17/2022 3:30:00 AM 8.64 47.552 0.278 8.01 6.6 11.22
4/17/2022 3:45:00 AM 8.63 47.534 0.278 8.01 14.58 11.22
4/17/2022 4:00:00 AM 8.6 47.48 0.278 8 7.05 11.19
4/17/2022 4:15:00 AM 8.57 47.426 0.278 7.99 8.02 11.19
4/17/2022 4:30:00 AM 8.53 47.354 0.278 7.99 8.08 11.17
4/17/2022 4:45:00 AM 8.51 47.318 0.278 7.98 13.71 11.16
4/17/2022 5:00:00 AM 8.46 47.228 0.278 7.97 14.45 11.14
4/17/2022 5:15:00 AM 8.43 47.174 0.278 7.96 12.86 11.13
4/17/2022 5:30:00 AM 8.4 47.12 0.277 7.95 7.97 11.11
4/17/2022 5:45:00 AM 8.36 47.048 0.277 7.94 14.34 11.09
4/17/2022 6:00:00 AM 8.32 46.976 0.277 7.93 13.49 11.08
4/17/2022 6:15:00 AM 8.28 46.904 0.277 7.92 14.43 11.05
4/17/2022 6:30:00 AM 8.24 46.832 0.276 7.91 15.21 11.04
4/17/2022 6:45:00 AM 8.2 46.76 0.276 7.89 13.32 11.02
4/17/2022 7:00:00 AM 8.16 46.688 0.276 7.89 14.26 11.01
4/17/2022 7:15:00 AM 8.12 46.616 0.275 7.88 11.77 11.02
4/17/2022 7:30:00 AM 8.08 46.544 0.275 7.88 8.13 11.02
4/17/2022 7:45:00 AM 8.05 46.49 0.275 7.87 24.22 11.06
4/17/2022 8:00:00 AM 8.02 46.436 0.274 7.87 12.05 11.12
4/17/2022 8:15:00 AM 8 46.4 0.274 7.88 6.89 11.2
4/17/2022 8:30:00 AM 7.97 46.346 0.273 7.9 14.95 11.29
4/17/2022 8:45:00 AM 7.96 46.328 0.273 7.92 7.63 11.38
4/17/2022 9:00:00 AM 7.93 46.274 0.272 7.94 8.02 11.46
4/17/2022 9:15:00 AM 7.9 46.22 0.271 7.96 14.83 11.55
4/17/2022 9:30:00 AM 7.88 46.184 0.271 7.98 14.82 11.63
4/17/2022 9:45:00 AM 7.87 46.166 0.27 8 14.32 11.73
4/17/2022 10:00:00 AM 7.87 46.166 0.27 8.04 32.02 11.85
4/17/2022 10:15:00 AM 7.88 46.184 0.269 8.07 14.1 11.96
4/17/2022 10:30:00 AM 7.89 46.202 0.268 8.11 14.76 12.09
4/17/2022 10:45:00 AM 7.91 46.238 0.268 8.15 8.48 12.2
4/17/2022 11:00:00 AM 7.92 46.256 0.267 8.19 14.41 12.3
4/17/2022 11:15:00 AM 7.96 46.328 0.267 8.23 15.02 12.4
4/17/2022 11:30:00 AM 8.04 46.472 0.266 8.27 14.51 12.52
4/17/2022 11:45:00 AM 8.05 46.49 0.266 8.3 9.68 12.62
4/17/2022 12:00:00 PM 8.09 46.562 0.266 8.34 7.35 12.7
4/17/2022 12:15:00 PM 8.14 46.652 0.265 8.37 14.49 12.76
4/17/2022 12:30:00 PM 8.17 46.706 0.265 8.4 14.17 12.85
4/17/2022 12:45:00 PM 8.3 46.94 0.265 8.44 14.6 12.94
4/17/2022 1:00:00 PM 8.28 46.904 0.265 8.46 14.52 13.01
4/17/2022 1:15:00 PM 8.37 47.066 0.265 8.49 14.39 13.08
4/17/2022 1:30:00 PM 8.45 47.21 0.265 8.52 13.95 13.16
4/17/2022 1:45:00 PM 8.49 47.282 0.264 8.56 13.58 13.24
4/17/2022 2:00:00 PM 8.56 47.408 0.264 8.59 13.51 13.33
4/17/2022 2:15:00 PM 8.52 47.336 0.264 8.61 7.06 13.38
4/17/2022 2:30:00 PM 8.58 47.444 0.264 8.64 10 13.43
4/17/2022 2:45:00 PM 8.61 47.498 0.264 8.65 13.7 13.47
4/17/2022 3:00:00 PM 8.65 47.57 0.264 8.67 14.59 13.52
4/17/2022 3:15:00 PM 8.65 47.57 0.264 8.69 8.03 13.55
4/17/2022 3:30:00 PM 8.65 47.57 0.264 8.7 13.35 13.6
4/17/2022 3:45:00 PM 8.63 47.534 0.264 8.72 13.73 13.63
4/17/2022 4:00:00 PM 8.62 47.516 0.264 8.74 14.17 13.67
4/17/2022 4:15:00 PM 8.65 47.57 0.264 8.75 14.39 13.71
4/17/2022 4:30:00 PM 8.67 47.606 0.264 8.77 14.83 13.72
4/17/2022 4:45:00 PM 8.75 47.75 0.264 8.79 14.54 13.78
4/17/2022 5:00:00 PM 8.79 47.822 0.264 8.81 14.76 13.81
4/17/2022 5:15:00 PM 8.82 47.876 0.264 8.82 14.31 13.82
4/17/2022 5:30:00 PM 8.84 47.912 0.264 8.83 13.24 13.87
4/17/2022 5:45:00 PM 8.85 47.93 0.264 8.85 15.12 13.88
4/17/2022 6:00:00 PM 8.82 47.876 0.264 8.85 13.77 13.84
4/17/2022 6:15:00 PM 8.83 47.894 0.264 8.85 13.01 13.82
4/17/2022 6:30:00 PM 8.81 47.858 0.264 8.85 12.6 13.79
4/17/2022 6:45:00 PM 8.77 47.786 0.264 8.86 13.35 13.74
4/17/2022 7:00:00 PM 8.72 47.696 0.264 8.85 14.18 13.73
4/17/2022 7:15:00 PM 8.67 47.606 0.264 8.85 13.61 13.69
4/17/2022 7:30:00 PM 8.64 47.552 0.264 8.84 13.78 13.66
4/17/2022 7:45:00 PM 8.61 47.498 0.264 8.85 14.24 13.6
4/17/2022 8:00:00 PM 8.56 47.408 0.265 8.84 13.39 13.52
4/17/2022 8:15:00 PM 8.5 47.3 0.265 8.82 13.89 13.44
4/17/2022 8:30:00 PM 8.45 47.21 0.265 8.79 13.95 13.36
4/17/2022 8:45:00 PM 8.4 47.12 0.265 8.78 9.26 13.26
4/17/2022 9:00:00 PM 8.37 47.066 0.265 8.77 13.17 13.2
4/17/2022 9:15:00 PM 8.35 47.03 0.265 8.75 14.64 13.12
4/17/2022 9:30:00 PM 8.33 46.994 0.265 8.74 6.9 13.06
4/17/2022 9:45:00 PM 8.31 46.958 0.265 8.73 7.59 12.99
4/17/2022 10:00:00 PM 8.3 46.94 0.266 8.72 14.06 12.92
4/17/2022 10:15:00 PM 8.29 46.922 0.266 8.7 14.33 12.86
4/17/2022 10:30:00 PM 8.28 46.904 0.266 8.69 13.42 12.8
4/17/2022 10:45:00 PM 8.28 46.904 0.266 8.67 7.33 12.72
4/17/2022 11:00:00 PM 8.28 46.904 0.266 8.66 7.95 12.67
4/17/2022 11:15:00 PM 8.27 46.886 0.266 8.64 14.49 12.63
4/17/2022 11:30:00 PM 8.26 46.868 0.266 8.63 13.99 12.57
4/17/2022 11:45:00 PM 8.26 46.868 0.266 8.61 14.06 12.5
4/18/2022 12:00:00 AM 8.25 46.85 0.266 8.6 8.09 12.46
4/18/2022 12:15:00 AM 8.23 46.814 0.266 8.58 14.54 12.4
4/18/2022 12:30:00 AM 8.21 46.778 0.266 8.55 14.29 12.32
4/18/2022 12:45:00 AM 8.19 46.742 0.266 8.53 15.07 12.26
4/18/2022 1:00:00 AM 8.16 46.688 0.265 8.5 14.3 12.22
4/18/2022 1:15:00 AM 8.13 46.634 0.265 8.47 8.44 12.17
4/18/2022 1:30:00 AM 8.09 46.562 0.264 8.45 13.92 12.11
4/18/2022 1:45:00 AM 8.07 46.526 0.264 8.42 14.83 12.05
4/18/2022 2:00:00 AM 8.03 46.454 0.264 8.38 6.53 12
4/18/2022 2:15:00 AM 8 46.4 0.263 8.35 13.9 11.95
4/18/2022 2:30:00 AM 7.97 46.346 0.263 8.32 13.76 11.9
4/18/2022 2:45:00 AM 7.94 46.292 0.263 8.29 13.46 11.85
4/18/2022 3:00:00 AM 7.92 46.256 0.262 8.26 13.5 11.82
4/18/2022 3:15:00 AM 7.89 46.202 0.262 8.23 12.92 11.76
4/18/2022 3:30:00 AM 7.86 46.148 0.262 8.2 10.04 11.73
4/18/2022 3:45:00 AM 7.83 46.094 0.261 8.17 14.01 11.68
4/18/2022 4:00:00 AM 7.8 46.04 0.261 8.15 12.29 11.65
4/18/2022 4:15:00 AM 7.76 45.968 0.261 8.12 13.45 11.61
4/18/2022 4:30:00 AM 7.72 45.896 0.26 8.1 12.77 11.56
4/18/2022 4:45:00 AM 7.68 45.824 0.26 8.07 12.4 11.55
4/18/2022 5:00:00 AM 7.64 45.752 0.26 8.05 13.28 11.5
4/18/2022 5:15:00 AM 7.59 45.662 0.26 8.03 14.18 11.48
4/18/2022 5:30:00 AM 7.55 45.59 0.26 8 8.88 11.45
4/18/2022 5:45:00 AM 7.51 45.518 0.26 7.99 8.47 11.41
4/18/2022 6:00:00 AM 7.47 45.446 0.26 7.97 13.12 11.4
4/18/2022 6:15:00 AM 7.43 45.374 0.26 7.95 14.59 11.37
4/18/2022 6:30:00 AM 7.39 45.302 0.26 7.93 14.09 11.37
4/18/2022 6:45:00 AM 7.36 45.248 0.26 7.92 14.78 11.34
4/18/2022 7:00:00 AM 7.33 45.194 0.26 7.91 13.64 11.34
4/18/2022 7:15:00 AM 7.32 45.176 0.26 7.91 12.64 11.35
4/18/2022 7:30:00 AM 7.31 45.158 0.26 7.9 13.98 11.39
4/18/2022 7:45:00 AM 7.31 45.158 0.26 7.91 12.67 11.45
4/18/2022 8:00:00 AM 7.32 45.176 0.26 7.92 13 11.49
4/18/2022 8:15:00 AM 7.34 45.212 0.26 7.94 13.59 11.59
4/18/2022 8:30:00 AM 7.36 45.248 0.26 7.96 12.68 11.64
4/18/2022 8:45:00 AM 7.4 45.32 0.26 7.99 12.54 11.74
4/18/2022 9:00:00 AM 7.44 45.392 0.26 8.02 12.75 11.85
4/18/2022 9:15:00 AM 7.49 45.482 0.26 8.05 11.98 11.94
4/18/2022 9:30:00 AM 7.54 45.572 0.26 8.09 12.6 12.08
4/18/2022 9:45:00 AM 7.62 45.716 0.26 8.13 12.33 12.23
4/18/2022 10:00:00 AM 7.68 45.824 0.26 8.17 13.38 12.35
4/18/2022 10:15:00 AM 7.75 45.95 0.26 8.21 12.65 12.46
4/18/2022 10:30:00 AM 7.81 46.058 0.261 8.25 16.74 12.57
4/18/2022 10:45:00 AM 7.86 46.148 0.261 8.29 13.65 12.64
4/18/2022 11:00:00 AM 7.92 46.256 0.261 8.32 13.04 12.76
4/18/2022 11:15:00 AM 7.97 46.346 0.261 8.35 14.28 12.83
4/18/2022 11:30:00 AM 8.03 46.454 0.261 8.4 12.22 12.92
4/18/2022 11:45:00 AM 8.07 46.526 0.261 8.43 12.03 13
4/18/2022 12:00:00 PM 8.1 46.58 0.262 8.47 13.01 13.05
4/18/2022 12:15:00 PM 8.11 46.598 0.262 8.5 13.55 13.14
4/18/2022 12:30:00 PM 8.13 46.634 0.262 8.53 13.24 13.22
4/18/2022 12:45:00 PM 8.14 46.652 0.262 8.55 13.58 13.3
4/18/2022 1:00:00 PM 8.15 46.67 0.262 8.58 6.72 13.35
4/18/2022 1:15:00 PM 8.17 46.706 0.262 8.61 12.7 13.42
4/18/2022 1:30:00 PM 8.19 46.742 0.263 8.63 12.49 13.47
4/18/2022 1:45:00 PM 8.17 46.706 0.263 8.66 12.28 13.54
4/18/2022 2:00:00 PM 8.15 46.67 0.263 8.67 12.7 13.58
4/18/2022 2:15:00 PM 8.13 46.634 0.263 8.69 12.47 13.61
4/18/2022 2:30:00 PM 8.12 46.616 0.263 8.71 12.17 13.65
4/18/2022 2:45:00 PM 8.11 46.598 0.263 8.72 12.06 13.64
4/18/2022 3:00:00 PM 8.08 46.544 0.263 8.73 12.77 13.7
4/18/2022 3:15:00 PM 8.06 46.508 0.263 8.76 12.61 13.75
4/18/2022 3:30:00 PM 8.05 46.49 0.263 8.77 12.95 13.77
4/18/2022 3:45:00 PM 8.04 46.472 0.263 8.77 12.93 13.79
4/18/2022 4:00:00 PM 8.02 46.436 0.263 8.79 13.84 13.84
4/18/2022 4:15:00 PM 8.01 46.418 0.263 8.81 13.14 13.87
4/18/2022 4:30:00 PM 7.97 46.346 0.263 8.81 13.47 13.89
4/18/2022 4:45:00 PM 7.92 46.256 0.263 8.82 12.74 13.87
4/18/2022 5:00:00 PM 7.87 46.166 0.263 8.83 13.48 13.82
4/18/2022 5:15:00 PM 7.81 46.058 0.263 8.8 12.99 13.75
4/18/2022 5:30:00 PM 7.75 45.95 0.263 8.8 13.16 13.7
4/18/2022 5:45:00 PM 7.7 45.86 0.263 8.79 9.17 13.64
4/18/2022 6:00:00 PM 7.64 45.752 0.263 8.78 12.7 13.59
4/18/2022 6:15:00 PM 7.6 45.68 0.263 8.77 13.01 13.51
4/18/2022 6:30:00 PM 7.55 45.59 0.263 8.76 14.13 13.49
4/18/2022 6:45:00 PM 7.49 45.482 0.263 8.75 14.95 13.42
4/18/2022 7:00:00 PM 7.43 45.374 0.263 8.73 13.99 13.37
4/18/2022 7:15:00 PM 7.38 45.284 0.263 8.72 14.1 13.3
4/18/2022 7:30:00 PM 7.31 45.158 0.263 8.69 10.67 13.23
4/18/2022 7:45:00 PM 7.25 45.05 0.263 8.67 13.03 13.13
4/18/2022 8:00:00 PM 7.19 44.942 0.263 8.65 13.91 13.08
4/18/2022 8:15:00 PM 7.14 44.852 0.263 8.63 7.21 13.02
4/18/2022 8:30:00 PM 7.07 44.726 0.263 8.61 13.2 12.94
4/18/2022 8:45:00 PM 7.03 44.654 0.263 8.58 12.67 12.9
4/18/2022 9:00:00 PM 6.99 44.582 0.263 8.57 13.97 12.82
4/18/2022 9:15:00 PM 6.96 44.528 0.263 8.54 13.42 12.79
4/18/2022 9:30:00 PM 6.93 44.474 0.263 8.52 14.31 12.72
4/18/2022 9:45:00 PM 6.92 44.456 0.263 8.49 7.73 12.67
4/18/2022 10:00:00 PM 6.91 44.438 0.263 8.47 12.97 12.63
4/18/2022 10:15:00 PM 6.9 44.42 0.264 8.44 14.47 12.56
4/18/2022 10:30:00 PM 6.9 44.42 0.264 8.42 12.58 12.52
4/18/2022 10:45:00 PM 6.89 44.402 0.264 8.39 13.97 12.45
4/18/2022 11:00:00 PM 6.87 44.366 0.264 8.36 12.61 12.41
4/18/2022 11:15:00 PM 6.86 44.348 0.264 8.34 13.74 12.36
4/18/2022 11:30:00 PM 6.85 44.33 0.264 8.32 12.85 12.3
4/18/2022 11:45:00 PM 6.83 44.294 0.264 8.29 13.08 12.26
4/19/2022 12:00:00 AM 6.81 44.258 0.265 8.27 13.71 12.21
4/19/2022 12:15:00 AM 6.8 44.24 0.265 8.24 13.41 12.18
4/19/2022 12:30:00 AM 6.78 44.204 0.265 8.22 14.12 12.12
4/19/2022 12:45:00 AM 6.76 44.168 0.265 8.2 14.52 12.07
4/19/2022 1:00:00 AM 6.74 44.132 0.265 8.17 13.39 12.04
4/19/2022 1:15:00 AM 6.73 44.114 0.265 8.14 14.37 11.98
4/19/2022 1:30:00 AM 6.71 44.078 0.265 8.13 14.59 11.96
4/19/2022 1:45:00 AM 6.71 44.078 0.265 8.11 14.07 11.92
4/19/2022 2:00:00 AM 6.71 44.078 0.266 8.09 14.48 11.88
4/19/2022 2:15:00 AM 6.7 44.06 0.267 8.07 14.05 11.85
4/19/2022 2:30:00 AM 6.68 44.024 0.268 8.05 13.77 11.8
4/19/2022 2:45:00 AM 6.68 44.024 0.27 8.03 14.21 11.76
4/19/2022 3:00:00 AM 6.66 43.988 0.271 8.02 13.8 11.74
4/19/2022 3:15:00 AM 6.65 43.97 0.272 8 7.88 11.72
4/19/2022 3:30:00 AM 6.63 43.934 0.273 7.98 14.49 11.68
4/19/2022 3:45:00 AM 6.61 43.898 0.275 7.97 13.44 11.67
4/19/2022 4:00:00 AM 6.58 43.844 0.276 7.96 13.41 11.63
4/19/2022 4:15:00 AM 6.55 43.79 0.277 7.94 12.64 11.6
4/19/2022 4:30:00 AM 6.52 43.736 0.279 7.93 13.84 11.56
4/19/2022 4:45:00 AM 6.48 43.664 0.28 7.92 13.83 11.56
4/19/2022 5:00:00 AM 6.46 43.628 0.282 7.91 12.81 11.53
4/19/2022 5:15:00 AM 6.44 43.592 0.283 7.89 12.99 11.5
4/19/2022 5:30:00 AM 6.42 43.556 0.284 7.88 14.19 11.48
4/19/2022 5:45:00 AM 6.41 43.538 0.285 7.87 13.89 11.45
4/19/2022 6:00:00 AM 6.39 43.502 0.286 7.85 14.16 11.43
4/19/2022 6:15:00 AM 6.37 43.466 0.288 7.85 13.57 11.42
4/19/2022 6:30:00 AM 6.36 43.448 0.289 7.84 13.99 11.41
4/19/2022 6:45:00 AM 6.34 43.412 0.29 7.84 14.4 11.41
4/19/2022 7:00:00 AM 6.32 43.376 0.291 7.83 13.78 11.4
4/19/2022 7:15:00 AM 6.3 43.34 0.291 7.82 13.35 11.37
4/19/2022 7:30:00 AM 6.28 43.304 0.291 7.82 13.7 11.39
4/19/2022 7:45:00 AM 6.26 43.268 0.292 7.82 12.8 11.42
4/19/2022 8:00:00 AM 6.24 43.232 0.292 7.82 13.69 11.45
4/19/2022 8:15:00 AM 6.23 43.214 0.292 7.83 13.44 11.48
4/19/2022 8:30:00 AM 6.22 43.196 0.293 7.84 13.1 11.55
4/19/2022 8:45:00 AM 6.22 43.196 0.293 7.85 14.51 11.62
4/19/2022 9:00:00 AM 6.22 43.196 0.293 7.87 13.19 11.67
4/19/2022 9:15:00 AM 6.22 43.196 0.293 7.88 12.49 11.7
4/19/2022 9:30:00 AM 6.23 43.214 0.293 7.9 13.82 11.84
4/19/2022 9:45:00 AM 6.26 43.268 0.293 7.91 12.79 11.91
4/19/2022 10:00:00 AM 6.34 43.412 0.293 7.94 13.29 12
4/19/2022 10:15:00 AM 6.39 43.502 0.294 7.97 12.92 12.08
4/19/2022 10:30:00 AM 6.47 43.646 0.294 8.01 13.04 12.26
4/19/2022 10:45:00 AM 6.5 43.7 0.294 8.05 13.91 12.35
4/19/2022 11:00:00 AM 6.51 43.718 0.294 8.08 13.44 12.43
4/19/2022 11:15:00 AM 6.53 43.754 0.294 8.11 13.82 12.5
4/19/2022 11:30:00 AM 6.59 43.862 0.294 8.14 12.7 12.6
4/19/2022 11:45:00 AM 6.62 43.916 0.294 8.16 13.19 12.7
4/19/2022 12:00:00 PM 6.63 43.934 0.294 8.21 12.15 12.79
4/19/2022 12:15:00 PM 6.66 43.988 0.294 8.24 12.64 12.89
4/19/2022 12:30:00 PM 6.66 43.988 0.295 8.27 12.76 12.93
4/19/2022 12:45:00 PM 6.69 44.042 0.295 8.3 13.09 13.02
4/19/2022 1:00:00 PM 6.7 44.06 0.296 8.33 13.92 13.1
4/19/2022 1:15:00 PM 6.73 44.114 0.296 8.37 12.25 13.16
4/19/2022 1:30:00 PM 6.77 44.186 0.296 8.4 12.25 13.23
4/19/2022 1:45:00 PM 6.8 44.24 0.297 8.43 12.11 13.28
4/19/2022 2:00:00 PM 6.82 44.276 0.297 8.46 12.15 13.35
4/19/2022 2:15:00 PM 6.87 44.366 0.298 8.48 12.72 13.34
4/19/2022 2:30:00 PM 6.86 44.348 0.298 8.5 13.63 13.44
4/19/2022 2:45:00 PM 6.9 44.42 0.298 8.52 12.97 13.51
4/19/2022 3:00:00 PM 6.95 44.51 0.299 8.55 13.64 13.54
4/19/2022 3:15:00 PM 6.98 44.564 0.299 8.57 13.79 13.59
4/19/2022 3:30:00 PM 6.99 44.582 0.299 8.6 12.71 13.66
4/19/2022 3:45:00 PM 7 44.6 0.299 8.62 13.36 13.72
4/19/2022 4:00:00 PM 7.01 44.618 0.299 8.64 13.31 13.75
4/19/2022 4:15:00 PM 6.99 44.582 0.298 8.65 13.38 13.77
4/19/2022 4:30:00 PM 6.99 44.582 0.298 8.66 12.97 13.8
4/19/2022 4:45:00 PM 6.97 44.546 0.297 8.68 13.6 13.79
4/19/2022 5:00:00 PM 6.96 44.528 0.296 8.69 13.27 13.83
4/19/2022 5:15:00 PM 6.94 44.492 0.296 8.69 13.84 13.82
4/19/2022 5:30:00 PM 6.91 44.438 0.294 8.71 13.67 13.87
4/19/2022 5:45:00 PM 6.89 44.402 0.292 8.73 13.62 13.89
4/19/2022 6:00:00 PM 6.87 44.366 0.291 8.73 13.38 13.88
4/19/2022 6:15:00 PM 6.85 44.33 0.29 8.74 13.63 13.89
4/19/2022 6:30:00 PM 6.83 44.294 0.288 8.74 13.85 13.89
4/19/2022 6:45:00 PM 6.82 44.276 0.287 8.76 13.4 13.89
4/19/2022 7:00:00 PM 6.79 44.222 0.286 8.76 13.16 13.88
4/19/2022 7:15:00 PM 6.77 44.186 0.285 8.76 13.8 13.84
4/19/2022 7:30:00 PM 6.75 44.15 0.284 8.76 13.68 13.81
4/19/2022 7:45:00 PM 6.72 44.096 0.283 8.75 13.18 13.73
4/19/2022 8:00:00 PM 6.69 44.042 0.283 8.73 14.33 13.65
4/19/2022 8:15:00 PM 6.66 43.988 0.282 8.7 14.49 13.56
4/19/2022 8:30:00 PM 6.63 43.934 0.281 8.68 14.06 13.47
4/19/2022 8:45:00 PM 6.59 43.862 0.281 8.67 13.84 13.4
4/19/2022 9:00:00 PM 6.57 43.826 0.281 8.65 14.41 13.33
4/19/2022 9:15:00 PM 6.55 43.79 0.28 8.62 13.58 13.27
4/19/2022 9:30:00 PM 6.52 43.736 0.28 8.6 14.23 13.21
4/19/2022 9:45:00 PM 6.51 43.718 0.28 8.59 10.73 13.15
4/19/2022 10:00:00 PM 6.49 43.682 0.279 8.56 6.75 13.09
4/19/2022 10:15:00 PM 6.48 43.664 0.279 8.55 7.73 13.05
4/19/2022 10:30:00 PM 6.47 43.646 0.268 8.53 14.72 12.99
4/19/2022 10:45:00 PM 6.46 43.628 0.279 8.5 7.5 12.94
4/19/2022 11:00:00 PM 6.45 43.61 0.278 8.49 7.32 12.88
4/19/2022 11:15:00 PM 6.44 43.592 0.278 8.46 13.96 12.82
4/19/2022 11:30:00 PM 6.44 43.592 0.278 8.43 9.67 12.76
4/19/2022 11:45:00 PM 6.44 43.592 0.279 8.42 8.64 12.71
4/20/2022 12:00:00 AM 6.44 43.592 0.279 8.4 7.26 12.66
4/20/2022 12:15:00 AM 6.45 43.61 0.279 8.38 9.27 12.6
4/20/2022 12:30:00 AM 6.46 43.628 0.28 8.35 14.68 12.54
4/20/2022 12:45:00 AM 6.48 43.664 0.28 8.33 10.19 12.49
4/20/2022 1:00:00 AM 6.49 43.682 0.281 8.31 8.63 12.44
4/20/2022 1:15:00 AM 6.5 43.7 0.282 8.29 14.14 12.39
4/20/2022 1:30:00 AM 6.52 43.736 0.283 8.26 7.8 12.34
4/20/2022 1:45:00 AM 6.53 43.754 0.284 8.23 8.37 12.29
4/20/2022 2:00:00 AM 6.54 43.772 0.285 8.2 14.83 12.24
4/20/2022 2:15:00 AM 6.56 43.808 0.286 8.2 11.07 12.2
4/20/2022 2:30:00 AM 6.57 43.826 0.287 8.18 9.29 12.16
4/20/2022 2:45:00 AM 6.58 43.844 0.288 8.15 8.26 12.11
4/20/2022 3:00:00 AM 6.59 43.862 0.288 8.13 8.53 12.07
4/20/2022 3:15:00 AM 6.59 43.862 0.289 8.1 8.56 12.03
4/20/2022 3:30:00 AM 6.6 43.88 0.289 8.09 8.57 12
4/20/2022 3:45:00 AM 6.6 43.88 0.289 8.06 14.47 11.96
4/20/2022 4:00:00 AM 6.6 43.88 0.289 8.04 9.75 11.93
4/20/2022 4:15:00 AM 6.59 43.862 0.288 8.02 13.8 11.9
4/20/2022 4:30:00 AM 6.58 43.844 0.288 8.01 7.87 11.86
4/20/2022 4:45:00 AM 6.58 43.844 0.287 7.99 14.13 11.84
4/20/2022 5:00:00 AM 6.58 43.844 0.287 7.98 14.79 11.8
4/20/2022 5:15:00 AM 6.57 43.826 0.286 7.96 14.81 11.78
4/20/2022 5:30:00 AM 6.57 43.826 0.285 7.94 7.2 11.74
4/20/2022 5:45:00 AM 6.57 43.826 0.284 7.92 8.65 11.72
4/20/2022 6:00:00 AM 6.57 43.826 0.283 7.91 9.52 11.69
4/20/2022 6:15:00 AM 6.56 43.808 0.283 7.9 6.43 11.67
4/20/2022 6:30:00 AM 6.56 43.808 0.282 7.89 8.29 11.64
4/20/2022 6:45:00 AM 6.55 43.79 0.282 7.87 8.11 11.63
4/20/2022 7:00:00 AM 6.54 43.772 0.282 7.87 14.58 11.63
4/20/2022 7:15:00 AM 6.54 43.772 0.281 7.86 8.68 11.63
4/20/2022 7:30:00 AM 6.54 43.772 0.281 7.86 10.27 11.65
4/20/2022 7:45:00 AM 6.54 43.772 0.28 7.86 10.43 11.69
4/20/2022 8:00:00 AM 6.54 43.772 0.28 7.87 14.15 11.73
4/20/2022 8:15:00 AM 6.54 43.772 0.28 7.88 10.66 11.78
4/20/2022 8:30:00 AM 6.56 43.808 0.28 7.89 9.21 11.85
4/20/2022 8:45:00 AM 6.61 43.898 0.279 7.91 8.12 11.93
4/20/2022 9:00:00 AM 6.66 43.988 0.279 7.93 14.62 12.02
4/20/2022 9:15:00 AM 6.72 44.096 0.279 7.96 14.77 12.11
4/20/2022 9:30:00 AM 6.79 44.222 0.279 7.99 7.26 12.22
4/20/2022 9:45:00 AM 6.87 44.366 0.279 8.03 14.48 12.32
4/20/2022 10:00:00 AM 6.96 44.528 0.279 8.06 9.8 12.4
4/20/2022 10:15:00 AM 7.04 44.672 0.279 8.09 14.38 12.48
4/20/2022 10:30:00 AM 7.12 44.816 0.279 8.13 14.76 12.56
4/20/2022 10:45:00 AM 7.21 44.978 0.279 8.16 14.58 12.64
4/20/2022 11:00:00 AM 7.31 45.158 0.279 8.19 11.12 12.73
4/20/2022 11:15:00 AM 7.4 45.32 0.279 8.22 13.66 12.81
4/20/2022 11:30:00 AM 7.49 45.482 0.279 8.25 13.98 12.88
4/20/2022 11:45:00 AM 7.59 45.662 0.279 8.29 7.58 12.95
4/20/2022 12:00:00 PM 7.68 45.824 0.279 8.32 8.78 13.03
4/20/2022 12:15:00 PM 7.78 46.004 0.279 8.36 14.08 13.12
4/20/2022 12:30:00 PM 7.87 46.166 0.279 8.4 7.9 13.19
4/20/2022 12:45:00 PM 7.98 46.364 0.279 8.43 16.69 13.28
4/20/2022 1:00:00 PM 8.08 46.544 0.279 8.46 14.56 13.35
4/20/2022 1:15:00 PM 8.17 46.706 0.279 8.49 14.16 13.42
4/20/2022 1:30:00 PM 8.26 46.868 0.278 8.52 13.84 13.48
4/20/2022 1:45:00 PM 8.35 47.03 0.278 8.55 14.79 13.53
4/20/2022 2:00:00 PM 8.43 47.174 0.277 8.58 14.07 13.59
4/20/2022 2:15:00 PM 8.51 47.318 0.276 8.6 14.38 13.64
4/20/2022 2:30:00 PM 8.58 47.444 0.275 8.62 14.25 13.7
4/20/2022 2:45:00 PM 8.65 47.57 0.274 8.64 9.13 13.74
4/20/2022 3:00:00 PM 8.72 47.696 0.273 8.66 14.79 13.78
4/20/2022 3:15:00 PM 8.77 47.786 0.271 8.68 14.26 13.82
4/20/2022 3:30:00 PM 8.81 47.858 0.269 8.7 13.51 13.85
4/20/2022 3:45:00 PM 8.86 47.948 0.268 8.71 10.65 13.86
4/20/2022 4:00:00 PM 8.9 48.02 0.267 8.73 14.67 13.89
4/20/2022 4:15:00 PM 8.93 48.074 0.266 8.75 8.56 13.91
4/20/2022 4:30:00 PM 8.95 48.11 0.265 8.76 10.94 13.93
4/20/2022 4:45:00 PM 8.97 48.146 0.264 8.77 9.04 13.94
4/20/2022 5:00:00 PM 8.99 48.182 0.263 8.78 14.52 13.95
4/20/2022 5:15:00 PM 9 48.2 0.262 8.79 11.74 13.97
4/20/2022 5:30:00 PM 9 48.2 0.261 8.8 11.63 13.96
4/20/2022 5:45:00 PM 9 48.2 0.261 8.8 10.55 13.95
4/20/2022 6:00:00 PM 8.99 48.182 0.26 8.81 9.73 13.93
4/20/2022 6:15:00 PM 8.98 48.164 0.26 8.81 10.96 13.9
4/20/2022 6:30:00 PM 8.97 48.146 0.26 8.81 10.75 13.87
4/20/2022 6:45:00 PM 8.95 48.11 0.26 8.81 10.12 13.83
4/20/2022 7:00:00 PM 8.94 48.092 0.26 8.81 10.2 13.78
4/20/2022 7:15:00 PM 8.92 48.056 0.26 8.8 11.25 13.74
4/20/2022 7:30:00 PM 8.91 48.038 0.259 8.79 32.61 13.68
4/20/2022 7:45:00 PM 8.9 48.02 0.259 8.77 12.13 13.61
4/20/2022 8:00:00 PM 8.89 48.002 0.259 8.76 10.56 13.54
4/20/2022 8:15:00 PM 8.87 47.966 0.259 8.74 12.1 13.45
4/20/2022 8:30:00 PM 8.85 47.93 0.259 8.72 13.3 13.35
4/20/2022 8:45:00 PM 8.84 47.912 0.259 8.7 14.52 13.24
4/20/2022 9:00:00 PM 8.84 47.912 0.258 8.68 14.53 13.16
4/20/2022 9:15:00 PM 8.84 47.912 0.258 8.66 55.16 13.07
4/20/2022 9:30:00 PM 8.85 47.93 0.258 8.63 10.04 12.98
4/20/2022 9:45:00 PM 8.87 47.966 0.258 8.61 10.33 12.9
4/20/2022 10:00:00 PM 8.89 48.002 0.257 8.59 8.72 12.82
4/20/2022 10:15:00 PM 8.91 48.038 0.257 8.57 10 12.74
4/20/2022 10:30:00 PM 8.94 48.092 0.257 8.55 11.27 12.67
4/20/2022 10:45:00 PM 8.95 48.11 0.257 8.52 10.68 12.58
4/20/2022 11:00:00 PM 8.98 48.164 0.256 8.49 8.54 12.51
4/20/2022 11:15:00 PM 8.99 48.182 0.256 8.46 13.23 12.43
4/20/2022 11:30:00 PM 9 48.2 0.256 8.44 12.55 12.35
4/20/2022 11:45:00 PM 9.01 48.218 0.256 8.4 7.67 12.27
4/21/2022 12:00:00 AM 9.02 48.236 0.255 8.37 9.8 12.18
4/21/2022 12:15:00 AM 9.04 48.272 0.255 8.33 9.3 12.11
4/21/2022 12:30:00 AM 9.06 48.308 0.254 8.3 67.48 12.04
4/21/2022 12:45:00 AM 9.08 48.344 0.254 8.27 8.5 11.98
4/21/2022 1:00:00 AM 9.09 48.362 0.253 8.24 8.9 11.91
4/21/2022 1:15:00 AM 9.11 48.398 0.253 8.21 11.69 11.84
4/21/2022 1:30:00 AM 9.12 48.416 0.253 8.18 9.12 11.79
4/21/2022 1:45:00 AM 9.13 48.434 0.252 8.15 10.64 11.74
4/21/2022 2:00:00 AM 9.13 48.434 0.252 8.13 8.81 11.67
4/21/2022 2:15:00 AM 9.12 48.416 0.252 8.1 8.85 11.63
4/21/2022 2:30:00 AM 9.12 48.416 0.252 8.08 9.45 11.59
4/21/2022 2:45:00 AM 9.11 48.398 0.253 8.06 17.39 11.53
4/21/2022 3:00:00 AM 9.09 48.362 0.253 8.03 14.22 11.49
4/21/2022 3:15:00 AM 9.08 48.344 0.254 8.01 8.07 11.45
4/21/2022 3:30:00 AM 9.06 48.308 0.254 7.99 7.84 11.4
4/21/2022 3:45:00 AM 9.04 48.272 0.255 7.97 14.59 11.36
4/21/2022 4:00:00 AM 9.01 48.218 0.256 7.95 8.44 11.32
4/21/2022 4:15:00 AM 9 48.2 0.257 7.93 56 11.29
4/21/2022 4:30:00 AM 8.98 48.164 0.257 7.91 12.57 11.24
4/21/2022 4:45:00 AM 8.96 48.128 0.257 7.89 7.6 11.21
4/21/2022 5:00:00 AM 8.95 48.11 0.258 7.88 8.42 11.18
4/21/2022 5:15:00 AM 8.94 48.092 0.258 7.86 7.56 11.14
4/21/2022 5:30:00 AM 8.92 48.056 0.258 7.85 10.6 11.12
4/21/2022 5:45:00 AM 8.9 48.02 0.258 7.84 8.81 11.09
4/21/2022 6:00:00 AM 8.87 47.966 0.259 7.83 8.86 11.07
4/21/2022 6:15:00 AM 8.85 47.93 0.259 7.81 9.05 11.05
4/21/2022 6:30:00 AM 8.83 47.894 0.259 7.8 7.82 11.03
4/21/2022 6:45:00 AM 8.81 47.858 0.259 7.8 14.4 11.02
4/21/2022 7:00:00 AM 8.8 47.84 0.258 7.79 10.51 11.02
4/21/2022 7:15:00 AM 8.78 47.804 0.258 7.79 7.76 11.02
4/21/2022 7:30:00 AM 8.78 47.804 0.258 7.79 9.03 11.04
4/21/2022 7:45:00 AM 8.77 47.786 0.258 7.79 10.82 11.08
4/21/2022 8:00:00 AM 8.78 47.804 0.258 7.81 9.17 11.14
4/21/2022 8:15:00 AM 8.8 47.84 0.257 7.82 10.31 11.2
4/21/2022 8:30:00 AM 8.81 47.858 0.257 7.83 8.86 11.27
4/21/2022 8:45:00 AM 8.81 47.858 0.257 7.85 7.84 11.34
4/21/2022 9:00:00 AM 8.81 47.858 0.257 7.87 9.03 11.41
4/21/2022 9:15:00 AM 8.81 47.858 0.257 7.89 7.71 11.46
4/21/2022 9:30:00 AM 8.81 47.858 0.257 7.9 17.56 11.52
4/21/2022 9:45:00 AM 8.81 47.858 0.257 7.91 10.83 11.56
4/21/2022 10:00:00 AM 8.82 47.876 0.257 7.93 10.1 11.62
4/21/2022 10:15:00 AM 8.81 47.858 0.256 7.94 9.71 11.65
4/21/2022 10:30:00 AM 8.82 47.876 0.256 7.96 9.62 11.72
4/21/2022 10:45:00 AM 8.82 47.876 0.256 7.98 9.06 11.77
4/21/2022 11:00:00 AM 8.82 47.876 0.256 8.01 9.85 11.85
4/21/2022 11:15:00 AM 8.82 47.876 0.256 8.03 14.27 11.93
4/21/2022 11:30:00 AM 8.81 47.858 0.256 8.06 9.56 12
4/21/2022 11:45:00 AM 8.81 47.858 0.256 8.08 9.04 12.05
4/21/2022 12:00:00 PM 8.8 47.84 0.255 8.1 14.87 12.12
4/21/2022 12:15:00 PM 8.79 47.822 0.254 8.13 14.48 12.19
4/21/2022 12:30:00 PM 8.77 47.786 0.254 8.15 8.15 12.23
4/21/2022 12:45:00 PM 8.75 47.75 0.253 8.16 8.35 12.26
4/21/2022 1:00:00 PM 8.72 47.696 0.252 8.17 10.96 12.3
4/21/2022 1:15:00 PM 8.69 47.642 0.252 8.19 8.95 12.35
4/21/2022 1:30:00 PM 8.65 47.57 0.252 8.2 9.5 12.37
4/21/2022 1:45:00 PM 8.61 47.498 0.251 8.19 9.71 12.35
4/21/2022 2:00:00 PM 8.56 47.408 0.251 8.17 7.4 12.33
4/21/2022 2:15:00 PM 8.53 47.354 0.25 8.17 11.84 12.31
4/21/2022 2:30:00 PM 8.49 47.282 0.25 8.17 14.86 12.32
4/21/2022 2:45:00 PM 8.46 47.228 0.249 8.17 9.4 12.33
4/21/2022 3:00:00 PM 8.43 47.174 0.249 8.17 8.02 12.33
4/21/2022 3:15:00 PM 8.42 47.156 0.248 8.17 6.83 12.35
4/21/2022 3:30:00 PM 8.41 47.138 0.248 8.18 7.91 12.38
4/21/2022 3:45:00 PM 8.43 47.174 0.247 8.21 8.05 12.45
4/21/2022 4:00:00 PM 8.44 47.192 0.247 8.23 8.19 12.5
4/21/2022 4:15:00 PM 8.45 47.21 0.246 8.25 14.53 12.56
4/21/2022 4:30:00 PM 8.46 47.228 0.246 8.28 10.57 12.62
4/21/2022 4:45:00 PM 8.48 47.264 0.246 8.3 8.66 12.66
4/21/2022 5:00:00 PM 8.49 47.282 0.245 8.32 8.65 12.7
4/21/2022 5:15:00 PM 8.52 47.336 0.245 8.35 10.99 12.76
4/21/2022 5:30:00 PM 8.54 47.372 0.245 8.37 9.96 12.8
4/21/2022 5:45:00 PM 8.55 47.39 0.245 8.39 8.58 12.82
4/21/2022 6:00:00 PM 8.56 47.408 0.245 8.39 10.7 12.82
4/21/2022 6:15:00 PM 8.57 47.426 0.245 8.39 9.83 12.82
4/21/2022 6:30:00 PM 8.57 47.426 0.245 8.4 9.46 12.81
4/21/2022 6:45:00 PM 8.59 47.462 0.245 8.41 8.64 12.82
4/21/2022 7:00:00 PM 8.61 47.498 0.245 8.41 14.19 12.81
4/21/2022 7:15:00 PM 8.62 47.516 0.245 8.41 6.67 12.79
4/21/2022 7:30:00 PM 8.62 47.516 0.245 8.4 14.84 12.75
4/21/2022 7:45:00 PM 8.63 47.534 0.245 8.39 8.18 12.7
4/21/2022 8:00:00 PM 8.63 47.534 0.245 8.38 8.18 12.65
4/21/2022 8:15:00 PM 8.63 47.534 0.245 8.36 10.95 12.59
4/21/2022 8:30:00 PM 8.63 47.534 0.245 8.34 11.64 12.54
4/21/2022 8:45:00 PM 8.62 47.516 0.245 8.32 11.26 12.47
4/21/2022 9:00:00 PM 8.61 47.498 0.245 8.29 10.99 12.41
4/21/2022 9:15:00 PM 8.6 47.48 0.245 8.27 7.51 12.34
4/21/2022 9:30:00 PM 8.58 47.444 0.245 8.24 10.02 12.29
4/21/2022 9:45:00 PM 8.56 47.408 0.245 8.21 33.52 12.22
4/21/2022 10:00:00 PM 8.54 47.372 0.245 8.18 13.3 12.16
4/21/2022 10:15:00 PM 8.52 47.336 0.244 8.16 9.06 12.09
4/21/2022 10:30:00 PM 8.51 47.318 0.244 8.13 8.08 12.04
4/21/2022 10:45:00 PM 8.49 47.282 0.244 8.1 7.99 11.99
4/21/2022 11:00:00 PM 8.48 47.264 0.244 8.07 14.88 11.92
4/21/2022 11:15:00 PM 8.46 47.228 0.244 8.05 8.93 11.86
4/21/2022 11:30:00 PM 8.44 47.192 0.244 8.02 8.2 11.79
4/21/2022 11:45:00 PM 8.42 47.156 0.244 7.99 9.29 11.75
4/22/2022 12:00:00 AM 8.4 47.12 0.244 7.96 17.87 11.71
4/22/2022 12:15:00 AM 8.37 47.066 0.243 7.95 8.63 11.66
4/22/2022 12:30:00 AM 8.35 47.03 0.243 7.92 11.01 11.61
4/22/2022 12:45:00 AM 8.33 46.994 0.243 7.91 8.49 11.57
4/22/2022 1:00:00 AM 8.31 46.958 0.243 7.89 10.7 11.54
4/22/2022 1:15:00 AM 8.29 46.922 0.243 7.87 7.73 11.5
4/22/2022 1:30:00 AM 8.27 46.886 0.243 7.86 11.06 11.47
4/22/2022 1:45:00 AM 8.25 46.85 0.243 7.85 8.03 11.45
4/22/2022 2:00:00 AM 8.24 46.832 0.243 7.84 12.79 11.43
4/22/2022 2:15:00 AM 8.22 46.796 0.243 7.83 14.49 11.41
4/22/2022 2:30:00 AM 8.21 46.778 0.243 7.83 10.97 11.39
4/22/2022 2:45:00 AM 8.19 46.742 0.243 7.82 12.73 11.36
4/22/2022 3:00:00 AM 8.18 46.724 0.243 7.81 9.01 11.36
4/22/2022 3:15:00 AM 8.17 46.706 0.243 7.8 11.72 11.33
4/22/2022 3:30:00 AM 8.16 46.688 0.243 7.8 12.27 11.32
4/22/2022 3:45:00 AM 8.16 46.688 0.244 7.79 12.08 11.3
4/22/2022 4:00:00 AM 8.16 46.688 0.244 7.78 11.08 11.28
4/22/2022 4:15:00 AM 8.17 46.706 0.244 7.78 10.05 11.27
4/22/2022 4:30:00 AM 8.17 46.706 0.245 7.78 8.51 11.25
4/22/2022 4:45:00 AM 8.17 46.706 0.245 7.77 11.87 11.24
4/22/2022 5:00:00 AM 8.16 46.688 0.245 7.76 9.95 11.22
4/22/2022 5:15:00 AM 8.15 46.67 0.245 7.76 9.8 11.21
4/22/2022 5:30:00 AM 8.13 46.634 0.246 7.76 9.58 11.2
4/22/2022 5:45:00 AM 8.11 46.598 0.246 7.75 15.73 11.18
4/22/2022 6:00:00 AM 8.09 46.562 0.247 7.75 10.43 11.17
4/22/2022 6:15:00 AM 8.07 46.526 0.247 7.74 8.39 11.16
4/22/2022 6:30:00 AM 8.05 46.49 0.248 7.74 11.74 11.15
4/22/2022 6:45:00 AM 8.03 46.454 0.248 7.74 10.29 11.16
4/22/2022 7:00:00 AM 8.01 46.418 0.249 7.74 9.36 11.16
4/22/2022 7:15:00 AM 8 46.4 0.249 7.74 10.51 11.19
4/22/2022 7:30:00 AM 7.99 46.382 0.25 7.75 7.79 11.22
4/22/2022 7:45:00 AM 7.99 46.382 0.25 7.76 9.8 11.27
4/22/2022 8:00:00 AM 8 46.4 0.25 7.76 10.18 11.33
4/22/2022 8:15:00 AM 8.02 46.436 0.25 7.78 11.32 11.38
4/22/2022 8:30:00 AM 8.04 46.472 0.25 7.8 8.87 11.48
4/22/2022 8:45:00 AM 8.07 46.526 0.25 7.82 7.99 11.57
4/22/2022 9:00:00 AM 8.11 46.598 0.25 7.85 8.25 11.67
4/22/2022 9:15:00 AM 8.16 46.688 0.25 7.88 9.78 11.75
4/22/2022 9:30:00 AM 8.23 46.814 0.25 7.92 8.7 11.87
4/22/2022 9:45:00 AM 8.31 46.958 0.25 7.95 7.85 11.96
4/22/2022 10:00:00 AM 8.4 47.12 0.25 7.99 11.53 12.07
4/22/2022 10:15:00 AM 8.49 47.282 0.25 8.02 9.33 12.18
4/22/2022 10:30:00 AM 8.58 47.444 0.25 8.06 10.91 12.27
4/22/2022 10:45:00 AM 8.67 47.606 0.25 8.09 9.14 12.35
4/22/2022 11:00:00 AM 8.77 47.786 0.25 8.13 15.48 12.44
4/22/2022 11:15:00 AM 8.87 47.966 0.25 8.16 7.08 12.51
4/22/2022 11:30:00 AM 8.98 48.164 0.25 8.2 13.6 12.59
4/22/2022 11:45:00 AM 9.1 48.38 0.25 8.24 32.69 12.68
4/22/2022 12:00:00 PM 9.21 48.578 0.25 8.28 19.32 12.75
4/22/2022 12:15:00 PM 9.32 48.776 0.249 8.32 8.8 12.84
4/22/2022 12:30:00 PM 9.42 48.956 0.249 8.35 7.27 12.91
4/22/2022 12:45:00 PM 9.52 49.136 0.249 8.39 8.52 12.98
4/22/2022 1:00:00 PM 9.63 49.334 0.249 8.42 14.73 13.04
4/22/2022 1:15:00 PM 9.73 49.514 0.249 8.45 7.62 13.11
4/22/2022 1:30:00 PM 9.83 49.694 0.249 8.48 7.1 13.16
4/22/2022 1:45:00 PM 9.93 49.874 0.249 8.51 8.33 13.23
4/22/2022 2:00:00 PM 10.02 50.036 0.249 8.54 6.82 13.27
4/22/2022 2:15:00 PM 10.1 50.18 0.249 8.56 8.5 13.32
4/22/2022 2:30:00 PM 10.18 50.324 0.248 8.58 9.37 13.35
4/22/2022 2:45:00 PM 10.25 50.45 0.248 8.61 8.51 13.4
4/22/2022 3:00:00 PM 10.33 50.594 0.248 8.63 8.77 13.43
4/22/2022 3:15:00 PM 10.39 50.702 0.248 8.65 13.96 13.47
4/22/2022 3:30:00 PM 10.45 50.81 0.248 8.67 13.45 13.5
4/22/2022 3:45:00 PM 10.49 50.882 0.248 8.68 9.6 13.51
4/22/2022 4:00:00 PM 10.54 50.972 0.248 8.7 13.72 13.56
4/22/2022 4:15:00 PM 10.57 51.026 0.248 8.71 13.94 13.58
4/22/2022 4:30:00 PM 10.6 51.08 0.248 8.73 7.58 13.58
4/22/2022 4:45:00 PM 10.62 51.116 0.248 8.75 8 13.6
4/22/2022 5:00:00 PM 10.63 51.134 0.248 8.76 8.87 13.6
4/22/2022 5:15:00 PM 10.63 51.134 0.248 8.77 8.27 13.61
4/22/2022 5:30:00 PM 10.64 51.152 0.248 8.77 8.39 13.6
4/22/2022 5:45:00 PM 10.63 51.134 0.248 8.78 8.66 13.59
4/22/2022 6:00:00 PM 10.62 51.116 0.248 8.79 9.95 13.58
4/22/2022 6:15:00 PM 10.61 51.098 0.248 8.79 7.16 13.56
4/22/2022 6:30:00 PM 10.59 51.062 0.248 8.8 14.24 13.53
4/22/2022 6:45:00 PM 10.57 51.026 0.248 8.8 14.81 13.5
4/22/2022 7:00:00 PM 10.56 51.008 0.248 8.79 14.56 13.45
4/22/2022 7:15:00 PM 10.53 50.954 0.248 8.79 8.85 13.39
4/22/2022 7:30:00 PM 10.51 50.918 0.249 8.78 7.46 13.31
4/22/2022 7:45:00 PM 10.48 50.864 0.249 8.77 9.35 13.25
4/22/2022 8:00:00 PM 10.45 50.81 0.249 8.75 9.57 13.15
4/22/2022 8:15:00 PM 10.43 50.774 0.249 8.74 14.4 13.05
4/22/2022 8:30:00 PM 10.41 50.738 0.249 8.7 10.03 12.95
4/22/2022 8:45:00 PM 10.4 50.72 0.249 8.68 66.06 12.85
4/22/2022 9:00:00 PM 10.38 50.684 0.249 8.66 7.62 12.75
4/22/2022 9:15:00 PM 10.38 50.684 0.25 8.64 11.09 12.66
4/22/2022 9:30:00 PM 10.37 50.666 0.25 8.61 9.19 12.58
4/22/2022 9:45:00 PM 10.38 50.684 0.251 8.59 9.14 12.48
4/22/2022 10:00:00 PM 10.38 50.684 0.251 8.56 14.58 12.4
4/22/2022 10:15:00 PM 10.38 50.684 0.251 8.54 10.49 12.32
4/22/2022 10:30:00 PM 10.39 50.702 0.252 8.51 13.67 12.23
4/22/2022 10:45:00 PM 10.39 50.702 0.252 8.49 6.65 12.17
4/22/2022 11:00:00 PM 10.39 50.702 0.252 8.46 10.48 12.1
4/22/2022 11:15:00 PM 10.4 50.72 0.253 8.43 11.15 12.03
4/22/2022 11:30:00 PM 10.41 50.738 0.253 8.4 7.77 11.95
4/22/2022 11:45:00 PM 10.41 50.738 0.254 8.37 7.47 11.87
4/23/2022 12:00:00 AM 10.41 50.738 0.254 8.34 14.72 11.8
4/23/2022 12:15:00 AM 10.41 50.738 0.256 8.31 14.66 11.73
4/23/2022 12:30:00 AM 10.41 50.738 0.257 8.28 7.67 11.66
4/23/2022 12:45:00 AM 10.41 50.738 0.259 8.25 9.09 11.59
4/23/2022 1:00:00 AM 10.41 50.738 0.262 8.22 7.13 11.52
4/23/2022 1:15:00 AM 10.42 50.756 0.266 8.19 14.76 11.47
4/23/2022 1:30:00 AM 10.42 50.756 0.27 8.16 7.44 11.41
4/23/2022 1:45:00 AM 10.43 50.774 0.275 8.13 14.59 11.35
4/23/2022 2:00:00 AM 10.44 50.792 0.28 8.1 14.66 11.29
4/23/2022 2:15:00 AM 10.43 50.774 0.286 8.08 15.15 11.25
4/23/2022 2:30:00 AM 10.43 50.774 0.291 8.06 13.7 11.19
4/23/2022 2:45:00 AM 10.43 50.774 0.296 8.04 21.34 11.15
4/23/2022 3:00:00 AM 10.42 50.756 0.301 8.02 6.5 11.1
4/23/2022 3:15:00 AM 10.42 50.756 0.306 8 10.03 11.06
4/23/2022 3:30:00 AM 10.41 50.738 0.311 7.99 14.44 11.02
4/23/2022 3:45:00 AM 10.4 50.72 0.315 7.97 14.07 10.98
4/23/2022 4:00:00 AM 10.39 50.702 0.319 7.95 14.3 10.95
4/23/2022 4:15:00 AM 10.37 50.666 0.322 7.94 13.31 10.9
4/23/2022 4:30:00 AM 10.36 50.648 0.326 7.92 13.83 10.86
4/23/2022 4:45:00 AM 10.34 50.612 0.328 7.91 14.79 10.84
4/23/2022 5:00:00 AM 10.32 50.576 0.33 7.89 9.23 10.82
4/23/2022 5:15:00 AM 10.3 50.54 0.332 7.88 13.88 10.78
4/23/2022 5:30:00 AM 10.28 50.504 0.334 7.87 13.63 10.74
4/23/2022 5:45:00 AM 10.26 50.468 0.335 7.86 7.86 10.73
4/23/2022 6:00:00 AM 10.24 50.432 0.337 7.85 6.79 10.69
4/23/2022 6:15:00 AM 10.23 50.414 0.338 7.84 8.49 10.67
4/23/2022 6:30:00 AM 10.21 50.378 0.339 7.83 8.04 10.63
4/23/2022 6:45:00 AM 10.19 50.342 0.34 7.81 14.78 10.64
4/23/2022 7:00:00 AM 10.17 50.306 0.342 7.81 6.98 10.61
4/23/2022 7:15:00 AM 10.16 50.288 0.343 7.81 7.61 10.61
4/23/2022 7:30:00 AM 10.15 50.27 0.344 7.8 14.22 10.61
4/23/2022 7:45:00 AM 10.14 50.252 0.345 7.81 14.51 10.62
4/23/2022 8:00:00 AM 10.14 50.252 0.347 7.81 7.05 10.66
4/23/2022 8:15:00 AM 10.13 50.234 0.348 7.82 14.52 10.7
4/23/2022 8:30:00 AM 10.13 50.234 0.349 7.83 13.77 10.76
4/23/2022 8:45:00 AM 10.13 50.234 0.35 7.84 13.39 10.81
4/23/2022 9:00:00 AM 10.14 50.252 0.35 7.85 13.91 10.87
4/23/2022 9:15:00 AM 10.16 50.288 0.351 7.88 8.11 10.94
4/23/2022 9:30:00 AM 10.19 50.342 0.351 7.9 13.85 11.04
4/23/2022 9:45:00 AM 10.23 50.414 0.352 7.92 13.45 11.14
4/23/2022 10:00:00 AM 10.29 50.522 0.352 7.96 14.15 11.25
4/23/2022 10:15:00 AM 10.38 50.684 0.353 7.99 13.14 11.36
4/23/2022 10:30:00 AM 10.48 50.864 0.353 8.03 14.25 11.48
4/23/2022 10:45:00 AM 10.58 51.044 0.353 8.07 13.86 11.58
4/23/2022 11:00:00 AM 10.69 51.242 0.353 8.1 13.19 11.69
4/23/2022 11:15:00 AM 10.8 51.44 0.353 8.13 12.86 11.77
4/23/2022 11:30:00 AM 10.87 51.566 0.354 8.18 13.92 11.86
4/23/2022 11:45:00 AM 10.94 51.692 0.354 8.22 14.28 11.95
4/23/2022 12:00:00 PM 10.99 51.782 0.354 8.26 7.52 12.03
4/23/2022 12:15:00 PM 11.07 51.926 0.354 8.29 7.46 12.13
4/23/2022 12:30:00 PM 11.19 52.142 0.355 8.33 13.79 12.22
4/23/2022 12:45:00 PM 11.31 52.358 0.355 8.36 7.62 12.3
4/23/2022 1:00:00 PM 11.39 52.502 0.355 8.4 13.46 12.39
4/23/2022 1:15:00 PM 11.42 52.556 0.356 8.43 13.41 12.43
4/23/2022 1:30:00 PM 11.46 52.628 0.356 8.46 7.63 12.51
4/23/2022 1:45:00 PM 11.45 52.61 0.356 8.48 14.34 12.58
4/23/2022 2:00:00 PM 11.46 52.628 0.356 8.51 14.44 12.6
4/23/2022 2:15:00 PM 11.43 52.574 0.356 8.53 13.76 12.63
4/23/2022 2:30:00 PM 11.39 52.502 0.356 8.55 14.2 12.69
4/23/2022 2:45:00 PM 11.35 52.43 0.357 8.56 13.72 12.72
4/23/2022 3:00:00 PM 11.3 52.34 0.357 8.56 7.42 12.7
4/23/2022 3:15:00 PM 11.24 52.232 0.357 8.57 14.16 12.7
4/23/2022 3:30:00 PM 11.21 52.178 0.357 8.55 14.58 12.7
4/23/2022 3:45:00 PM 11.2 52.16 0.357 8.58 14.06 12.66
4/23/2022 4:00:00 PM 11.2 52.16 0.356 8.58 13.73 12.72
4/23/2022 4:15:00 PM 11.2 52.16 0.354 8.6 14.51 12.77
4/23/2022 4:30:00 PM 11.21 52.178 0.352 8.62 13.78 12.78
4/23/2022 4:45:00 PM 11.22 52.196 0.349 8.62 13.88 12.82
4/23/2022 5:00:00 PM 11.24 52.232 0.346 8.64 14.24 12.84
4/23/2022 5:15:00 PM 11.23 52.214 0.341 8.65 13.47 12.84
4/23/2022 5:30:00 PM 11.22 52.196 0.336 8.66 6.76 12.81
4/23/2022 5:45:00 PM 11.22 52.196 0.33 8.67 13.32 12.91
4/23/2022 6:00:00 PM 11.2 52.16 0.325 8.66 13.41 12.89
4/23/2022 6:15:00 PM 11.18 52.124 0.319 8.68 8.1 12.88
4/23/2022 6:30:00 PM 11.16 52.088 0.314 8.68 8.23 12.85
4/23/2022 6:45:00 PM 11.13 52.034 0.308 8.67 6.62 12.83
4/23/2022 7:00:00 PM 11.09 51.962 0.302 8.67 8.54 12.79
4/23/2022 7:15:00 PM 11.06 51.908 0.297 8.67 14.31 12.75
4/23/2022 7:30:00 PM 11.02 51.836 0.293 8.65 6.52 12.7
4/23/2022 7:45:00 PM 10.99 51.782 0.289 8.64 13.79 12.63
4/23/2022 8:00:00 PM 10.95 51.71 0.285 8.62 14.69 12.55
4/23/2022 8:15:00 PM 10.91 51.638 0.282 8.6 7.82 12.49
4/23/2022 8:30:00 PM 10.87 51.566 0.279 8.57 7.91 12.38
4/23/2022 8:45:00 PM 10.83 51.494 0.277 8.54 14.62 12.28
4/23/2022 9:00:00 PM 10.79 51.422 0.275 8.51 8.25 12.15
4/23/2022 9:15:00 PM 10.75 51.35 0.273 8.47 13.52 12.09
4/23/2022 9:30:00 PM 10.72 51.296 0.271 8.44 14.15 12.06
4/23/2022 9:45:00 PM 10.7 51.26 0.27 8.41 7.58 11.97
4/23/2022 10:00:00 PM 10.68 51.224 0.268 8.38 10.08 11.87
4/23/2022 10:15:00 PM 10.66 51.188 0.268 8.35 14.45 11.85
4/23/2022 10:30:00 PM 10.65 51.17 0.267 8.33 14.94 11.77
4/23/2022 10:45:00 PM 10.65 51.17 0.266 8.3 14.11 11.7
4/23/2022 11:00:00 PM 10.64 51.152 0.266 8.28 14.7 11.68
4/23/2022 11:15:00 PM 10.64 51.152 0.265 8.26 13.47 11.6
4/23/2022 11:30:00 PM 10.63 51.134 0.265 8.24 9.59 11.55
4/23/2022 11:45:00 PM 10.62 51.116 0.265 8.22 8.8 11.52
4/24/2022 12:00:00 AM 10.6 51.08 0.265 8.19 6.68 11.47
4/24/2022 12:15:00 AM 10.59 51.062 0.265 8.18 14.64 11.42
4/24/2022 12:30:00 AM 10.58 51.044 0.265 8.16 14.57 11.35
4/24/2022 12:45:00 AM 10.57 51.026 0.266 8.14 7.47 11.31
4/24/2022 1:00:00 AM 10.56 51.008 0.266 8.13 13.42 11.27
4/24/2022 1:15:00 AM 10.55 50.99 0.266 8.1 13.8 11.22
4/24/2022 1:30:00 AM 10.54 50.972 0.267 8.08 14.12 11.17
4/24/2022 1:45:00 AM 10.53 50.954 0.267 8.07 13.73 11.1
4/24/2022 2:00:00 AM 10.53 50.954 0.268 8.05 13.29 11.09
4/24/2022 2:15:00 AM 10.52 50.936 0.268 8.02 13.99 11.02
4/24/2022 2:30:00 AM 10.51 50.918 0.268 8.02 14.23 10.97
4/24/2022 2:45:00 AM 10.52 50.936 0.269 8 13.65 10.94
4/24/2022 3:00:00 AM 10.52 50.936 0.269 7.98 13.53 10.9
4/24/2022 3:15:00 AM 10.52 50.936 0.27 7.97 14.16 10.83
4/24/2022 3:30:00 AM 10.53 50.954 0.27 7.96 14.51 10.79
4/24/2022 3:45:00 AM 10.53 50.954 0.271 7.95 14.37 10.76
4/24/2022 4:00:00 AM 10.54 50.972 0.271 7.93 13.65 10.72
4/24/2022 4:15:00 AM 10.54 50.972 0.272 7.92 14.5 10.69
4/24/2022 4:30:00 AM 10.56 51.008 0.272 7.91 8.9 10.66
4/24/2022 4:45:00 AM 10.56 51.008 0.272 7.9 14.37 10.62
4/24/2022 5:00:00 AM 10.57 51.026 0.273 7.89 13.59 10.57
4/24/2022 5:15:00 AM 10.57 51.026 0.273 7.88 7.9 10.57
4/24/2022 5:30:00 AM 10.57 51.026 0.273 7.87 14.55 10.53
4/24/2022 5:45:00 AM 10.57 51.026 0.273 7.86 13.17 10.48
4/24/2022 6:00:00 AM 10.56 51.008 0.273 7.85 12.35 10.47
4/24/2022 6:15:00 AM 10.56 51.008 0.274 7.84 12.8 10.43
4/24/2022 6:30:00 AM 10.55 50.99 0.274 7.84 12.84 10.43
4/24/2022 6:45:00 AM 10.55 50.99 0.274 7.83 14.46 10.41
4/24/2022 7:00:00 AM 10.54 50.972 0.274 7.83 6.72 10.41
4/24/2022 7:15:00 AM 10.55 50.99 0.274 7.83 13.43 10.44
4/24/2022 7:30:00 AM 10.57 51.026 0.274 7.84 14.12 10.48
4/24/2022 7:45:00 AM 10.58 51.044 0.274 7.83 14.06 10.53
4/24/2022 8:00:00 AM 10.61 51.098 0.274 7.86 13.1 10.59
4/24/2022 8:15:00 AM 10.64 51.152 0.274 7.88 14.56 10.63
4/24/2022 8:30:00 AM 10.65 51.17 0.275 7.9 13.52 10.74
4/24/2022 8:45:00 AM 10.67 51.206 0.275 7.92 11.93 10.82
4/24/2022 9:00:00 AM 10.68 51.224 0.275 7.94 13.84 10.83
4/24/2022 9:15:00 AM 10.7 51.26 0.275 7.95 14.28 10.91
4/24/2022 9:30:00 AM 10.73 51.314 0.275 7.96 12.66 10.97
4/24/2022 9:45:00 AM 10.8 51.44 0.275 7.99 14.33 11.03
4/24/2022 10:00:00 AM 10.87 51.566 0.275 8.02 13.12 11.12
4/24/2022 10:15:00 AM 10.99 51.782 0.275 8.05 12.78 11.23
4/24/2022 10:30:00 AM 11.11 51.998 0.275 8.08 14.13 11.37
4/24/2022 10:45:00 AM 11.23 52.214 0.274 8.11 12.27 11.44
4/24/2022 11:00:00 AM 11.34 52.412 0.274 8.14 12.66 11.44
4/24/2022 11:15:00 AM 11.49 52.682 0.274 8.16 6.09 11.56
4/24/2022 11:30:00 AM 11.63 52.934 0.274 8.19 12.1 11.67
4/24/2022 11:45:00 AM 11.78 53.204 0.274 8.22 11.69 11.74
4/24/2022 12:00:00 PM 11.93 53.474 0.274 8.26 13.71 11.85
4/24/2022 12:15:00 PM 12.07 53.726 0.274 8.29 12.33 11.9
4/24/2022 12:30:00 PM 12.22 53.996 0.274 8.32 12.49 11.99
4/24/2022 12:45:00 PM 12.36 54.248 0.274 8.35 12.91 12.04
4/24/2022 1:00:00 PM 12.51 54.518 0.273 8.38 12.47 12.13
4/24/2022 1:15:00 PM 12.63 54.734 0.273 8.41 12.26 12.17
4/24/2022 1:30:00 PM 12.78 55.004 0.273 8.44 13.37 12.24
4/24/2022 1:45:00 PM 12.88 55.184 0.273 8.47 13.03 12.28
4/24/2022 2:00:00 PM 12.99 55.382 0.273 8.49 12.03 12.31
4/24/2022 2:15:00 PM 13.08 55.544 0.273 8.51 12.55 12.37
4/24/2022 2:30:00 PM 13.13 55.634 0.273 8.52 12.98 12.4
4/24/2022 2:45:00 PM 13.13 55.634 0.273 8.54 14.44 12.41
4/24/2022 3:00:00 PM 13.2 55.76 0.273 8.56 12.31 12.41
4/24/2022 3:15:00 PM 13.26 55.868 0.273 8.57 12.23 12.42
4/24/2022 3:30:00 PM 13.3 55.94 0.273 8.59 12.89 12.5
4/24/2022 3:45:00 PM 13.39 56.102 0.273 8.62 13.07 12.52
4/24/2022 4:00:00 PM 13.41 56.138 0.273 8.63 11.72 12.56
4/24/2022 4:15:00 PM 13.42 56.156 0.273 8.64 11.96 12.53
4/24/2022 4:30:00 PM 13.42 56.156 0.273 8.65 12.21 12.55
4/24/2022 4:45:00 PM 13.4 56.12 0.273 8.65 12.3 12.55
4/24/2022 5:00:00 PM 13.39 56.102 0.273 8.66 7.14 12.54
4/24/2022 5:15:00 PM 13.39 56.102 0.273 8.67 13.03 12.53
4/24/2022 5:30:00 PM 13.41 56.138 0.273 8.67 12.2 12.54
4/24/2022 5:45:00 PM 13.41 56.138 0.273 8.67 12.51 12.53
4/24/2022 6:00:00 PM 13.42 56.156 0.273 8.69 12.11 12.53
4/24/2022 6:15:00 PM 13.42 56.156 0.273 8.69 12.43 12.44
4/24/2022 6:30:00 PM 13.39 56.102 0.273 8.69 13.27 12.5
4/24/2022 6:45:00 PM 13.38 56.084 0.273 8.69 11.92 12.44
4/24/2022 7:00:00 PM 13.35 56.03 0.273 8.68 12.08 12.44
4/24/2022 7:15:00 PM 13.33 55.994 0.273 8.68 12.12 12.36
4/24/2022 7:30:00 PM 13.29 55.922 0.273 8.67 12.45 12.28
4/24/2022 7:45:00 PM 13.25 55.85 0.274 8.66 11.87 12.24
4/24/2022 8:00:00 PM 13.2 55.76 0.274 8.64 7.6 12.13
4/24/2022 8:15:00 PM 13.16 55.688 0.274 8.62 11.96 12.05
4/24/2022 8:30:00 PM 13.12 55.616 0.274 8.6 12.58 11.95
4/24/2022 8:45:00 PM 13.09 55.562 0.274 8.58 12.13 11.87
4/24/2022 9:00:00 PM 13.07 55.526 0.274 8.55 14.25 11.78
4/24/2022 9:15:00 PM 13.05 55.49 0.275 8.53 13.27 11.7
4/24/2022 9:30:00 PM 13.04 55.472 0.275 8.51 12.97 11.62
4/24/2022 9:45:00 PM 13.04 55.472 0.274 8.48 13.52 11.57
4/24/2022 10:00:00 PM 13.05 55.49 0.274 8.46 14.37 11.49
4/24/2022 10:15:00 PM 13.06 55.508 0.275 8.44 7.59 11.41
4/24/2022 10:30:00 PM 13.07 55.526 0.275 8.39 13.47 11.31
4/24/2022 10:45:00 PM 13.09 55.562 0.275 8.39 13.72 11.24
4/24/2022 11:00:00 PM 13.11 55.598 0.275 8.37 12.79 11.18
4/24/2022 11:15:00 PM 13.12 55.616 0.275 8.35 14.03 11.11
4/24/2022 11:30:00 PM 13.13 55.634 0.275 8.33 12.65 11.04
4/24/2022 11:45:00 PM 13.15 55.67 0.274 8.3 12.19 10.97
4/25/2022 12:00:00 AM 13.17 55.706 0.274 8.27 13.77 10.9
4/25/2022 12:15:00 AM 13.19 55.742 0.274 8.23 13.53 10.81
4/25/2022 12:30:00 AM 13.21 55.778 0.274 8.22 13.6 10.72
4/25/2022 12:45:00 AM 13.23 55.814 0.274 8.19 12.37 10.65
4/25/2022 1:00:00 AM 13.26 55.868 0.274 8.16 13.29 10.54
4/25/2022 1:15:00 AM 13.29 55.922 0.273 8.14 11.7 10.54
4/25/2022 1:30:00 AM 13.31 55.958 0.273 8.12 14.01 10.44
4/25/2022 1:45:00 AM 13.34 56.012 0.273 8.1 13.9 10.39
4/25/2022 2:00:00 AM 13.35 56.03 0.272 8.07 12.71 10.34
4/25/2022 2:15:00 AM 13.36 56.048 0.272 8.05 13.17 10.27
4/25/2022 2:30:00 AM 13.37 56.066 0.271 8.02 12.57 10.21
4/25/2022 2:45:00 AM 13.37 56.066 0.27 8 12.7 10.17
4/25/2022 3:00:00 AM 13.37 56.066 0.269 7.98 13.23 10.12
4/25/2022 3:15:00 AM 13.36 56.048 0.269 7.96 12.17 10.07
4/25/2022 3:30:00 AM 13.34 56.012 0.268 7.95 12.16 10.02
4/25/2022 3:45:00 AM 13.33 55.994 0.267 7.92 12.27 9.99
4/25/2022 4:00:00 AM 13.3 55.94 0.267 7.91 8.9 9.94
4/25/2022 4:15:00 AM 13.28 55.904 0.266 7.89 13.15 9.91
4/25/2022 4:30:00 AM 13.26 55.868 0.265 7.88 12.29 9.89
4/25/2022 4:45:00 AM 13.23 55.814 0.265 7.86 13.22 9.83
4/25/2022 5:00:00 AM 13.2 55.76 0.264 7.85 13.21 9.82
4/25/2022 5:15:00 AM 13.17 55.706 0.263 7.84 12.7 9.79
4/25/2022 5:30:00 AM 13.14 55.652 0.263 7.83 12.99 9.77
4/25/2022 5:45:00 AM 13.1 55.58 0.263 7.81 13.33 9.74
4/25/2022 6:00:00 AM 13.07 55.526 0.262 7.8 12.85 9.69
4/25/2022 6:15:00 AM 13.04 55.472 0.262 7.79 13.04 9.68
4/25/2022 6:30:00 AM 13.01 55.418 0.262 7.79 24.15 9.64
4/25/2022 6:45:00 AM 12.98 55.364 0.262 7.78 12.73 9.67
4/25/2022 7:00:00 AM 12.95 55.31 0.262 7.77 13.69 9.65
4/25/2022 7:15:00 AM 12.93 55.274 0.263 7.78 13.68 9.67
4/25/2022 7:30:00 AM 12.91 55.238 0.263 7.78 12.72 9.68
4/25/2022 7:45:00 AM 12.9 55.22 0.263 7.78 14.39 9.73
4/25/2022 8:00:00 AM 12.91 55.238 0.264 7.79 13.51 9.78
4/25/2022 8:15:00 AM 12.93 55.274 0.264 7.8 12.82 9.81
4/25/2022 8:30:00 AM 12.96 55.328 0.265 7.82 13.51 9.92
4/25/2022 8:45:00 AM 13 55.4 0.266 7.84 13.02 9.99
4/25/2022 9:00:00 AM 13.04 55.472 0.266 7.86 13.64 10.08
4/25/2022 9:15:00 AM 13.09 55.562 0.267 7.88 13.16 10.15
4/25/2022 9:30:00 AM 13.14 55.652 0.268 7.9 13.73 10.26
4/25/2022 9:45:00 AM 13.21 55.778 0.268 7.92 13.5 10.33
4/25/2022 10:00:00 AM 13.29 55.922 0.269 7.94 13.29 10.41
4/25/2022 10:15:00 AM 13.4 56.12 0.27 7.97 12.98 10.48
4/25/2022 10:30:00 AM 13.52 56.336 0.27 8 13.09 10.55
4/25/2022 10:45:00 AM 13.64 56.552 0.271 8.02 13.27 10.63
4/25/2022 11:00:00 AM 13.77 56.786 0.271 8.03 13.09 10.72
4/25/2022 11:15:00 AM 13.9 57.02 0.272 8.07 13.23 10.77
4/25/2022 11:30:00 AM 14.03 57.254 0.273 8.1 14.52 10.84
4/25/2022 11:45:00 AM 14.17 57.506 0.273 8.13 13.8 10.9
4/25/2022 12:00:00 PM 14.31 57.758 0.273 8.13 7.42 10.96
4/25/2022 12:15:00 PM 14.45 58.01 0.274 8.17 9.95 11.04
4/25/2022 12:30:00 PM 14.58 58.244 0.274 8.18 19.18 11.1
4/25/2022 12:45:00 PM 14.73 58.514 0.274 8.23 10.23 11.14
4/25/2022 1:00:00 PM 14.87 58.766 0.274 8.26 7.63 11.21
4/25/2022 1:15:00 PM 15 59 0.274 8.25 7.94 11.27
4/25/2022 1:30:00 PM 15.13 59.234 0.275 8.3 14.67 11.29
4/25/2022 1:45:00 PM 15.27 59.486 0.275 8.33 13.61 11.36
4/25/2022 2:00:00 PM 15.4 59.72 0.275 8.34 10.77 11.39
4/25/2022 2:15:00 PM 15.51 59.918 0.275 8.38 13.32 11.45
4/25/2022 2:30:00 PM 15.63 60.134 0.275 8.41 13.65 11.48
4/25/2022 2:45:00 PM 15.73 60.314 0.275 8.42 13.12 11.53
4/25/2022 3:00:00 PM 15.81 60.458 0.275 8.45 13.8 11.55
4/25/2022 3:15:00 PM 15.9 60.62 0.275 8.46 9.96 11.54
4/25/2022 3:30:00 PM 15.98 60.764 0.275 8.48 59.78 11.57
4/25/2022 3:45:00 PM 16.04 60.872 0.275 8.47 14.28 11.57
4/25/2022 4:00:00 PM 16.1 60.98 0.275 8.51 9.75 11.6
4/25/2022 4:15:00 PM 16.14 61.052 0.276 8.52 11.92 11.61
4/25/2022 4:30:00 PM 16.17 61.106 0.276 8.55 12.33 11.65
4/25/2022 4:45:00 PM 16.2 61.16 0.276 8.55 11.67 11.64
4/25/2022 5:00:00 PM 16.22 61.196 0.276 8.56 11.93 11.64
4/25/2022 5:15:00 PM 16.23 61.214 0.276 8.57 12.91 11.65
4/25/2022 5:30:00 PM 16.23 61.214 0.276 8.59 11.92 11.62
4/25/2022 5:45:00 PM 16.22 61.196 0.276 8.59 11.53 11.6
4/25/2022 6:00:00 PM 16.2 61.16 0.276 8.6 11.75 11.61
4/25/2022 6:15:00 PM 16.17 61.106 0.276 8.61 11.6 11.6
4/25/2022 6:30:00 PM 16.12 61.016 0.277 8.6 12.37 11.54
4/25/2022 6:45:00 PM 16.09 60.962 0.277 8.61 12.36 11.54
4/25/2022 7:00:00 PM 16.04 60.872 0.277 8.6 13.34 11.47
4/25/2022 7:15:00 PM 16 60.8 0.277 8.6 13.05 11.45
4/25/2022 7:30:00 PM 15.96 60.728 0.277 8.57 12.11 11.39
4/25/2022 7:45:00 PM 15.89 60.602 0.277 8.59 12.12 11.33
4/25/2022 8:00:00 PM 15.84 60.512 0.277 8.57 12.47 11.27
4/25/2022 8:15:00 PM 15.78 60.404 0.277 8.56 12.39 11.21
4/25/2022 8:30:00 PM 15.71 60.278 0.278 8.55 5.65 11.12
4/25/2022 8:45:00 PM 15.65 60.17 0.278 8.53 11.86 11.05
4/25/2022 9:00:00 PM 15.58 60.044 0.278 8.51 11.83 10.96
4/25/2022 9:15:00 PM 15.52 59.936 0.278 8.49 12.09 10.87
4/25/2022 9:30:00 PM 15.45 59.81 0.278 8.47 12.42 10.81
4/25/2022 9:45:00 PM 15.41 59.738 0.278 8.45 12.2 10.71
4/25/2022 10:00:00 PM 15.38 59.684 0.279 8.43 12.28 10.66
4/25/2022 10:15:00 PM 15.36 59.648 0.279 8.4 11.68 10.6
4/25/2022 10:30:00 PM 15.35 59.63 0.279 8.38 12.44 10.54
4/25/2022 10:45:00 PM 15.35 59.63 0.279 8.37 11.63 10.49
4/25/2022 11:00:00 PM 15.35 59.63 0.279 8.35 13.15 10.43
4/25/2022 11:15:00 PM 15.34 59.612 0.279 8.33 12.23 10.37
4/25/2022 11:30:00 PM 15.34 59.612 0.279 8.28 12.38 10.33
4/25/2022 11:45:00 PM 15.34 59.612 0.279 8.3 12.76 10.28
4/26/2022 12:00:00 AM 15.33 59.594 0.279 8.26 13.06 10.22
4/26/2022 12:15:00 AM 15.33 59.594 0.279 8.26 12.58 10.17
4/26/2022 12:30:00 AM 15.32 59.576 0.279 8.23 12.05 10.1
4/26/2022 12:45:00 AM 15.33 59.594 0.278 8.21 12.69 10.04
4/26/2022 1:00:00 AM 15.32 59.576 0.278 8.19 11.88 9.97
4/26/2022 1:15:00 AM 15.32 59.576 0.278 8.17 12.43 9.91
4/26/2022 1:30:00 AM 15.32 59.576 0.278 8.14 13.52 9.85
4/26/2022 1:45:00 AM 15.31 59.558 0.278 8.12 12.91 9.79
4/26/2022 2:00:00 AM 15.31 59.558 0.278 8.1 13.17 9.74
4/26/2022 2:15:00 AM 15.3 59.54 0.278 8.07 12.7 9.68
4/26/2022 2:30:00 AM 15.3 59.54 0.279 8.06 11.6 9.63
4/26/2022 2:45:00 AM 15.3 59.54 0.279 8.03 12.68 9.56
4/26/2022 3:00:00 AM 15.3 59.54 0.28 8.02 11.69 9.52
4/26/2022 3:15:00 AM 15.31 59.558 0.281 8 12.6 9.48
4/26/2022 3:30:00 AM 15.31 59.558 0.283 7.98 11.98 9.44
4/26/2022 3:45:00 AM 15.3 59.54 0.285 7.95 12.34 9.38
4/26/2022 4:00:00 AM 15.3 59.54 0.288 7.95 11.59 9.35
4/26/2022 4:15:00 AM 15.29 59.522 0.292 7.93 12.04 9.31
4/26/2022 4:30:00 AM 15.28 59.504 0.297 7.92 11.83 9.27
4/26/2022 4:45:00 AM 15.27 59.486 0.302 7.91 12.63 9.24
4/26/2022 5:00:00 AM 15.26 59.468 0.308 7.89 12.31 9.21
4/26/2022 5:15:00 AM 15.24 59.432 0.314 7.88 11.5 9.18
4/26/2022 5:30:00 AM 15.23 59.414 0.32 7.87 14.1 9.15
4/26/2022 5:45:00 AM 15.21 59.378 0.327 7.86 11.68 9.12
4/26/2022 6:00:00 AM 15.2 59.36 0.334 7.85 11.55 9.09
4/26/2022 6:15:00 AM 15.17 59.306 0.341 7.84 12.08 9.09
4/26/2022 6:30:00 AM 15.15 59.27 0.347 7.83 12.8 9.05
4/26/2022 6:45:00 AM 15.13 59.234 0.353 7.82 6.93 9.01
4/26/2022 7:00:00 AM 15.11 59.198 0.359 7.82 13.5 9.02
4/26/2022 7:15:00 AM 15.09 59.162 0.364 7.81 12.52 8.98
4/26/2022 7:30:00 AM 15.07 59.126 0.369 7.8 11.82 8.99
4/26/2022 7:45:00 AM 15.05 59.09 0.373 7.8 12 8.99
4/26/2022 8:00:00 AM 15.02 59.036 0.377 7.79 13.74 8.98
4/26/2022 8:15:00 AM 14.99 58.982 0.381 7.79 13.24 8.98
4/26/2022 8:30:00 AM 14.97 58.946 0.384 7.79 12.26 8.99
4/26/2022 8:45:00 AM 14.95 58.91 0.387 7.79 12.58 8.99
4/26/2022 9:00:00 AM 14.94 58.892 0.389 7.8 11.57 9.01
4/26/2022 9:15:00 AM 14.94 58.892 0.392 7.8 11.2 9.08
4/26/2022 9:30:00 AM 14.95 58.91 0.394 7.81 11.36 9.13
4/26/2022 9:45:00 AM 14.95 58.91 0.395 7.83 12.11 9.23
4/26/2022 10:00:00 AM 14.97 58.946 0.396 7.84 14.54 9.29
4/26/2022 10:15:00 AM 14.97 58.946 0.396 7.86 12.16 9.37
4/26/2022 10:30:00 AM 14.97 58.946 0.397 7.87 11.94 9.43
4/26/2022 10:45:00 AM 14.97 58.946 0.397 7.88 11.9 9.48
4/26/2022 11:00:00 AM 14.96 58.928 0.397 7.89 12.72 9.52
4/26/2022 11:15:00 AM 14.94 58.892 0.397 7.9 11.91 9.52
4/26/2022 11:30:00 AM 14.92 58.856 0.397 7.89 12.63 9.55
4/26/2022 11:45:00 AM 14.9 58.82 0.397 7.9 11.02 9.56
4/26/2022 12:00:00 PM 14.87 58.766 0.398 7.87 11.3 9.56
4/26/2022 12:15:00 PM 14.87 58.766 0.399 7.9 12.79 9.58
4/26/2022 12:30:00 PM 14.86 58.748 0.4 7.9 12.1 9.61
4/26/2022 12:45:00 PM 14.85 58.73 0.4 7.92 11.47 9.67
4/26/2022 1:00:00 PM 14.85 58.73 0.401 7.94 11.46 9.71
4/26/2022 1:15:00 PM 14.84 58.712 0.402 7.95 11.18 9.76
4/26/2022 1:30:00 PM 14.86 58.748 0.403 7.97 11.32 9.88
4/26/2022 1:45:00 PM 14.87 58.766 0.404 7.98 11.39 9.91
4/26/2022 2:00:00 PM 14.86 58.748 0.406 8 21.9 9.97
4/26/2022 2:15:00 PM 14.85 58.73 0.407 8.01 12.29 10.02
4/26/2022 2:30:00 PM 14.85 58.73 0.408 8.02 12.14 10.06
4/26/2022 2:45:00 PM 14.84 58.712 0.409 8.04 12.66 10.09
4/26/2022 3:00:00 PM 14.83 58.694 0.41 8.04 12.92 10.13
4/26/2022 3:15:00 PM 14.81 58.658 0.41 8.06 12.23 10.17
4/26/2022 3:30:00 PM 14.8 58.64 0.411 8.06 12.42 10.18
4/26/2022 3:45:00 PM 14.76 58.568 0.412 8.07 12.02 10.17
4/26/2022 4:00:00 PM 14.72 58.496 0.413 8.07 13.39 10.15
4/26/2022 4:15:00 PM 14.68 58.424 0.414 8.06 12.75 10.18
4/26/2022 4:30:00 PM 14.63 58.334 0.414 8.06 12.23 10.17
4/26/2022 4:45:00 PM 14.59 58.262 0.415 8.06 12.23 10.17
4/26/2022 5:00:00 PM 14.54 58.172 0.415 8.05 12.03 10.14
4/26/2022 5:15:00 PM 14.49 58.082 0.416 8.04 11.91 10.1
4/26/2022 5:30:00 PM 14.43 57.974 0.416 8.03 12.21 10.08
4/26/2022 5:45:00 PM 14.37 57.866 0.417 8.02 12.03 10.05
4/26/2022 6:00:00 PM 14.33 57.794 0.417 8.01 11.96 10.05
4/26/2022 6:15:00 PM 14.28 57.704 0.417 8.01 11.15 9.99
4/26/2022 6:30:00 PM 14.21 57.578 0.416 8 13.03 9.99
4/26/2022 6:45:00 PM 14.14 57.452 0.415 7.98 12.66 9.97
4/26/2022 7:00:00 PM 14.08 57.344 0.414 7.97 13.51 9.92
4/26/2022 7:15:00 PM 14.02 57.236 0.412 7.96 12.79 9.93
4/26/2022 7:30:00 PM 13.96 57.128 0.41 7.95 7.21 9.93
4/26/2022 7:45:00 PM 13.9 57.02 0.406 7.95 5.79 9.92
4/26/2022 8:00:00 PM 13.84 56.912 0.402 7.94 13.49 9.9
4/26/2022 8:15:00 PM 13.77 56.786 0.398 7.88 13.02 9.88
4/26/2022 8:30:00 PM 13.71 56.678 0.392 7.92 11.65 9.86
4/26/2022 8:45:00 PM 13.65 56.57 0.386 7.91 12.24 9.84
4/26/2022 9:00:00 PM 13.58 56.444 0.38 7.9 12 9.83
4/26/2022 9:15:00 PM 13.52 56.336 0.374 7.89 12.63 9.81
4/26/2022 9:30:00 PM 13.44 56.192 0.367 7.89 12.83 9.8
4/26/2022 9:45:00 PM 13.37 56.066 0.361 7.88 13.14 9.79
4/26/2022 10:00:00 PM 13.3 55.94 0.354 7.87 11.92 9.78
4/26/2022 10:15:00 PM 13.24 55.832 0.349 7.86 12.46 9.76
4/26/2022 10:30:00 PM 13.17 55.706 0.343 7.86 12.53 9.76
4/26/2022 10:45:00 PM 13.1 55.58 0.338 7.84 13.29 9.74
4/26/2022 11:00:00 PM 13.03 55.454 0.332 7.85 13.79 9.73
4/26/2022 11:15:00 PM 12.97 55.346 0.328 7.84 13.08 9.73
4/26/2022 11:30:00 PM 12.89 55.202 0.323 7.83 12.43 9.71
4/26/2022 11:45:00 PM 12.82 55.076 0.32 7.83 13.53 9.7
4/27/2022 12:00:00 AM 12.73 54.914 0.316 7.82 11.21 9.7
4/27/2022 12:15:00 AM 12.67 54.806 0.313 7.81 12.78 9.69
4/27/2022 12:30:00 AM 12.61 54.698 0.31 7.81 12.48 9.69
4/27/2022 12:45:00 AM 12.55 54.59 0.308 7.8 11.5 9.68
4/27/2022 1:00:00 AM 12.49 54.482 0.306 7.79 12.63 9.68
4/27/2022 1:15:00 AM 12.43 54.374 0.305 7.79 13.21 9.66
4/27/2022 1:30:00 AM 12.37 54.266 0.303 7.78 13.84 9.67
4/27/2022 1:45:00 AM 12.31 54.158 0.302 7.78 12.69 9.66
4/27/2022 2:00:00 AM 12.26 54.068 0.301 7.78 11.41 9.66
4/27/2022 2:15:00 AM 12.2 53.96 0.301 7.77 12.39 9.66
4/27/2022 2:30:00 AM 12.14 53.852 0.3 7.76 12.81 9.65
4/27/2022 2:45:00 AM 12.1 53.78 0.3 7.76 12.36 9.65
4/27/2022 3:00:00 AM 12.05 53.69 0.299 7.76 12.72 9.66
4/27/2022 3:15:00 AM 12.01 53.618 0.299 7.76 12.47 9.66
4/27/2022 3:30:00 AM 11.95 53.51 0.299 7.76 12.63 9.67
4/27/2022 3:45:00 AM 11.91 53.438 0.3 7.76 12.64 9.66
4/27/2022 4:00:00 AM 11.87 53.366 0.301 7.76 12.66 9.67
4/27/2022 4:15:00 AM 11.82 53.276 0.303 7.76 11.71 9.65
4/27/2022 4:30:00 AM 11.78 53.204 0.306 7.75 12.22 9.66
4/27/2022 4:45:00 AM 11.73 53.114 0.311 7.76 12 9.65
4/27/2022 5:00:00 AM 11.69 53.042 0.316 7.75 12.93 9.66
4/27/2022 5:15:00 AM 11.63 52.934 0.322 7.76 13.63 9.65
4/27/2022 5:30:00 AM 11.58 52.844 0.33 7.75 12.34 9.65
4/27/2022 5:45:00 AM 11.55 52.79 0.338 7.75 14.01 9.66
4/27/2022 6:00:00 AM 11.48 52.664 0.347 7.75 12.77 9.66
4/27/2022 6:15:00 AM 11.44 52.592 0.357 7.75 12.76 9.66
4/27/2022 6:30:00 AM 11.38 52.484 0.367 7.75 12.29 9.67
4/27/2022 6:45:00 AM 11.32 52.376 0.375 7.75 12.45 9.68
4/27/2022 7:00:00 AM 11.28 52.304 0.385 7.75 15.02 9.71
4/27/2022 7:15:00 AM 11.22 52.196 0.395 7.76 14.22 9.75
4/27/2022 7:30:00 AM 11.18 52.124 0.402 7.77 12.96 9.8
4/27/2022 7:45:00 AM 11.12 52.016 0.412 7.78 14.28 9.83
4/27/2022 8:00:00 AM 11.1 51.98 0.42 7.79 11.42 9.9
4/27/2022 8:15:00 AM 11.07 51.926 0.427 7.8 11.32 9.94
4/27/2022 8:30:00 AM 11.05 51.89 0.434 7.81 12.33 9.99
4/27/2022 8:45:00 AM 11.04 51.872 0.44 7.82 12.64 10.05
4/27/2022 9:00:00 AM 11.07 51.926 0.444 7.81 13.07 10.12
4/27/2022 9:15:00 AM 11.11 51.998 0.449 7.85 11.89 10.18
4/27/2022 9:30:00 AM 11.11 51.998 0.454 7.87 11.9 10.27
4/27/2022 9:45:00 AM 11.15 52.07 0.457 7.86 12.2 10.34
4/27/2022 10:00:00 AM 11.15 52.07 0.46 7.91 6.19 10.4
4/27/2022 10:15:00 AM 11.18 52.124 0.463 7.92 12.69 10.47
4/27/2022 10:30:00 AM 11.18 52.124 0.465 7.92 12.98 10.52
4/27/2022 10:45:00 AM 11.27 52.286 0.467 7.95 12.93 10.58
4/27/2022 11:00:00 AM 11.31 52.358 0.474 7.97 12.62 10.64
4/27/2022 11:15:00 AM 11.38 52.484 0.472 7.98 12.77 10.7
4/27/2022 11:30:00 AM 11.37 52.466 0.473 8 11.05 10.75
4/27/2022 11:45:00 AM 11.4 52.52 0.473 8.02 11.47 10.82
4/27/2022 12:00:00 PM 11.37 52.466 0.473 8.03 10.96 10.86
4/27/2022 12:15:00 PM 11.36 52.448 0.473 8.05 5.92 10.92
4/27/2022 12:30:00 PM 11.36 52.448 0.473 8.06 11.41 10.97
4/27/2022 12:45:00 PM 11.37 52.466 0.472 8.08 11.64 11.02
4/27/2022 1:00:00 PM 11.35 52.43 0.474 8.1 12.82 11.07
4/27/2022 1:15:00 PM 11.32 52.376 0.475 8.11 13.81 11.12
4/27/2022 1:30:00 PM 11.26 52.268 0.466 8.13 13.08 11.16
4/27/2022 1:45:00 PM 11.25 52.25 0.465 8.14 12.04 11.21
4/27/2022 2:00:00 PM 11.18 52.124 0.464 8.14 11.38 11.23
4/27/2022 2:15:00 PM 11.19 52.142 0.463 8.17 13.04 11.29
4/27/2022 2:30:00 PM 11.18 52.124 0.462 8.18 11.95 11.31
4/27/2022 2:45:00 PM 11.21 52.178 0.46 8.18 14.6 11.36
4/27/2022 3:00:00 PM 11.21 52.178 0.459 8.22 12.2 11.42
4/27/2022 3:15:00 PM 11.24 52.232 0.458 8.24 12.61 11.48
4/27/2022 3:30:00 PM 11.23 52.214 0.457 8.25 11.77 11.52
4/27/2022 3:45:00 PM 11.22 52.196 0.457 8.27 11.96 11.56
4/27/2022 4:00:00 PM 11.27 52.286 0.456 8.28 12.22 11.61
4/27/2022 4:15:00 PM 11.25 52.25 0.455 8.3 12.76 11.62
4/27/2022 4:30:00 PM 11.23 52.214 0.455 8.31 11.25 11.63
4/27/2022 4:45:00 PM 11.22 52.196 0.455 8.33 12.94 11.66
4/27/2022 5:00:00 PM 11.18 52.124 0.454 8.33 6.11 11.67
4/27/2022 5:15:00 PM 11.16 52.088 0.454 8.32 5.19 11.68
4/27/2022 5:30:00 PM 11.1 51.98 0.454 8.35 5.38 11.68
4/27/2022 5:45:00 PM 11.07 51.926 0.454 8.35 6.9 11.69
4/27/2022 6:00:00 PM 11 51.8 0.453 8.36 6.79 11.65
4/27/2022 6:15:00 PM 10.95 51.71 0.453 8.36 13.06 11.64
4/27/2022 6:30:00 PM 10.89 51.602 0.451 8.36 6.15 11.61
4/27/2022 6:45:00 PM 10.86 51.548 0.45 8.36 6.45 11.6
4/27/2022 7:00:00 PM 10.82 51.476 0.447 8.35 11.43 11.59
4/27/2022 7:15:00 PM 10.77 51.386 0.444 8.35 12.58 11.56
4/27/2022 7:30:00 PM 10.73 51.314 0.44 8.35 12.33 11.55
4/27/2022 7:45:00 PM 10.69 51.242 0.436 8.34 14.23 11.5
4/27/2022 8:00:00 PM 10.66 51.188 0.43 8.33 5.6 11.46
4/27/2022 8:15:00 PM 10.61 51.098 0.424 8.31 6.04 11.41
4/27/2022 8:30:00 PM 10.58 51.044 0.417 8.3 12.29 11.37
4/27/2022 8:45:00 PM 10.52 50.936 0.411 8.29 11.13 11.32
4/27/2022 9:00:00 PM 10.48 50.864 0.402 8.28 11.09 11.3
4/27/2022 9:15:00 PM 10.42 50.756 0.395 8.27 11.72 11.26
4/27/2022 9:30:00 PM 10.36 50.648 0.388 8.25 11.2 11.23
4/27/2022 9:45:00 PM 10.29 50.522 0.38 8.23 14.34 11.2
4/27/2022 10:00:00 PM 10.23 50.414 0.374 8.23 5.81 11.17
4/27/2022 10:15:00 PM 10.17 50.306 0.368 8.21 13.27 11.15
4/27/2022 10:30:00 PM 10.12 50.216 0.362 8.2 12.04 11.11
4/27/2022 10:45:00 PM 10.07 50.126 0.356 8.18 12.01 11.08
4/27/2022 11:00:00 PM 10.02 50.036 0.351 8.17 11.45 11.04
4/27/2022 11:15:00 PM 9.97 49.946 0.346 8.16 11.26 11.04
4/27/2022 11:30:00 PM 9.91 49.838 0.343 8.14 11.73 11.01
4/27/2022 11:45:00 PM 9.85 49.73 0.339 8.13 12.16 10.99
4/28/2022 12:00:00 AM 9.78 49.604 0.336 8.11 11.67 10.96
4/28/2022 12:15:00 AM 9.74 49.532 0.333 8.1 11.48 10.93
4/28/2022 12:30:00 AM 9.69 49.442 0.33 8.09 11.7 10.91
4/28/2022 12:45:00 AM 9.65 49.37 0.328 8.08 11.74 10.9
4/28/2022 1:00:00 AM 9.6 49.28 0.326 8.06 12.03 10.88
4/28/2022 1:15:00 AM 9.55 49.19 0.324 8.06 12.24 10.84
4/28/2022 1:30:00 AM 9.51 49.118 0.323 8.05 12.13 10.84
4/28/2022 1:45:00 AM 9.45 49.01 0.322 8.03 11.85 10.82
4/28/2022 2:00:00 AM 9.41 48.938 0.32 8.02 12.18 10.8
4/28/2022 2:15:00 AM 9.39 48.902 0.318 8.01 12.22 10.78
4/28/2022 2:30:00 AM 9.34 48.812 0.319 8 8.47 10.76
4/28/2022 2:45:00 AM 9.3 48.74 0.318 8 11.51 10.75
4/28/2022 3:00:00 AM 9.24 48.632 0.317 7.99 11.32 10.73
4/28/2022 3:15:00 AM 9.22 48.596 0.317 7.98 11.94 10.72
4/28/2022 3:30:00 AM 9.18 48.524 0.317 7.97 13.42 10.71
4/28/2022 3:45:00 AM 9.13 48.434 0.317 7.96 12.42 10.7
4/28/2022 4:00:00 AM 9.09 48.362 0.318 7.96 12.44 10.69
4/28/2022 4:15:00 AM 9.05 48.29 0.32 7.95 12.19 10.68
4/28/2022 4:30:00 AM 9.02 48.236 0.322 7.94 11.97 10.68
4/28/2022 4:45:00 AM 8.96 48.128 0.325 7.93 11.27 10.67
4/28/2022 5:00:00 AM 8.92 48.056 0.329 7.93 10.74 10.66
4/28/2022 5:15:00 AM 8.87 47.966 0.334 7.92 12.07 10.66
4/28/2022 5:30:00 AM 8.83 47.894 0.341 7.91 11.13 10.65
4/28/2022 5:45:00 AM 8.77 47.786 0.347 7.9 11.07 10.64
4/28/2022 6:00:00 AM 8.74 47.732 0.355 7.9 11.76 10.64
4/28/2022 6:15:00 AM 8.7 47.66 0.362 7.89 12.53 10.64
4/28/2022 6:30:00 AM 8.64 47.552 0.371 7.89 12.18 10.63
4/28/2022 6:45:00 AM 8.6 47.48 0.379 7.89 12.7 10.64
4/28/2022 7:00:00 AM 8.56 47.408 0.387 7.89 11.27 10.66
4/28/2022 7:15:00 AM 8.52 47.336 0.395 7.89 14.54 10.69
4/28/2022 7:30:00 AM 8.49 47.282 0.403 7.89 12.32 10.72
4/28/2022 7:45:00 AM 8.47 47.246 0.411 7.9 11.27 10.77
4/28/2022 8:00:00 AM 8.46 47.228 0.418 7.9 10.98 10.83
4/28/2022 8:15:00 AM 8.46 47.228 0.424 7.91 11.96 10.9
4/28/2022 8:30:00 AM 8.48 47.264 0.43 7.92 13.15 10.96
4/28/2022 8:45:00 AM 8.51 47.318 0.435 7.94 11.71 11.02
4/28/2022 9:00:00 AM 8.54 47.372 0.44 7.95 12.55 11.08
4/28/2022 9:15:00 AM 8.58 47.444 0.444 7.96 11.29 11.16
4/28/2022 9:30:00 AM 8.64 47.552 0.448 7.97 12.44 11.22
4/28/2022 9:45:00 AM 8.72 47.696 0.452 7.98 11.41 11.28
4/28/2022 10:00:00 AM 8.8 47.84 0.455 8 13.24 11.34
4/28/2022 10:15:00 AM 8.91 48.038 0.458 8.01 48.77 11.4
4/28/2022 10:30:00 AM 9.04 48.272 0.46 8.04 26.71 11.46
4/28/2022 10:45:00 AM 9.14 48.452 0.462 8.04 14.2 11.52
4/28/2022 11:00:00 AM 9.27 48.686 0.464 8.07 5.18 11.57
4/28/2022 11:15:00 AM 9.4 48.92 0.465 8.08 13.3 11.63
4/28/2022 11:30:00 AM 9.53 49.154 0.466 8.1 12.95 11.67
4/28/2022 11:45:00 AM 9.67 49.406 0.467 8.11 11.47 11.72
4/28/2022 12:00:00 PM 9.78 49.604 0.468 8.13 12.16 11.76
4/28/2022 12:15:00 PM 9.9 49.82 0.469 8.15 11.79 11.81
4/28/2022 12:30:00 PM 10.02 50.036 0.47 8.16 11.7 11.85
4/28/2022 12:45:00 PM 10.12 50.216 0.47 8.18 11.86 11.9
4/28/2022 1:00:00 PM 10.24 50.432 0.471 8.2 11.9 11.93
4/28/2022 1:15:00 PM 10.36 50.648 0.471 8.21 11.67 11.97
4/28/2022 1:30:00 PM 10.45 50.81 0.471 8.23 11.69 12.01
4/28/2022 1:45:00 PM 10.55 50.99 0.472 8.25 11.67 12.06
4/28/2022 2:00:00 PM 10.64 51.152 0.472 8.27 11.61 12.09
4/28/2022 2:15:00 PM 10.73 51.314 0.472 8.27 12.24 12.13
4/28/2022 2:30:00 PM 10.8 51.44 0.472 8.3 12.34 12.17
4/28/2022 2:45:00 PM 10.87 51.566 0.472 8.32 14.51 12.16
4/28/2022 3:00:00 PM 10.91 51.638 0.472 8.32 11.94 12.22
4/28/2022 3:15:00 PM 10.97 51.746 0.489 8.34 11.25 12.24
4/28/2022 3:30:00 PM 11.01 51.818 0.478 8.36 11.14 12.27
4/28/2022 3:45:00 PM 11.04 51.872 0.477 8.37 11.49 12.29
4/28/2022 4:00:00 PM 11.07 51.926 0.476 8.39 11.11 12.32
4/28/2022 4:15:00 PM 11.07 51.926 0.476 8.4 11.88 12.35
4/28/2022 4:30:00 PM 11.11 51.998 0.476 8.42 11.21 12.36
4/28/2022 4:45:00 PM 11.12 52.016 0.476 8.43 10.93 12.38
4/28/2022 5:00:00 PM 11.11 51.998 0.475 8.44 11.52 12.4
4/28/2022 5:15:00 PM 11.12 52.016 0.476 8.46 11.15 12.42
4/28/2022 5:30:00 PM 11.11 51.998 0.477 8.47 11.2 12.43
4/28/2022 5:45:00 PM 11.08 51.944 0.484 8.48 10.88 12.43
4/28/2022 6:00:00 PM 11.04 51.872 0.47 8.49 11.15 12.44
4/28/2022 6:15:00 PM 10.99 51.782 0.47 8.5 10.38 12.42
4/28/2022 6:30:00 PM 10.92 51.656 0.469 8.5 10.12 12.42
4/28/2022 6:45:00 PM 10.87 51.566 0.468 8.51 10.49 12.41
4/28/2022 7:00:00 PM 10.8 51.44 0.466 8.51 11.17 12.39
4/28/2022 7:15:00 PM 10.74 51.332 0.464 8.52 11.5 12.37
4/28/2022 7:30:00 PM 10.68 51.224 0.462 8.51 10.77 12.33
4/28/2022 7:45:00 PM 10.61 51.098 0.458 8.52 10.93 12.31
4/28/2022 8:00:00 PM 10.55 50.99 0.453 8.51 10.76 12.26
4/28/2022 8:15:00 PM 10.48 50.864 0.448 8.51 11.38 12.23
4/28/2022 8:30:00 PM 10.42 50.756 0.442 8.5 11.13 12.17
4/28/2022 8:45:00 PM 10.37 50.666 0.435 8.49 10.79 12.13
4/28/2022 9:00:00 PM 10.3 50.54 0.428 8.48 10.85 12.08
4/28/2022 9:15:00 PM 10.24 50.432 0.42 8.46 10.59 12.03
4/28/2022 9:30:00 PM 10.18 50.324 0.412 8.45 10.4 11.96
4/28/2022 9:45:00 PM 10.11 50.198 0.404 8.44 10.93 11.92
4/28/2022 10:00:00 PM 10.05 50.09 0.397 8.42 11.57 11.85
4/28/2022 10:15:00 PM 9.98 49.964 0.389 8.4 11.03 11.81
4/28/2022 10:30:00 PM 9.93 49.874 0.382 8.39 11.19 11.76
4/28/2022 10:45:00 PM 9.87 49.766 0.374 8.37 10.35 11.72
4/28/2022 11:00:00 PM 9.83 49.694 0.367 8.35 11.18 11.67
4/28/2022 11:15:00 PM 9.79 49.622 0.361 8.33 10.52 11.63
4/28/2022 11:30:00 PM 9.77 49.586 0.355 8.32 11.68 11.6
4/28/2022 11:45:00 PM 9.74 49.532 0.349 8.31 10.14 11.56
4/29/2022 12:00:00 AM 9.69 49.442 0.345 8.29 13.72 11.54
4/29/2022 12:15:00 AM 9.66 49.388 0.34 8.25 10.73 11.48
4/29/2022 12:30:00 AM 9.65 49.37 0.336 8.24 10.6 11.46
4/29/2022 12:45:00 AM 9.62 49.316 0.333 8.21 11.15 11.42
4/29/2022 1:00:00 AM 9.57 49.226 0.33 8.21 5.6 11.39
4/29/2022 1:15:00 AM 9.55 49.19 0.327 8.19 13.75 11.35
4/29/2022 1:30:00 AM 9.54 49.172 0.324 8.18 11.9 11.31
4/29/2022 1:45:00 AM 9.52 49.136 0.322 8.17 11.47 11.26
4/29/2022 2:00:00 AM 9.49 49.082 0.32 8.15 10.58 11.21
4/29/2022 2:15:00 AM 9.45 49.01 0.318 8.12 10.38 11.17
4/29/2022 2:30:00 AM 9.42 48.956 0.317 8.11 10.6 11.13
4/29/2022 2:45:00 AM 9.42 48.956 0.316 8.09 10.95 11.08
4/29/2022 3:00:00 AM 9.37 48.866 0.315 8.05 12.75 11.03
4/29/2022 3:15:00 AM 9.38 48.884 0.313 8.07 10.33 11.02
4/29/2022 3:30:00 AM 9.37 48.866 0.313 8.06 10.78 10.97
4/29/2022 3:45:00 AM 9.31 48.758 0.313 8.06 10.33 10.97
4/29/2022 4:00:00 AM 9.3 48.74 0.313 8.04 10.8 10.92
4/29/2022 4:15:00 AM 9.27 48.686 0.313 8.07 5.64 10.89
4/29/2022 4:30:00 AM 9.26 48.668 0.314 8.07 10.9 10.84
4/29/2022 4:45:00 AM 9.24 48.632 0.316 8.1 11.42 10.82
4/29/2022 5:00:00 AM 9.21 48.578 0.319 8.1 11.57 10.79
4/29/2022 5:15:00 AM 9.21 48.578 0.322 8.13 10.89 10.76
4/29/2022 5:30:00 AM 9.18 48.524 0.326 8.05 11.04 10.73
4/29/2022 5:45:00 AM 9.15 48.47 0.332 8.05 10.9 10.68
4/29/2022 6:00:00 AM 9.12 48.416 0.338 8.08 10.85 10.69
4/29/2022 6:15:00 AM 9.11 48.398 0.344 8.04 10.63 10.67
4/29/2022 6:30:00 AM 9.06 48.308 0.351 8.09 11.62 10.66
4/29/2022 6:45:00 AM 9.09 48.362 0.359 7.98 11.91 10.62
4/29/2022 7:00:00 AM 9.1 48.38 0.366 7.91 11.28 10.61
4/29/2022 7:15:00 AM 9.12 48.416 0.374 7.92 10.51 10.57
4/29/2022 7:30:00 AM 9.12 48.416 0.378 7.92 10.42 10.62
4/29/2022 7:45:00 AM 9.11 48.398 0.389 7.93 12.56 10.68
4/29/2022 8:00:00 AM 9.12 48.416 0.396 7.94 11 10.71
4/29/2022 8:15:00 AM 9.14 48.452 0.404 7.94 10.56 10.76
4/29/2022 8:30:00 AM 9.19 48.542 0.41 7.95 11.48 10.81
4/29/2022 8:45:00 AM 9.26 48.668 0.416 7.97 10.6 10.9
4/29/2022 9:00:00 AM 9.28 48.704 0.422 7.97 10.71 10.94
4/29/2022 9:15:00 AM 9.38 48.884 0.426 7.99 10.87 10.98
4/29/2022 9:30:00 AM 9.44 48.992 0.431 8 10.79 11.07
4/29/2022 9:45:00 AM 9.53 49.154 0.435 8.01 10.51 11.12
4/29/2022 10:00:00 AM 9.64 49.352 0.438 8.03 10.98 11.18
4/29/2022 10:15:00 AM 9.75 49.55 0.442 8.05 10.61 11.24
4/29/2022 10:30:00 AM 9.89 49.802 0.444 8.06 10.68 11.34
4/29/2022 10:45:00 AM 10 50 0.447 8.14 9.72 11.4
4/29/2022 11:00:00 AM 10.13 50.234 0.449 8.11 10.57 11.44
4/29/2022 11:15:00 AM 10.24 50.432 0.451 8.23 11 11.5
4/29/2022 11:30:00 AM 10.36 50.648 0.452 8.22 9.94 11.55
4/29/2022 11:45:00 AM 10.48 50.864 0.454 8.31 10.02 11.61
4/29/2022 12:00:00 PM 10.58 51.044 0.455 8.35 10.25 11.66
4/29/2022 12:15:00 PM 10.66 51.188 0.456 8.38 10.48 11.73
4/29/2022 12:30:00 PM 10.89 51.602 0.457 8.25 7.19 11.75
4/29/2022 12:45:00 PM 10.99 51.782 0.457 8.23 10.77 11.78
4/29/2022 1:00:00 PM 11.1 51.98 0.458 8.27 13.05 11.81
4/29/2022 1:15:00 PM 11.23 52.214 0.458 8.25 14.62 11.84
4/29/2022 1:30:00 PM 11.36 52.448 0.458 8.28 6.27 11.93
4/29/2022 1:45:00 PM 11.46 52.628 0.458 8.29 12.58 12
4/29/2022 2:00:00 PM 11.56 52.808 0.458 8.31 5.41 12.05
4/29/2022 2:15:00 PM 11.68 53.024 0.459 8.33 5.98 12.04
4/29/2022 2:30:00 PM 11.78 53.204 0.459 8.35 12.66 12.05
4/29/2022 2:45:00 PM 11.87 53.366 0.459 8.37 11.7 12.16
4/29/2022 3:00:00 PM 11.92 53.456 0.459 8.39 5.65 12.17
4/29/2022 3:15:00 PM 11.98 53.564 0.465 8.41 5.15 12.21
4/29/2022 3:30:00 PM 12.05 53.69 0.465 8.42 11.73 12.17
4/29/2022 3:45:00 PM 12.07 53.726 0.464 8.44 12.27 12.27
4/29/2022 4:00:00 PM 12.12 53.816 0.463 8.47 10.17 12.29
4/29/2022 4:15:00 PM 12.11 53.798 0.463 8.48 10.52 12.32
4/29/2022 4:30:00 PM 12.13 53.834 0.463 8.54 10.34 12.32
4/29/2022 4:45:00 PM 12.09 53.762 0.464 8.59 9.72 12.34
4/29/2022 5:00:00 PM 12.07 53.726 0.464 8.56 9.71 12.38
4/29/2022 5:15:00 PM 12.1 53.78 0.464 8.66 9.61 12.38
4/29/2022 5:30:00 PM 12.08 53.744 0.464 8.72 10.04 12.37
4/29/2022 5:45:00 PM 12.04 53.672 0.464 8.66 9.89 12.38
4/29/2022 6:00:00 PM 12 53.6 0.476 8.69 10.32 12.37
4/29/2022 6:15:00 PM 11.97 53.546 0.469 8.72 9.72 12.37
4/29/2022 6:30:00 PM 11.85 53.33 0.46 8.69 10.09 12.37
4/29/2022 6:45:00 PM 11.8 53.24 0.46 8.52 10.13 12.37
4/29/2022 7:00:00 PM 11.66 52.988 0.461 8.46 14.18 12.36
4/29/2022 7:15:00 PM 11.6 52.88 0.46 8.49 16.42 12.35
4/29/2022 7:30:00 PM 11.46 52.628 0.46 8.39 44.71 12.37
4/29/2022 7:45:00 PM 11.32 52.376 0.457 8.44 18.48 12.36
4/29/2022 8:00:00 PM 11.34 52.412 0.431 8.44 11.94 12.32
4/29/2022 8:15:00 PM 11.19 52.142 0.368 8.42 5.04 12.3
4/29/2022 8:30:00 PM 11.01 51.818 0.215 8.28 12.42 12.26
4/29/2022 8:45:00 PM 10.77 51.386 0.137 8.28 12.12 12.33
4/29/2022 9:00:00 PM 10.37 50.666 0.072 8.25 12.58 12.38
4/29/2022 9:15:00 PM 9.8 49.64 0.019 8.21 13.1 12.37
4/29/2022 9:30:00 PM 9.32 48.776 0.014 8.11 11.83 12.17
4/29/2022 9:45:00 PM 8.88 47.984 0.012 7.99 12.68 12.03
4/29/2022 10:00:00 PM 7.91 46.238 0.009 7.85 13.1 12.23
4/29/2022 10:15:00 PM 7.47 45.446 0.009 7.67 11.16 12.35
4/29/2022 10:30:00 PM 7.13 44.834 0.009 7.62 13.28 12.39
4/29/2022 10:45:00 PM 6.7 44.06 0.008 7.51 12.18 12.35
4/29/2022 11:00:00 PM 6.17 43.106 0.009 7.57 11.37 12.48
4/29/2022 11:15:00 PM 5.71 42.278 0.008 7.45 11.22 12.45
4/29/2022 11:30:00 PM 5.22 41.396 0.008 7.37 11.99 12.68
4/29/2022 11:45:00 PM 4.91 40.838 0.008 7.19 11.85 12.68
4/30/2022 12:00:00 AM 4.68 40.424 0.007 7.16 7.55 12.73
4/30/2022 12:15:00 AM 4.44 39.992 0.007 7.19 6.66 12.83
4/30/2022 12:30:00 AM 4.19 39.542 0.007 7.13 7.93 12.89
4/30/2022 12:45:00 AM 4.12 39.416 0.007 7.01 7.24 12.92
4/30/2022 1:00:00 AM 4.04 39.272 0.007 6.89 7.41 12.97
4/30/2022 1:15:00 AM 3.83 38.894 0.007 6.88 7.71 13.06
4/30/2022 1:30:00 AM 3.76 38.768 0.007 6.98 8.26 13.07
4/30/2022 1:45:00 AM 3.57 38.426 0.007 6.8 7.93 13.12
4/30/2022 2:00:00 AM 3.31 37.958 0.007 6.85 8.32 13.21
4/30/2022 2:15:00 AM 3.33 37.994 0.007 6.78 8.27 13.2
4/30/2022 2:30:00 AM 2.91 37.238 0.008 6.77 7.88 13.37
4/30/2022 2:45:00 AM 2.89 37.202 0.007 6.71 8.61 13.37
4/30/2022 3:00:00 AM 2.72 36.896 0.007 6.74 7.52 13.41
4/30/2022 3:15:00 AM 2.6 36.68 0.007 6.72 8.15 13.49
4/30/2022 3:30:00 AM 2.48 36.464 0.007 6.78 8.05 13.52
4/30/2022 3:45:00 AM 2.47 36.446 0.008 6.74 7.73 13.49
4/30/2022 4:00:00 AM 2.24 36.032 0.007 6.89 8.03 13.6
4/30/2022 4:15:00 AM 1.92 35.456 0.008 6.91 8.15 13.73
4/30/2022 4:30:00 AM 1.71 35.078 0.008 6.92 7.5 13.81
4/30/2022 4:45:00 AM 1.91 35.438 0.007 6.82 8.08 13.74
4/30/2022 5:00:00 AM 1.46 34.628 0.008 6.79 8.09 13.91
4/30/2022 5:15:00 AM 1.4 34.52 0.008 6.81 8.11 13.94
4/30/2022 5:30:00 AM 1.38 34.484 0.008 6.93 8.41 13.94
4/30/2022 5:45:00 AM 1.01 33.818 0.008 6.8 8.48 14.11
4/30/2022 6:00:00 AM 1.2 34.16 0.007 6.87 8.28 14.04
4/30/2022 6:15:00 AM 1.16 34.088 0.007 6.88 7.98 14.03
4/30/2022 6:30:00 AM 1.05 33.89 0.007 7 8.09 14.09
4/30/2022 6:45:00 AM 2.44 36.392 0.007 6.84 7.51 13.55
4/30/2022 7:00:00 AM 3.79 38.822 0.007 6.91 7.98 13.03
4/30/2022 7:15:00 AM 4.6 40.28 0.007 7.1 7.34 12.73
4/30/2022 7:30:00 AM 5.56 42.008 0.007 7.24 7.34 12.38
4/30/2022 7:45:00 AM 6.06 42.908 0.008 7.53 7.94 12.23
4/30/2022 8:00:00 AM 6.62 43.916 0.008 7.49 8.15 12.05
4/30/2022 8:15:00 AM 7.41 45.338 0.008 7.63 8.21 11.81
4/30/2022 8:30:00 AM 8.02 46.436 0.008 7.7 9.64 11.61
4/30/2022 8:45:00 AM 8.34 47.012 0.007 7.71 8.28 11.51
4/30/2022 9:00:00 AM 8.71 47.678 0.006 7.71 9.7 11.41
4/30/2022 9:15:00 AM 8.7 47.66 0.006 7.66 9.58 11.42
4/30/2022 9:30:00 AM 8.21 46.778 0.005 7.59 7.88 11.63
4/30/2022 9:45:00 AM 7.54 45.572 0.005 7.57 9.33 11.94
4/30/2022 10:00:00 AM 7.52 45.536 0.004 7.49 8.57 11.92
4/30/2022 10:15:00 AM 7.65 45.77 0.004 7.34 8.64 12.02
4/30/2022 10:30:00 AM 7.96 46.328 0.003 7.4 8.99 11.85
4/30/2022 10:45:00 AM 8.41 47.138 0.002 7.24 9.33 11.92
4/30/2022 11:00:00 AM 8.25 46.85 0.002 6.96 10.02 11.88
4/30/2022 11:15:00 AM 8.49 47.282 0.001 6.84 9.5 11.79
4/30/2022 11:30:00 AM 8.92 48.056 0.001 6.83 9.77 11.66
4/30/2022 11:45:00 AM 9.24 48.632 0 6.61 10.57 11.5
4/30/2022 12:00:00 PM 9.64 49.352 0 6.75 11.39 11.35
4/30/2022 12:15:00 PM 9.77 49.586 0 6.92 10.85 11.3
4/30/2022 12:30:00 PM 10.04 50.072 0 6.5 11.54 11.2
4/30/2022 12:45:00 PM 10.58 51.044 0 6.75 12.61 11.09
4/30/2022 1:00:00 PM 10.87 51.566 0 6.62 12.52 10.99
4/30/2022 1:15:00 PM 11.19 52.142 0 5.76 13.18 10.9
4/30/2022 1:30:00 PM 11.34 52.412 0 7.03 13.27 10.86
4/30/2022 1:45:00 PM 11.71 53.078 0 6.73 7.06 10.77
4/30/2022 2:00:00 PM 12.19 53.942 0 10.2 14.42 10.68
4/30/2022 2:15:00 PM 12.49 54.482 0 8.37 6.89 10.6
4/30/2022 2:30:00 PM 13.04 55.472 0 10.22 7.18 10.49
4/30/2022 2:45:00 PM 13.48 56.264 0 12.08 14.33 10.41
4/30/2022 3:00:00 PM 13.94 57.092 0 17.48 14.13 10.32
4/30/2022 3:15:00 PM 14.14 57.452 0 17.79 6.82 10.26
4/30/2022 3:30:00 PM 14.37 57.866 0 17.78 6.98 10.22
4/30/2022 3:45:00 PM 14.51 58.118 0 17.77 13.74 10.2
4/30/2022 4:00:00 PM 14.44 57.992 0 17.78 14.15 10.22
4/30/2022 4:15:00 PM 14.29 57.722 0 17.78 14.12 10.24
4/30/2022 4:30:00 PM 14.35 57.83 0 17.78 14.42 10.25
4/30/2022 4:45:00 PM 14.13 57.434 0 17.79 14.35 10.28
4/30/2022 5:00:00 PM 14.12 57.416 0 15.31 6.8 10.28
4/30/2022 5:15:00 PM 14.35 57.83 0 17.78 7.14 10.26
4/30/2022 5:30:00 PM 14.53 58.154 0 6.7 13.81 10.2
4/30/2022 5:45:00 PM 14.78 58.604 0 9.6 13.32 10.17
4/30/2022 6:00:00 PM 14.7 58.46 0 4.79 13.93 10.19
4/30/2022 6:15:00 PM 14.25 57.65 0 10.19 13.93 10.22
4/30/2022 6:30:00 PM 13.69 56.642 0 10.37 14.01 10.29
4/30/2022 6:45:00 PM 13.2 55.76 0 7.66 13.59 10.38
4/30/2022 7:00:00 PM 12.95 55.31 0 13.97 13.95 10.42
4/30/2022 7:15:00 PM 12.49 54.482 0 12.43 13.42 10.51
4/30/2022 7:30:00 PM 11.93 53.474 0 15.6 13.09 10.6
4/30/2022 7:45:00 PM 11.47 52.646 0 17.89 13.38 10.69
4/30/2022 8:00:00 PM 10.87 51.566 0 15.06 14.36 10.86
4/30/2022 8:15:00 PM 10.25 50.45 0 12.2 14.2 11.02
4/30/2022 8:30:00 PM 9.49 49.082 0 17.96 13.13 11.21
4/30/2022 8:45:00 PM 8.86 47.948 0 17.99 13.7 11.37
4/30/2022 9:00:00 PM 8.28 46.904 0 18.01 13.74 11.54
4/30/2022 9:15:00 PM 7.85 46.13 0 18.03 13.52 11.64
4/30/2022 9:30:00 PM 7.3 45.14 0 18.05 13.62 11.81
4/30/2022 9:45:00 PM 6.85 44.33 0 10.75 13.79 11.94
4/30/2022 10:00:00 PM 6.47 43.646 0 18.08 13.94 12.05
4/30/2022 10:15:00 PM 6.18 43.124 0 18.09 14.61 12.12
4/30/2022 10:30:00 PM 5.83 42.494 0 18.11 13.68 12.24
4/30/2022 10:45:00 PM 5.63 42.134 0 18.12 14.08 12.29
4/30/2022 11:00:00 PM 5.35 41.63 0 18.13 13.53 12.39
4/30/2022 11:15:00 PM 5.23 41.414 0 15.42 13.5 12.41
4/30/2022 11:30:00 PM 5 41 0 15.17 14.01 12.48
4/30/2022 11:45:00 PM 4.88 40.784 0 12.01 13.91 12.52
5/1/2022 12:00:00 AM 4.77 40.586 0 10.32 13.48 12.55
5/1/2022 12:15:00 AM 4.52 40.136 0 12.39 13.9 12.63
5/1/2022 12:30:00 AM 4.25 39.65 0 11.53 13.77 12.73
5/1/2022 12:45:00 AM 4.13 39.434 0 8.11 14.3 12.79
5/1/2022 1:00:00 AM 3.96 39.128 0 8.05 13.74 12.82
5/1/2022 1:15:00 AM 3.71 38.678 0 8.36 13.57 12.92
5/1/2022 1:30:00 AM 3.58 38.444 0 8.3 13.12 12.96
5/1/2022 1:45:00 AM 3.36 38.048 0 8.56 13.67 13.04
5/1/2022 2:00:00 AM 3.2 37.76 0 8.51 13.4 13.1
5/1/2022 2:15:00 AM 2.97 37.346 0 9.78 13.6 13.19
5/1/2022 2:30:00 AM 2.88 37.184 0 9.23 14.08 13.21
5/1/2022 2:45:00 AM 2.69 36.842 0 9.84 13.5 13.27
5/1/2022 3:00:00 AM 2.53 36.554 0 8.02 13.75 13.35
5/1/2022 3:15:00 AM 2.22 35.996 0 9.74 14.01 13.46
5/1/2022 3:30:00 AM 2.11 35.798 0 8.39 13.78 13.5
5/1/2022 3:45:00 AM 1.97 35.546 0 8.68 13.33 13.56
5/1/2022 4:00:00 AM 2.14 35.852 0 8.18 56.76 13.58
5/1/2022 4:15:00 AM 2.25 36.05 0 8.09 10.28 13.48
5/1/2022 4:30:00 AM 2.21 35.978 0 7.64 12.24 13.43
5/1/2022 4:45:00 AM 2.02 35.636 0 7.88 13.29 13.51
5/1/2022 5:00:00 AM 1.95 35.51 0 7.71 12.41 13.52
5/1/2022 5:15:00 AM 1.64 34.952 0 8.22 13.72 13.68
5/1/2022 5:30:00 AM 1.53 34.754 0 7.66 13.07 13.72
5/1/2022 5:45:00 AM 1.46 34.628 0 7.72 11.94 13.71
5/1/2022 6:00:00 AM 1.31 34.358 0 7.77 13.3 13.79
5/1/2022 6:15:00 AM 1.33 34.394 0 8.01 8.55 13.79
5/1/2022 6:30:00 AM 1.73 35.114 0 8.17 114.61 13.65
5/1/2022 6:45:00 AM 2.77 36.986 0 8.23 68.23 13.2
5/1/2022 7:00:00 AM 3.8 38.84 0 7.37 13.89 12.79
5/1/2022 7:15:00 AM 5.44 41.792 0 7.15 12.96 12.23
5/1/2022 7:30:00 AM 6.36 43.448 0 8.5 13.43 11.93
5/1/2022 7:45:00 AM 7.17 44.906 0 10.84 13 11.69
5/1/2022 8:00:00 AM 7.25 45.05 0 18.05 13.15 11.66
5/1/2022 8:15:00 AM 7.39 45.302 0 18.05 14.02 11.62
5/1/2022 8:30:00 AM 7.71 45.878 0 18.03 12.82 11.49
5/1/2022 8:45:00 AM 9.07 48.326 0 15.52 12.97 11.03
5/1/2022 9:00:00 AM 10.3 50.54 0 17.93 12.95 10.66
5/1/2022 9:15:00 AM 11.36 52.448 0 17.89 12.66 10.51
5/1/2022 9:30:00 AM 11.06 51.908 0 17.9 13.18 10.67
5/1/2022 9:45:00 AM 10.69 51.242 0 17.92 12.64 10.81
5/1/2022 10:00:00 AM 11.32 52.376 0 17.89 13.13 10.58
5/1/2022 10:15:00 AM 11.48 52.664 0 17.89 12.91 10.64
5/1/2022 10:30:00 AM 12.1 53.78 0 17.86 13.53 10.48
5/1/2022 10:45:00 AM 12.98 55.364 0 15.92 13.03 10.27
5/1/2022 11:00:00 AM 13.35 56.03 0 12.82 13.34 10.21
5/1/2022 11:15:00 AM 14 57.2 0 5.3 13.02 10.07
5/1/2022 11:30:00 AM 14.68 58.424 0 0.93 12.52 9.93
5/1/2022 11:45:00 AM 15.3 59.54 0 17.74 13.33 9.81
5/1/2022 12:00:00 PM 15.92 60.656 0 17.72 13.29 9.67
5/1/2022 12:15:00 PM 16.12 61.016 0 17.71 13.62 9.66
5/1/2022 12:30:00 PM 16.64 61.952 0 17.52 13.31 9.55
5/1/2022 12:45:00 PM 17.23 63.014 0 17.67 13.32 9.43
5/1/2022 1:00:00 PM 17.74 63.932 0 17.65 12.6 9.33
5/1/2022 1:15:00 PM 17.87 64.166 0 17.65 12.25 9.32
5/1/2022 1:30:00 PM 18.03 64.454 0 17.64 12.91 9.25
5/1/2022 1:45:00 PM 17.99 64.382 0 17.64 12.91 9.31
5/1/2022 2:00:00 PM 17.84 64.112 0 17.65 13.33 9.32
5/1/2022 2:15:00 PM 17.67 63.806 0 17.66 13.29 9.3
5/1/2022 2:30:00 PM 17.46 63.428 0 17.66 13.55 9.34
5/1/2022 2:45:00 PM 17.29 63.122 0 17.67 13.42 9.37
5/1/2022 3:00:00 PM 17.04 62.672 0 17.68 12.71 9.39
5/1/2022 3:15:00 PM 16.45 61.61 0 17.7 13.53 9.51
5/1/2022 3:30:00 PM 16.06 60.908 0 17.72 12.76 9.57
5/1/2022 3:45:00 PM 15.49 59.882 0 10.76 13.54 9.67
5/1/2022 4:00:00 PM 14.35 57.83 0 17.78 13.46 9.88
5/1/2022 4:15:00 PM 14.47 58.046 0 17.12 13.24 9.82
5/1/2022 4:30:00 PM 13.33 55.994 0 10.26 13.8 10.02
5/1/2022 4:45:00 PM 11.98 53.564 0 11.91 12.6 10.32
5/1/2022 5:00:00 PM 11.71 53.078 0 10.72 12.55 10.38
5/1/2022 5:15:00 PM 11.69 53.042 0 8.75 13.08 10.36
5/1/2022 5:30:00 PM 11.77 53.186 0 7.85 14.08 10.35
5/1/2022 5:45:00 PM 11.86 53.348 0 7.91 14.1 10.33
5/1/2022 6:00:00 PM 11.92 53.456 0 7.68 13.19 10.31
5/1/2022 6:15:00 PM 11.92 53.456 0 7.61 12.79 10.31
5/1/2022 6:30:00 PM 11.91 53.438 0 7.78 12.29 10.33
5/1/2022 6:45:00 PM 11.8 53.24 0 7.51 12.97 10.35
5/1/2022 7:00:00 PM 11.81 53.258 0 7.73 12.1 10.34
5/1/2022 7:15:00 PM 11.8 53.24 0 7.71 12.56 10.35
5/1/2022 7:30:00 PM 11.73 53.114 0 7.71 12.18 10.36
5/1/2022 7:45:00 PM 11.59 52.862 0 7.73 12.3 10.4
5/1/2022 8:00:00 PM 11.43 52.574 0 7.64 12.99 10.45
5/1/2022 8:15:00 PM 11.26 52.268 0 7.82 12.94 10.49
5/1/2022 8:30:00 PM 11.11 51.998 0 7.79 13.21 10.53
5/1/2022 8:45:00 PM 10.99 51.782 0 7.88 12.7 10.56
5/1/2022 9:00:00 PM 10.98 51.764 0 7.85 12.16 10.55
5/1/2022 9:15:00 PM 10.92 51.656 0 7.89 13.7 10.57
5/1/2022 9:30:00 PM 10.97 51.746 0 7.91 13.25 10.56
5/1/2022 9:45:00 PM 10.95 51.71 0 7.92 13.05 10.57
5/1/2022 10:00:00 PM 11 51.8 0 7.89 13.04 10.56
5/1/2022 10:15:00 PM 11 51.8 0 7.94 12.8 10.56
5/1/2022 10:30:00 PM 11.04 51.872 0 7.86 12.67 10.55
5/1/2022 10:45:00 PM 11.37 52.466 0 7.83 12.48 10.48
5/1/2022 11:00:00 PM 11.59 52.862 0 7.77 12.81 10.41
5/1/2022 11:15:00 PM 11.62 52.916 0 7.77 12.41 10.4
5/1/2022 11:30:00 PM 11.56 52.808 0 7.78 12.07 10.43
5/1/2022 11:45:00 PM 11.49 52.682 0 7.85 12.33 10.45
5/2/2022 12:00:00 AM 11.41 52.538 0 7.89 12.48 10.47
5/2/2022 12:15:00 AM 11.36 52.448 0 7.93 12.25 10.49
5/2/2022 12:30:00 AM 11.28 52.304 0 7.92 12.11 10.52
5/2/2022 12:45:00 AM 11.28 52.304 0 7.97 12.02 10.52
5/2/2022 1:00:00 AM 11.29 52.322 0 7.93 12.37 10.52
5/2/2022 1:15:00 AM 11.37 52.466 0 7.93 11.59 10.49
5/2/2022 1:30:00 AM 11.32 52.376 0 7.92 11.26 10.51
5/2/2022 1:45:00 AM 11.28 52.304 0 8.04 11.72 10.52
5/2/2022 2:00:00 AM 11.17 52.106 0 8.06 9.96 10.55
5/2/2022 2:15:00 AM 11.07 51.926 0 7.98 9.01 10.58
5/2/2022 2:30:00 AM 10.96 51.728 0 7.95 8.74 10.61
5/2/2022 2:45:00 AM 10.86 51.548 0 7.95 8.67 10.62
5/2/2022 3:00:00 AM 10.73 51.314 0 7.95 9.46 10.66
5/2/2022 3:15:00 AM 10.6 51.08 0 7.91 9.7 10.69
5/2/2022 3:30:00 AM 10.64 51.152 0 7.93 9.06 10.69
5/2/2022 3:45:00 AM 10.67 51.206 0 7.92 8.94 10.68
5/2/2022 4:00:00 AM 10.77 51.386 0 7.97 9.5 10.65
5/2/2022 4:15:00 AM 10.77 51.386 0 7.92 9.69 10.66
5/2/2022 4:30:00 AM 10.79 51.422 0 7.87 9.67 10.65
5/2/2022 4:45:00 AM 10.78 51.404 0 7.88 8.83 10.65
5/2/2022 5:00:00 AM 10.8 51.44 0 7.89 9.59 10.65
5/2/2022 5:15:00 AM 10.81 51.458 0 7.87 9.35 10.65
5/2/2022 5:30:00 AM 10.82 51.476 0 7.82 9.13 10.65
5/2/2022 5:45:00 AM 10.82 51.476 0 7.86 9.1 10.65
5/2/2022 6:00:00 AM 10.83 51.494 0 7.82 8.95 10.65
5/2/2022 6:15:00 AM 10.82 51.476 0 7.8 9.16 10.66
5/2/2022 6:30:00 AM 10.83 51.494 0 7.78 8.72 10.65
5/2/2022 6:45:00 AM 10.9 51.62 0 7.77 8.81 10.63
5/2/2022 7:00:00 AM 10.94 51.692 0 7.8 8.76 10.63
5/2/2022 7:15:00 AM 11.07 51.926 0 7.78 9.5 10.61
5/2/2022 7:30:00 AM 11.24 52.232 0 7.77 9.46 10.57
5/2/2022 7:45:00 AM 11.39 52.502 0 7.77 9.38 10.54
5/2/2022 8:00:00 AM 11.54 52.772 0 7.54 8.12 10.49
5/2/2022 8:15:00 AM 12.07 53.726 0 7.43 11.46 10.36
5/2/2022 8:30:00 AM 12.29 54.122 0 7.32 12.98 10.3
5/2/2022 8:45:00 AM 12.88 55.184 0 7.35 14.11 10.14
5/2/2022 9:00:00 AM 13.07 55.526 0 7.22 10.1 10.13
5/2/2022 9:15:00 AM 13.12 55.616 0 7.31 12.62 10.14
5/2/2022 9:30:00 AM 13.27 55.886 0 7.28 12.07 10.12
5/2/2022 9:45:00 AM 13.25 55.85 0 7.32 11.26 10.12
5/2/2022 10:00:00 AM 13.22 55.796 0 7.31 11.09 10.14
5/2/2022 10:15:00 AM 13.32 55.976 0 7.32 11.01 10.11
5/2/2022 10:30:00 AM 13.66 56.588 0 7.1 11.38 10.04
5/2/2022 10:45:00 AM 13.97 57.146 0 7.35 11.38 9.98
5/2/2022 11:00:00 AM 14.37 57.866 0 7.39 11.53 9.9
5/2/2022 11:15:00 AM 14.71 58.478 0 7.01 11.55 9.83
5/2/2022 11:30:00 AM 15.05 59.09 0 7.1 12.07 9.77
5/2/2022 11:45:00 AM 15.81 60.458 0 7.08 11.79 9.62
5/2/2022 12:00:00 PM 16.09 60.962 0 7.08 12.21 9.57
5/2/2022 12:15:00 PM 15.88 60.584 0 7.2 11.36 9.61
5/2/2022 12:30:00 PM 15.2 59.36 0 7.56 11.06 9.73
5/2/2022 12:45:00 PM 14.47 58.046 0 7.51 10.68 9.87
5/2/2022 1:00:00 PM 13.87 56.966 0 7.47 11.1 10.01
5/2/2022 1:15:00 PM 13.22 55.796 0 7.36 11.01 10.14
5/2/2022 1:30:00 PM 13.09 55.562 0 7.3 11.36 10.17
5/2/2022 1:45:00 PM 12.94 55.292 0 7.2 11.95 10.19
5/2/2022 2:00:00 PM 12.92 55.256 0 7.21 10.62 10.18
5/2/2022 2:15:00 PM 13 55.4 0 7.23 11.44 10.18
5/2/2022 2:30:00 PM 13.23 55.814 0 7.37 10.43 10.13
5/2/2022 2:45:00 PM 13.32 55.976 0 7.23 10.59 10.1
5/2/2022 3:00:00 PM 13.39 56.102 0 7.17 11.62 10.08
5/2/2022 3:15:00 PM 13.76 56.768 0 7.21 12.06 10
5/2/2022 3:30:00 PM 14.24 57.632 0 7.14 11.68 9.89
5/2/2022 3:45:00 PM 14.39 57.902 0 7.28 11.71 9.87
5/2/2022 4:00:00 PM 14.51 58.118 0 7.15 11.74 9.85
5/2/2022 4:15:00 PM 14.55 58.19 0 7.3 11.27 9.85
5/2/2022 4:30:00 PM 14.62 58.316 0 7.21 11 9.84
5/2/2022 4:45:00 PM 14.87 58.766 0 7.54 11.64 9.78
5/2/2022 5:00:00 PM 14.78 58.604 0 7.74 11.63 9.8
5/2/2022 5:15:00 PM 14.74 58.532 0 7.57 11.77 9.83
5/2/2022 5:30:00 PM 14.94 58.892 0 7.35 11.32 9.8
5/2/2022 5:45:00 PM 15.14 59.252 0 8.51 11.97 9.75
5/2/2022 6:00:00 PM 14.97 58.946 0 7.52 11.61 9.81
5/2/2022 6:15:00 PM 14.75 58.55 0 7.2 11.76 9.87
5/2/2022 6:30:00 PM 14.5 58.1 0 7.78 11.48 9.92
5/2/2022 6:45:00 PM 14.27 57.686 0 8.3 11.92 9.96
5/2/2022 7:00:00 PM 14.16 57.488 0 7.25 11.62 9.99
5/2/2022 7:15:00 PM 14.04 57.272 0 8.28 11.79 10.01
5/2/2022 7:30:00 PM 13.87 56.966 0 7.79 11.59 10.04
5/2/2022 7:45:00 PM 13.69 56.642 0 8.36 11.78 10.08
5/2/2022 8:00:00 PM 13.52 56.336 0 8 11.56 10.12
5/2/2022 8:15:00 PM 13.31 55.958 0 6.81 11.27 10.16
5/2/2022 8:30:00 PM 12.99 55.382 0 7.02 11.36 10.24
5/2/2022 8:45:00 PM 12.81 55.058 0 6.93 11.68 10.28
5/2/2022 9:00:00 PM 12.6 54.68 0 7.09 11.43 10.31
5/2/2022 9:15:00 PM 12.34 54.212 0 7.12 12.34 10.38
5/2/2022 9:30:00 PM 12.17 53.906 0 7.13 11.95 10.42
5/2/2022 9:45:00 PM 12.04 53.672 0 7.09 11.36 10.43
5/2/2022 10:00:00 PM 11.87 53.366 0 7.04 11.8 10.49
5/2/2022 10:15:00 PM 11.78 53.204 0 7.22 13.17 10.52
5/2/2022 10:30:00 PM 11.59 52.862 0 7.13 11.45 10.57
5/2/2022 10:45:00 PM 11.54 52.772 0 7.16 12.02 10.56
5/2/2022 11:00:00 PM 11.46 52.628 0 7.19 11.94 10.58
5/2/2022 11:15:00 PM 11.44 52.592 0 7.21 11.18 10.58
5/2/2022 11:30:00 PM 11.4 52.52 0 7.22 11.18 10.6
5/2/2022 11:45:00 PM 11.33 52.394 0 7.19 10.95 10.61
5/3/2022 12:00:00 AM 11.29 52.322 0 7.2 11.07 10.63
5/3/2022 12:15:00 AM 11.2 52.16 0 7.15 10.9 10.65
5/3/2022 12:30:00 AM 11.18 52.124 0 7.2 11.37 10.66
5/3/2022 12:45:00 AM 11.15 52.07 0 7.19 11.21 10.67
5/3/2022 1:00:00 AM 11.14 52.052 0 7.18 10.72 10.67
5/3/2022 1:15:00 AM 11.14 52.052 0 7.18 11.1 10.67
5/3/2022 1:30:00 AM 11.09 51.962 0 7.18 11.42 10.67
5/3/2022 1:45:00 AM 11.05 51.89 0 7.16 11.35 10.69
5/3/2022 2:00:00 AM 10.99 51.782 0 7.16 11.37 10.69
5/3/2022 2:15:00 AM 10.88 51.584 0 7.17 11.37 10.72
5/3/2022 2:30:00 AM 10.61 51.098 0 7.18 10.9 10.81
5/3/2022 2:45:00 AM 10.28 50.504 0 7.18 10.9 10.89
5/3/2022 3:00:00 AM 9.97 49.946 0 7.19 11.42 10.98
5/3/2022 3:15:00 AM 9.66 49.388 0 7.19 11.28 11.06
5/3/2022 3:30:00 AM 9.47 49.046 0 7.17 11.15 11.09
5/3/2022 3:45:00 AM 9.18 48.524 0 7.18 11.01 11.18
5/3/2022 4:00:00 AM 8.9 48.02 0 7.21 11.37 11.26
5/3/2022 4:15:00 AM 8.65 47.57 0 7.25 11 11.33
5/3/2022 4:30:00 AM 8.4 47.12 0 7.23 11.02 11.4
5/3/2022 4:45:00 AM 8.14 46.652 0 7.22 10.55 11.46
5/3/2022 5:00:00 AM 7.92 46.256 0 7.26 10.87 11.53
5/3/2022 5:15:00 AM 7.72 45.896 0 7.27 10.63 11.58
5/3/2022 5:30:00 AM 7.52 45.536 0 7.24 10.52 11.64
5/3/2022 5:45:00 AM 7.42 45.356 0 7.41 10.49 11.68
5/3/2022 6:00:00 AM 7.31 45.158 0 7.32 10.24 11.72
5/3/2022 6:15:00 AM 7.39 45.302 0 7.32 8.11 11.68
5/3/2022 6:30:00 AM 7.4 45.32 0 7.43 7.58 11.69
5/3/2022 6:45:00 AM 7.64 45.752 0 7.57 8.13 11.62
5/3/2022 7:00:00 AM 8.54 47.372 0 7.6 8.76 11.31
5/3/2022 7:15:00 AM 9.71 49.478 0 7.45 9.12 10.95
5/3/2022 7:30:00 AM 10.6 51.08 0 7.09 13.69 10.69
5/3/2022 7:45:00 AM 12.06 53.708 0 6.73 10.35 10.31
5/3/2022 8:00:00 AM 13.34 56.012 0 6.83 13.48 10.01
5/3/2022 8:15:00 AM 13.76 56.768 0 6.97 12.14 9.95
5/3/2022 8:30:00 AM 13.51 56.318 0 6.99 12.01 10.09
5/3/2022 8:45:00 AM 13.78 56.804 0 7.22 12.33 10.01
5/3/2022 9:00:00 AM 13.93 57.074 0 7.22 12.13 9.97
5/3/2022 9:15:00 AM 15.09 59.162 0 7.74 12.36 9.67
5/3/2022 9:30:00 AM 15.6 60.08 0 6.84 11.86 9.6
5/3/2022 9:45:00 AM 15.43 59.774 0 7.35 12.19 9.68
5/3/2022 10:00:00 AM 15.58 60.044 0 6.94 11.9 9.67
5/3/2022 10:15:00 AM 15.42 59.756 0 7.98 12.27 9.74
5/3/2022 10:30:00 AM 15.68 60.224 0 7.15 12.26 9.69
5/3/2022 10:45:00 AM 15.85 60.53 0 8.4 12.56 9.65
5/3/2022 11:00:00 AM 16.02 60.836 0 8.27 12.08 9.6
5/3/2022 11:15:00 AM 16.15 61.07 0 9.21 12.78 9.6
5/3/2022 11:30:00 AM 16.46 61.628 0 10.66 12 9.52
5/3/2022 11:45:00 AM 16.6 61.88 0 7.94 11.95 9.5
5/3/2022 12:00:00 PM 16.99 62.582 0 10.43 12.95 9.43
5/3/2022 12:15:00 PM 17.2 62.96 0 9.73 12.33 9.39
5/3/2022 12:30:00 PM 17.52 63.536 0 10.09 12.38 9.35
5/3/2022 12:45:00 PM 17.57 63.626 0 11.94 12.58 9.33
5/3/2022 1:00:00 PM 17.8 64.04 0 13.44 12.49 9.26
5/3/2022 1:15:00 PM 17.85 64.13 0 9.6 12.72 9.26
5/3/2022 1:30:00 PM 17.93 64.274 0 11.16 12.5 9.24
5/3/2022 1:45:00 PM 18.22 64.796 0 9.65 12.58 9.19
5/3/2022 2:00:00 PM 18.58 65.444 0 11.12 11.97 9.13
5/3/2022 2:15:00 PM 18.69 65.642 0 14.04 11.46 9.12
5/3/2022 2:30:00 PM 18.66 65.588 0 17.62 12.07 9.13
5/3/2022 2:45:00 PM 19.27 66.686 0 13.54 11.94 8.99
5/3/2022 3:00:00 PM 18.98 66.164 0 17.31 12.01 9.07
5/3/2022 3:15:00 PM 18.97 66.146 0 17.31 12.07 9.04
5/3/2022 3:30:00 PM 18.8 65.84 0 17.62 12.12 9.09
5/3/2022 3:45:00 PM 18.93 66.074 0 17.54 12.41 9.03
5/3/2022 4:00:00 PM 18.86 65.948 0 17.61 12.81 9.04
5/3/2022 4:15:00 PM 18.87 65.966 0 17.61 12.29 9.01
5/3/2022 4:30:00 PM 18.61 65.498 0 17.62 11.94 9.08
5/3/2022 4:45:00 PM 18.61 65.498 0 17.01 12.19 9.06
5/3/2022 5:00:00 PM 18.31 64.958 0 16.51 11.83 9.09
5/3/2022 5:15:00 PM 18.16 64.688 0 17.64 12.02 9.11
5/3/2022 5:30:00 PM 17.97 64.346 0 17.65 12.31 9.15
5/3/2022 5:45:00 PM 18.03 64.454 0 17.52 12.41 9.13
5/3/2022 6:00:00 PM 18.14 64.652 0 17.62 12.2 9.11
5/3/2022 6:15:00 PM 18.12 64.616 0 17.63 11.96 9.1
5/3/2022 6:30:00 PM 18.02 64.436 0 16.76 11.87 9.11
5/3/2022 6:45:00 PM 17.78 64.004 0 13.94 12.79 9.13
5/3/2022 7:00:00 PM 17.61 63.698 0 17.09 12.79 9.16
5/3/2022 7:15:00 PM 17.54 63.572 0 17.66 11.98 9.18
5/3/2022 7:30:00 PM 17.5 63.5 0 14.1 12.19 9.17
5/3/2022 7:45:00 PM 17.15 62.87 0 12 12.32 9.23
5/3/2022 8:00:00 PM 16.83 62.294 0 17.47 12.22 9.3
5/3/2022 8:15:00 PM 16.53 61.754 0 9.86 12.85 9.35
5/3/2022 8:30:00 PM 16.33 61.394 0 12.47 12.86 9.39
5/3/2022 8:45:00 PM 16.29 61.322 0 7.13 11.71 9.42
5/3/2022 9:00:00 PM 15.83 60.494 0 6.64 11.94 9.49
5/3/2022 9:15:00 PM 15.41 59.738 0 6.78 12.47 9.56
5/3/2022 9:30:00 PM 15.03 59.054 0 6.86 12.36 9.63
5/3/2022 9:45:00 PM 14.78 58.604 0 6.88 12.34 9.68
5/3/2022 10:00:00 PM 14.58 58.244 0 6.95 11.68 9.71
5/3/2022 10:15:00 PM 14.42 57.956 0 6.95 11.82 9.75
5/3/2022 10:30:00 PM 14.28 57.704 0 7.03 11.62 9.78
5/3/2022 10:45:00 PM 14.22 57.596 0 6.99 11.26 9.78
5/3/2022 11:00:00 PM 14.24 57.632 0 7.05 11.02 9.78
5/3/2022 11:15:00 PM 14.13 57.434 0 7.09 10.82 9.8
5/3/2022 11:30:00 PM 14.02 57.236 0 7.09 10.63 9.83
5/3/2022 11:45:00 PM 13.93 57.074 0 7.08 9.48 9.86
5/4/2022 12:00:00 AM 13.86 56.948 0 7.08 8.61 9.88
5/4/2022 12:15:00 AM 13.79 56.822 0 7.06 8.35 9.9
5/4/2022 12:30:00 AM 13.71 56.678 0 7.06 8.8 9.91
5/4/2022 12:45:00 AM 13.71 56.678 0 7.16 8.63 9.91
5/4/2022 1:00:00 AM 13.75 56.75 0 7.1 8.51 9.9
5/4/2022 1:15:00 AM 13.87 56.966 0 7.08 8.4 9.88
5/4/2022 1:30:00 AM 13.81 56.858 0 7.04 8.56 9.89
5/4/2022 1:45:00 AM 13.61 56.498 0 7.04 8.12 9.94
5/4/2022 2:00:00 AM 13.47 56.246 0 7.06 8.94 9.96
5/4/2022 2:15:00 AM 13.46 56.228 0 7.05 8.19 9.96
5/4/2022 2:30:00 AM 13.41 56.138 0 7.1 8.04 9.98
5/4/2022 2:45:00 AM 13.37 56.066 0 7.06 8.84 9.98
5/4/2022 3:00:00 AM 13.32 55.976 0 7.07 8.47 9.99
5/4/2022 3:15:00 AM 13.23 55.814 0 7.06 8.24 10.02
5/4/2022 3:30:00 AM 13.16 55.688 0 7.01 9.12 10.03
5/4/2022 3:45:00 AM 13.09 55.562 0 7.03 7.94 10.06
5/4/2022 4:00:00 AM 13.05 55.49 0 6.98 8.81 10.07
5/4/2022 4:15:00 AM 12.98 55.364 0 6.97 8.9 10.09
5/4/2022 4:30:00 AM 12.96 55.328 0 7 8.57 10.09
5/4/2022 4:45:00 AM 12.92 55.256 0 7 9.46 10.09
5/4/2022 5:00:00 AM 12.88 55.184 0 7.05 8.92 10.11
5/4/2022 5:15:00 AM 12.84 55.112 0 6.89 12.55 10.12
5/4/2022 5:30:00 AM 12.83 55.094 0 6.83 12.17 10.12
5/4/2022 5:45:00 AM 12.74 54.932 0 6.83 11.94 10.15
5/4/2022 6:00:00 AM 12.68 54.824 0 6.86 11.35 10.17
5/4/2022 6:15:00 AM 12.62 54.716 0 6.77 12.62 10.18
5/4/2022 6:30:00 AM 12.58 54.644 0 6.95 10.19 10.2
5/4/2022 6:45:00 AM 12.5 54.5 0 6.91 9.43 10.22
5/4/2022 7:00:00 AM 12.51 54.518 0 6.94 9.79 10.22
5/4/2022 7:15:00 AM 12.54 54.572 0 6.97 8.72 10.21
5/4/2022 7:30:00 AM 12.56 54.608 0 7.01 8.86 10.2
5/4/2022 7:45:00 AM 12.59 54.662 0 6.94 10.34 10.19
5/4/2022 8:00:00 AM 12.56 54.608 0 6.93 10.02 10.21
5/4/2022 8:15:00 AM 12.6 54.68 0 6.94 10.21 10.2
5/4/2022 8:30:00 AM 12.6 54.68 0 6.95 9.44 10.2
5/4/2022 8:45:00 AM 12.58 54.644 0 6.93 9.39 10.21
5/4/2022 9:00:00 AM 12.63 54.734 0 6.96 8.92 10.2
5/4/2022 9:15:00 AM 12.74 54.932 0 6.99 8.67 10.17
5/4/2022 9:30:00 AM 12.78 55.004 0 6.96 9.21 10.16
5/4/2022 9:45:00 AM 12.79 55.022 0 6.95 9.5 10.16
5/4/2022 10:00:00 AM 12.84 55.112 0 6.99 9.56 10.15
5/4/2022 10:15:00 AM 12.96 55.328 0 7 9.38 10.12
5/4/2022 10:30:00 AM 13.18 55.724 0 6.96 9.82 10.09
5/4/2022 10:45:00 AM 13.51 56.318 0 6.92 9.88 10
5/4/2022 11:00:00 AM 13.94 57.092 0 6.91 10.59 9.91
5/4/2022 11:15:00 AM 14.56 58.208 0 6.87 10.9 9.78
5/4/2022 11:30:00 AM 15.12 59.216 0 6.77 12.34 9.68
5/4/2022 11:45:00 AM 15.81 60.458 0 6.72 12.62 9.53
5/4/2022 12:00:00 PM 16.43 61.574 0 6.68 12.39 9.4
5/4/2022 12:15:00 PM 17.01 62.618 0 6.68 12.41 9.32
5/4/2022 12:30:00 PM 17.46 63.428 0 6.6 11.95 9.22
5/4/2022 12:45:00 PM 18 64.4 0 6.57 11.67 9.14
5/4/2022 1:00:00 PM 18.35 65.03 0 6.54 11.44 9.1
5/4/2022 1:15:00 PM 18.45 65.21 0 6.53 11.57 9.08
5/4/2022 1:30:00 PM 17.35 63.23 0 7.49 8.8 9.24
5/4/2022 1:45:00 PM 16.65 61.97 0 7.36 10.48 9.38
5/4/2022 2:00:00 PM 16.4 61.52 0 7.15 11.81 9.42
5/4/2022 2:15:00 PM 15.88 60.584 0 6.98 11.05 9.52
5/4/2022 2:30:00 PM 15.89 60.602 0 7.1 10.7 9.51
5/4/2022 2:45:00 PM 15.42 59.756 0 7.01 10.91 9.61
5/4/2022 3:00:00 PM 15.38 59.684 0 6.99 10.61 9.62
5/4/2022 3:15:00 PM 15.05 59.09 0 6.94 10.81 9.71
5/4/2022 3:30:00 PM 14.92 58.856 0 6.88 11.19 9.74
5/4/2022 3:45:00 PM 14.82 58.676 0 6.88 10.65 9.77
5/4/2022 4:00:00 PM 14.63 58.334 0 6.82 11.29 9.79
5/4/2022 4:15:00 PM 14.5 58.1 0 6.87 11.26 9.83
5/4/2022 4:30:00 PM 14.18 57.524 0 6.87 10.82 9.9
5/4/2022 4:45:00 PM 13.85 56.93 0 6.87 11.09 9.97
5/4/2022 5:00:00 PM 13.52 56.336 0 6.89 11 10.05
5/4/2022 5:15:00 PM 13.36 56.048 0 6.88 10.92 10.08
5/4/2022 5:30:00 PM 13.34 56.012 0 6.89 11.09 10.09
5/4/2022 5:45:00 PM 13.19 55.742 0 6.85 11.13 10.13
5/4/2022 6:00:00 PM 12.93 55.274 0 6.88 11 10.2
5/4/2022 6:15:00 PM 12.73 54.914 0 6.89 10.54 10.23
5/4/2022 6:30:00 PM 12.45 54.41 0 6.91 9.92 10.32
5/4/2022 6:45:00 PM 12.18 53.924 0 6.91 10.03 10.36
5/4/2022 7:00:00 PM 11.99 53.582 0 6.9 10.45 10.41
5/4/2022 7:15:00 PM 11.9 53.42 0 6.88 9.43 10.44
5/4/2022 7:30:00 PM 11.73 53.114 0 6.9 9.87 10.49
5/4/2022 7:45:00 PM 11.66 52.988 0 6.9 8.98 10.49
5/4/2022 8:00:00 PM 11.59 52.862 0 6.85 10.39 10.51
5/4/2022 8:15:00 PM 11.59 52.862 0 6.84 9.63 10.52
5/4/2022 8:30:00 PM 11.58 52.844 0 6.79 10.1 10.52
5/4/2022 8:45:00 PM 11.59 52.862 0 6.83 9.39 10.52
5/4/2022 9:00:00 PM 11.66 52.988 0 6.86 9.42 10.5
5/4/2022 9:15:00 PM 11.64 52.952 0 6.81 10.2 10.51
5/4/2022 9:30:00 PM 11.66 52.988 0 6.78 10.14 10.51
5/4/2022 9:45:00 PM 11.7 53.06 0 6.82 9.88 10.51
5/4/2022 10:00:00 PM 11.71 53.078 0 6.79 10.68 10.5
5/4/2022 10:15:00 PM 11.69 53.042 0 6.72 10.81 10.51
5/4/2022 10:30:00 PM 11.77 53.186 0 6.79 10.89 10.5
5/4/2022 10:45:00 PM 11.79 53.222 0 6.84 9.76 10.49
5/4/2022 11:00:00 PM 11.79 53.222 0 6.84 10.42 10.49
5/4/2022 11:15:00 PM 11.82 53.276 0 6.84 9.47 10.49
5/4/2022 11:30:00 PM 11.8 53.24 0 6.78 10.39 10.48
5/4/2022 11:45:00 PM 11.82 53.276 0 6.83 10.37 10.48
5/5/2022 12:00:00 AM 11.81 53.258 0 6.86 9.46 10.49
5/5/2022 12:15:00 AM 11.86 53.348 0 6.93 8.3 10.48
5/5/2022 12:30:00 AM 11.85 53.33 0 6.86 7.69 10.46
5/5/2022 12:45:00 AM 11.86 53.348 0 6.95 7.89 10.47
5/5/2022 1:00:00 AM 11.82 53.276 0 6.91 8.26 10.49
5/5/2022 1:15:00 AM 11.81 53.258 0 6.95 8.09 10.48
5/5/2022 1:30:00 AM 11.43 52.574 0 6.85 8.86 10.58
5/5/2022 1:45:00 AM 11.01 51.818 0 6.89 8.85 10.67
5/5/2022 2:00:00 AM 11.02 51.836 0 6.99 8.67 10.68
5/5/2022 2:15:00 AM 10.84 51.512 0 7.03 8.5 10.73
5/5/2022 2:30:00 AM 10.56 51.008 0 7.01 8.26 10.77
5/5/2022 2:45:00 AM 10.48 50.864 0 7.09 8.5 10.8
5/5/2022 3:00:00 AM 10.35 50.63 0 7.11 8.35 10.84
5/5/2022 3:15:00 AM 9.98 49.964 0 7.01 8.34 10.91
5/5/2022 3:30:00 AM 9.88 49.784 0 7.15 8.33 10.94
5/5/2022 3:45:00 AM 9.93 49.874 0 7.21 8.75 10.92
5/5/2022 4:00:00 AM 9.7 49.46 0 7.16 8.54 10.98
5/5/2022 4:15:00 AM 9.8 49.64 0 7.19 8.27 10.99
5/5/2022 4:30:00 AM 9.73 49.514 0 7.08 8.3 10.99
5/5/2022 4:45:00 AM 9.59 49.262 0 7.05 8.58 11.02
5/5/2022 5:00:00 AM 9.42 48.956 0 7.08 8.53 11.06
5/5/2022 5:15:00 AM 9.06 48.308 0 7.09 7.91 11.18
5/5/2022 5:30:00 AM 8.85 47.93 0 7.09 8.77 11.23
5/5/2022 5:45:00 AM 8.8 47.84 0 7.15 8 11.24
5/5/2022 6:00:00 AM 8.9 48.02 0 7.12 7.94 11.21
5/5/2022 6:15:00 AM 9.19 48.542 0.001 7.11 8.26 11.14
5/5/2022 6:30:00 AM 9.38 48.884 0.001 7 8.12 11.12
5/5/2022 6:45:00 AM 9.45 49.01 0.001 6.98 7.75 11.08
5/5/2022 7:00:00 AM 9.73 49.514 0.001 7 7.71 10.98
5/5/2022 7:15:00 AM 9.81 49.658 0.001 7.02 7.8 10.96
5/5/2022 7:30:00 AM 9.76 49.568 0.001 7.1 8.25 10.97
5/5/2022 7:45:00 AM 9.98 49.964 0.001 7.09 7.83 10.91
5/5/2022 8:00:00 AM 9.9 49.82 0.001 7.13 8.19 11
5/5/2022 8:15:00 AM 11.64 52.952 0.005 7.79 61.55 10.54
5/5/2022 8:30:00 AM 12.5 54.5 0.008 7.79 45.54 10.32
5/5/2022 8:45:00 AM 12.97 55.346 0.008 7.79 10.88 10.2
5/5/2022 9:00:00 AM 13.48 56.264 0.007 7.85 7.87 10.06
5/5/2022 9:15:00 AM 13.2 55.76 0.007 7.76 7.37 10.2
5/5/2022 9:30:00 AM 13.03 55.454 0.007 7.57 7.72 10.27
5/5/2022 9:45:00 AM 12.42 54.356 0.008 7.81 12.17 10.43
5/5/2022 10:00:00 AM 12.35 54.23 0.008 7.98 13.29 10.47
5/5/2022 10:15:00 AM 11.88 53.384 0.007 8.05 11.93 10.58
5/5/2022 10:30:00 AM 11.87 53.366 0.007 8.12 10.16 10.56
5/5/2022 10:45:00 AM 12.09 53.762 0.007 8.01 8.75 10.52
5/5/2022 11:00:00 AM 11.94 53.492 0.007 8.06 8.29 10.56
5/5/2022 11:15:00 AM 12.16 53.888 0.008 8.03 8.06 10.53
5/5/2022 11:30:00 AM 12.29 54.122 0.007 7.99 8.35 10.53
5/5/2022 11:45:00 AM 12.6 54.68 0.008 7.86 7.77 10.45
5/5/2022 12:00:00 PM 12.34 54.212 0.007 7.75 7.57 10.59
5/5/2022 12:15:00 PM 12.64 54.752 0.007 7.97 8.08 10.51
5/5/2022 12:30:00 PM 12.78 55.004 0.008 7.77 11.41 10.5
5/5/2022 12:45:00 PM 13.05 55.49 0.009 7.98 9.32 10.43
5/5/2022 1:00:00 PM 13.1 55.58 0.008 7.77 8.89 10.45
5/5/2022 1:15:00 PM 13.39 56.102 0.009 7.93 10.06 10.39
5/5/2022 1:30:00 PM 13.65 56.57 0.009 7.88 10.69 10.31
5/5/2022 1:45:00 PM 14.01 57.218 0.009 8 10.76 10.24
5/5/2022 2:00:00 PM 14.16 57.488 0.009 7.55 11.47 10.21
5/5/2022 2:15:00 PM 14.37 57.866 0.009 7.55 11.38 10.13
5/5/2022 2:30:00 PM 14.45 58.01 0.009 7.73 10.3 10.14
5/5/2022 2:45:00 PM 14.53 58.154 0.01 7.41 11.99 10.09
5/5/2022 3:00:00 PM 15.06 59.108 0.009 7.47 10.97 9.92
5/5/2022 3:15:00 PM 14.84 58.712 0.008 7.5 10.08 10.04
5/5/2022 3:30:00 PM 14.56 58.208 0.008 7.77 10.29 10.15
5/5/2022 3:45:00 PM 14.97 58.946 0.009 7.52 11.53 10.02
5/5/2022 4:00:00 PM 15.27 59.486 0.009 7.55 10.06 9.9
5/5/2022 4:15:00 PM 15.11 59.198 0.008 7.7 8.39 9.97
5/5/2022 4:30:00 PM 15.24 59.432 0.007 7.74 7.7 9.93
5/5/2022 4:45:00 PM 14.75 58.55 0.007 7.59 7.92 10.09
5/5/2022 5:00:00 PM 14.97 58.946 0.006 7.55 8.12 10.02
5/5/2022 5:15:00 PM 14.8 58.64 0.005 7.52 8.11 10.06
5/5/2022 5:30:00 PM 14.98 58.964 0.004 7.64 8 10.06
5/5/2022 5:45:00 PM 15.07 59.126 0.003 7.65 7.94 9.96
5/5/2022 6:00:00 PM 15.07 59.126 0.003 7.73 7.39 10
5/5/2022 6:15:00 PM 14.68 58.424 0.002 7.91 7.61 10.06
5/5/2022 6:30:00 PM 14.53 58.154 0.001 7.93 8.3 10.06
5/5/2022 6:45:00 PM 14.37 57.866 0.001 7.92 7.82 10.07
5/5/2022 7:00:00 PM 14.13 57.434 0 7.82 8.18 10.08
5/5/2022 7:15:00 PM 13.78 56.804 0.001 7.95 8.13 10.17
5/5/2022 7:30:00 PM 13.61 56.498 0 7.92 8.29 10.23
5/5/2022 7:45:00 PM 13.58 56.444 0 7.68 8.91 10.18
5/5/2022 8:00:00 PM 13.26 55.868 0 7.7 8.25 10.25
5/5/2022 8:15:00 PM 13 55.4 0 7.68 7.81 10.32
5/5/2022 8:30:00 PM 12.66 54.788 0 7.86 8.48 10.39
5/5/2022 8:45:00 PM 12.32 54.176 0 7.81 9.23 10.45
5/5/2022 9:00:00 PM 12.09 53.762 0 7.77 9.43 10.51
5/5/2022 9:15:00 PM 11.85 53.33 0 7.84 10.81 10.56
5/5/2022 9:30:00 PM 11.72 53.096 0 7.68 11.65 10.59
5/5/2022 9:45:00 PM 11.5 52.7 0 7.66 10.26 10.64
5/5/2022 10:00:00 PM 11.44 52.592 0 7.82 10.16 10.64
5/5/2022 10:15:00 PM 11.28 52.304 0 7.75 11.06 10.68
5/5/2022 10:30:00 PM 11.1 51.98 0 7.84 10.24 10.74
5/5/2022 10:45:00 PM 11.1 51.98 0 7.69 10.24 10.71
5/5/2022 11:00:00 PM 10.98 51.764 0 7.75 10.11 10.75
5/5/2022 11:15:00 PM 10.93 51.674 0 7.79 9.9 10.75
5/5/2022 11:30:00 PM 10.73 51.314 0 7.43 9.77 10.8
5/5/2022 11:45:00 PM 10.76 51.368 0 7.61 9.99 10.77
5/6/2022 12:00:00 AM 10.62 51.116 0 7.44 10.76 10.8
5/6/2022 12:15:00 AM 10.46 50.828 0 7.36 10.41 10.85
5/6/2022 12:30:00 AM 10.33 50.594 0 7.24 10.19 10.91
5/6/2022 12:45:00 AM 10.24 50.432 0 7.01 10.22 10.91
5/6/2022 1:00:00 AM 10.32 50.576 0 7.06 10.55 10.88
5/6/2022 1:15:00 AM 10.3 50.54 0 7.32 10.46 10.89
5/6/2022 1:30:00 AM 10.21 50.378 0 6.95 10.8 10.9
5/6/2022 1:45:00 AM 10.07 50.126 0 7.13 10.22 10.95
5/6/2022 2:00:00 AM 10.05 50.09 0 7.06 10.29 10.94
5/6/2022 2:15:00 AM 10.11 50.198 0 7.42 10.79 10.93
5/6/2022 2:30:00 AM 10.08 50.144 0 7.24 10.59 10.93
5/6/2022 2:45:00 AM 10.03 50.054 0 6.95 10.39 10.94
5/6/2022 3:00:00 AM 10.12 50.216 0 6.98 10.67 10.92
5/6/2022 3:15:00 AM 10.08 50.144 0 7.2 10.57 10.92
5/6/2022 3:30:00 AM 9.9 49.82 0 6.81 10.78 11
5/6/2022 3:45:00 AM 9.94 49.892 0 6.98 10.85 10.98
5/6/2022 4:00:00 AM 9.97 49.946 0 7.23 10.84 10.95
5/6/2022 4:15:00 AM 10.01 50.018 0 7.53 10.96 10.96
5/6/2022 4:30:00 AM 10.01 50.018 0 7.25 10.88 10.94
5/6/2022 4:45:00 AM 10.18 50.324 0 7.42 10.91 10.86
5/6/2022 5:00:00 AM 10.03 50.054 0 7.21 11.06 10.91
5/6/2022 5:15:00 AM 10 50 0 7.15 11.86 10.91
5/6/2022 5:30:00 AM 10.03 50.054 0 7.21 11.11 10.9
5/6/2022 5:45:00 AM 10.03 50.054 0 7.43 12.36 10.9
5/6/2022 6:00:00 AM 10.04 50.072 0 7.4 11.68 10.89
5/6/2022 6:15:00 AM 9.69 49.442 0 7.24 11.01 10.99
5/6/2022 6:30:00 AM 9.81 49.658 0 7.62 13.38 10.97
5/6/2022 6:45:00 AM 9.86 49.748 0 7.65 11.31 10.96
5/6/2022 7:00:00 AM 9.86 49.748 0 7.75 11.74 10.96
5/6/2022 7:15:00 AM 9.79 49.622 0 7.56 13.1 10.98
5/6/2022 7:30:00 AM 9.85 49.73 0 7.7 13.29 10.99
5/6/2022 7:45:00 AM 10.1 50.18 0 7.9 13.14 10.91
5/6/2022 8:00:00 AM 10.31 50.558 0 7.88 9.89 10.83
5/6/2022 8:15:00 AM 10.17 50.306 0 7.72 11.65 10.88
5/6/2022 8:30:00 AM 10.5 50.9 0 7.89 13.63 10.8
5/6/2022 8:45:00 AM 10.75 51.35 0 7.9 10.42 10.74
5/6/2022 9:00:00 AM 10.76 51.368 0 7.87 12.04 10.74
5/6/2022 9:15:00 AM 11.13 52.034 0 7.73 14.32 10.63
5/6/2022 9:30:00 AM 11.31 52.358 0 7.67 13.09 10.59
5/6/2022 9:45:00 AM 11.41 52.538 0 7.58 13.29 10.57
5/6/2022 10:00:00 AM 11.57 52.826 0 7.53 11.97 10.53
5/6/2022 10:15:00 AM 11.75 53.15 0 7.64 11.35 10.48
5/6/2022 10:30:00 AM 11.97 53.546 0 7.48 11.13 10.42
5/6/2022 10:45:00 AM 12.22 53.996 0 7.67 11.39 10.37
5/6/2022 11:00:00 AM 12.2 53.96 0 7.36 11.04 10.38
5/6/2022 11:15:00 AM 12.32 54.176 0 7.32 11.27 10.36
5/6/2022 11:30:00 AM 12.35 54.23 0 7.39 11.36 10.36
5/6/2022 11:45:00 AM 12.28 54.104 0 7.34 11.23 10.37
5/6/2022 12:00:00 PM 12.31 54.158 0 7.45 11.55 10.37
5/6/2022 12:15:00 PM 12.33 54.194 0 7.55 11.29 10.37
5/6/2022 12:30:00 PM 12.26 54.068 0 7.51 11.88 10.38
5/6/2022 12:45:00 PM 12.2 53.96 0 7.67 10.6 10.39
5/6/2022 1:00:00 PM 12.29 54.122 0 7.52 11.63 10.37
5/6/2022 1:15:00 PM 12.28 54.104 0 7.49 11.79 10.38
5/6/2022 1:30:00 PM 12.32 54.176 0 7.5 11.31 10.36
5/6/2022 1:45:00 PM 12.47 54.446 0 7.57 11.46 10.33
5/6/2022 2:00:00 PM 12.49 54.482 0 7.45 11.49 10.32
5/6/2022 2:15:00 PM 12.41 54.338 0 7.31 10.84 10.34
5/6/2022 2:30:00 PM 12.55 54.59 0 7.29 11.68 10.31
5/6/2022 2:45:00 PM 12.53 54.554 0 7.41 11.12 10.31
5/6/2022 3:00:00 PM 12.42 54.356 0 7.39 11.05 10.34
5/6/2022 3:15:00 PM 12.53 54.554 0 7.37 10.34 10.32
5/6/2022 3:30:00 PM 12.51 54.518 0 7.38 12.5 10.32
5/6/2022 3:45:00 PM 12.57 54.626 0 7.22 10.37 10.3
5/6/2022 4:00:00 PM 12.6 54.68 0 7.55 11.9 10.29
5/6/2022 4:15:00 PM 12.64 54.752 0 7.35 10.82 10.28
5/6/2022 4:30:00 PM 12.54 54.572 0 7.43 11.06 10.3
5/6/2022 4:45:00 PM 12.55 54.59 0 7.36 12.11 10.3
5/6/2022 5:00:00 PM 12.4 54.32 0 7.35 11 10.33
5/6/2022 5:15:00 PM 12.39 54.302 0 7.36 11.54 10.33
5/6/2022 5:30:00 PM 12.4 54.32 0 7.26 11.84 10.33
5/6/2022 5:45:00 PM 12.39 54.302 0 7.49 11.59 10.33
5/6/2022 6:00:00 PM 12.31 54.158 0 7.37 11.45 10.35
5/6/2022 6:15:00 PM 12.19 53.942 0 7.44 11.59 10.37
5/6/2022 6:30:00 PM 12.16 53.888 0 7.35 11.47 10.38
5/6/2022 6:45:00 PM 12.12 53.816 0 7.34 12.25 10.39
5/6/2022 7:00:00 PM 12.21 53.978 0 7.4 11.94 10.36
5/6/2022 7:15:00 PM 12.17 53.906 0 7.44 11.57 10.37
5/6/2022 7:30:00 PM 12.09 53.762 0 7.42 11.66 10.39
5/6/2022 7:45:00 PM 12.07 53.726 0 7.51 11.73 10.4
5/6/2022 8:00:00 PM 11.97 53.546 0 7.4 12.53 10.41
5/6/2022 8:15:00 PM 11.9 53.42 0 7.42 12.46 10.43
5/6/2022 8:30:00 PM 11.81 53.258 0 7.41 13.79 10.46
5/6/2022 8:45:00 PM 11.74 53.132 0 7.45 13.59 10.47
5/6/2022 9:00:00 PM 11.7 53.06 0 7.48 14.63 10.48
5/6/2022 9:15:00 PM 11.67 53.006 0 7.47 13.17 10.48
5/6/2022 9:30:00 PM 11.57 52.826 0 7.43 13.32 10.5
5/6/2022 9:45:00 PM 11.49 52.682 0 7.42 12.11 10.53
5/6/2022 10:00:00 PM 11.43 52.574 0 7.47 12.33 10.54
5/6/2022 10:15:00 PM 11.33 52.394 0 7.58 11.9 10.57
5/6/2022 10:30:00 PM 11.27 52.286 0 7.65 12.13 10.59
5/6/2022 10:45:00 PM 11.24 52.232 0 7.57 12.52 10.6
5/6/2022 11:00:00 PM 11.24 52.232 0 7.67 12.57 10.6
5/6/2022 11:15:00 PM 11.32 52.376 0 7.68 13.13 10.58
5/6/2022 11:30:00 PM 11.4 52.52 0 7.69 13.85 10.55
5/6/2022 11:45:00 PM 11.34 52.412 0 7.6 10.35 10.57
5/7/2022 12:00:00 AM 11.23 52.214 0 7.58 14.85 10.59
5/7/2022 12:15:00 AM 11.19 52.142 0 7.57 13.43 10.58
5/7/2022 12:30:00 AM 11.02 51.836 0 7.6 10.01 10.64
5/7/2022 12:45:00 AM 10.95 51.71 0 7.53 13.72 10.64
5/7/2022 1:00:00 AM 10.9 51.62 0 7.62 14.07 10.66
5/7/2022 1:15:00 AM 10.85 51.53 0 7.56 14.29 10.67
5/7/2022 1:30:00 AM 10.89 51.602 0 7.63 10.62 10.66
5/7/2022 1:45:00 AM 10.84 51.512 0 7.69 15.67 10.69
5/7/2022 2:00:00 AM 10.83 51.494 0 7.67 15.07 10.68
5/7/2022 2:15:00 AM 10.85 51.53 0 7.69 12.24 10.67
5/7/2022 2:30:00 AM 10.88 51.584 0 7.72 11.59 10.67
5/7/2022 2:45:00 AM 10.78 51.404 0 7.64 15.52 10.69
5/7/2022 3:00:00 AM 10.69 51.242 0 7.59 12.6 10.72
5/7/2022 3:15:00 AM 10.73 51.314 0 7.61 12.41 10.69
5/7/2022 3:30:00 AM 10.66 51.188 0 7.62 13.06 10.71
5/7/2022 3:45:00 AM 10.6 51.08 0 7.68 12.58 10.72
5/7/2022 4:00:00 AM 10.69 51.242 0 7.65 12.01 10.69
5/7/2022 4:15:00 AM 10.58 51.044 0 7.63 12.28 10.72
5/7/2022 4:30:00 AM 10.52 50.936 0 7.55 15.08 10.73
5/7/2022 4:45:00 AM 10.44 50.792 0 7.65 14.52 10.76
5/7/2022 5:00:00 AM 10.28 50.504 0 7.59 14.22 10.82
5/7/2022 5:15:00 AM 10.06 50.108 0 7.46 13.31 10.88
5/7/2022 5:30:00 AM 9.79 49.622 0 7.16 9.83 10.95
5/7/2022 5:45:00 AM 9.32 48.776 0 6.94 11.23 11.07
5/7/2022 6:00:00 AM 9.34 48.812 0 7.28 9.8 11.05
5/7/2022 6:15:00 AM 9.2 48.56 0 7.27 12.6 11.09
5/7/2022 6:30:00 AM 9.17 48.506 0 7.48 13.71 11.11
5/7/2022 6:45:00 AM 9.29 48.722 0 7.48 13.24 11.06
5/7/2022 7:00:00 AM 9.33 48.794 0 7.5 12.88 11.06
5/7/2022 7:15:00 AM 9.42 48.956 0 7.62 14.25 11.02
5/7/2022 7:30:00 AM 9.47 49.046 0 7.64 9.51 11.02
5/7/2022 7:45:00 AM 9.62 49.316 0.007 8.29 12.53 10.99
5/7/2022 8:00:00 AM 9.64 49.352 0.01 8.07 8.23 11.06
5/7/2022 8:15:00 AM 9.83 49.694 0.008 7.99 12.59 11.03
5/7/2022 8:30:00 AM 9.97 49.946 0.007 7.96 11.48 11.03
5/7/2022 8:45:00 AM 9.74 49.532 0.008 7.94 11.17 11.21
5/7/2022 9:00:00 AM 9.97 49.946 0.007 8 9.73 11.18
5/7/2022 9:15:00 AM 10.13 50.234 0.008 7.95 11.16 11.14
5/7/2022 9:30:00 AM 10.3 50.54 0.007 7.96 12.19 11.11
5/7/2022 9:45:00 AM 10.57 51.026 0.008 7.98 13.83 10.95
5/7/2022 10:00:00 AM 11.14 52.052 0.009 7.98 7.23 10.7
5/7/2022 10:15:00 AM 11.37 52.466 0.013 8.04 9.45 10.59
5/7/2022 10:30:00 AM 11.53